PWSweather.com
Personal Weather Stations
Station Observations
KMNHANSK2
Andys Live Weather Stations, Hanska, MN 56041

Andys Live Weather StationsHanska, MN 56041

Lat: 44.170119, Lon: -94.381619

Elevation: 1004

Station Type: Davis Instruments Vantage Pro2 Plus

http://www.madeliasliveweather.com/thompsonfarms/

High Low Average
Temperature 60.4°F15.8°F 40.9°F4.9°F 49.8°F9.9°F
Dew Point 47.1°F8.4°F 37.3°F2.9°F 41.7°F5.4°F
Winds 25.0 mph NE40.2 mph NE 2.0 mph 3.2 mph 8.3 mph 13.4 mph
Wind Gusts 25.0 mph40.2 mph 4.0 mph6.4 mph 12.0 mph19.3 mph
Humidity 95% 49% 75%
Pressure 30.16 in1021.30 in 30.10 in1019.30 in -
Precipitation 0.60 in15.20 in - -
Hour Temp Dew Point Humidity Winds Wind Gusts Pressure Precip Precip Rate Daily Precip Total
12:00 AM 44.5°F6.9°C 43.2°F6.2°C 95% 3.0 mph ENE4.8 kmh ENE 4.0 mph6.4 kmh 30.10 in1019.3 mb 0.02 in0.5 mm 0.00 in0.0 mm 0.02 in0.5 mm
12:01 AM 44.5°F6.9°C 43.2°F6.2°C 95% 3.0 mph ENE4.8 kmh ENE 4.0 mph6.4 kmh 30.10 in1019.3 mb 0.02 in0.5 mm 0.00 in0.0 mm 0.02 in0.5 mm
12:02 AM 44.5°F6.9°C 43.2°F6.2°C 95% 5.0 mph ENE8.0 kmh ENE 5.0 mph8.0 kmh 30.10 in1019.3 mb 0.02 in0.5 mm 0.00 in0.0 mm 0.02 in0.5 mm
12:03 AM 44.5°F6.9°C 43.2°F6.2°C 95% 3.0 mph ENE4.8 kmh ENE 5.0 mph8.0 kmh 30.10 in1019.3 mb 0.02 in0.5 mm 0.00 in0.0 mm 0.02 in0.5 mm
12:04 AM 44.5°F6.9°C 43.2°F6.2°C 95% 5.0 mph ENE8.0 kmh ENE 5.0 mph8.0 kmh 30.10 in1019.3 mb 0.02 in0.5 mm 0.00 in0.0 mm 0.02 in0.5 mm
12:05 AM 44.5°F6.9°C 43.2°F6.2°C 95% 4.0 mph ENE6.4 kmh ENE 5.0 mph8.0 kmh 30.10 in1019.3 mb 0.02 in0.5 mm 0.00 in0.0 mm 0.02 in0.5 mm
12:06 AM 44.5°F6.9°C 43.2°F6.2°C 95% 4.0 mph ENE6.4 kmh ENE 5.0 mph8.0 kmh 30.10 in1019.3 mb 0.02 in0.5 mm 0.00 in0.0 mm 0.02 in0.5 mm
12:07 AM 44.5°F6.9°C 43.2°F6.2°C 95% 5.0 mph ENE8.0 kmh ENE 5.0 mph8.0 kmh 30.10 in1019.3 mb 0.02 in0.5 mm 0.00 in0.0 mm 0.02 in0.5 mm
12:08 AM 44.5°F6.9°C 43.2°F6.2°C 95% 3.0 mph ENE4.8 kmh ENE 5.0 mph8.0 kmh 30.10 in1019.3 mb 0.02 in0.5 mm 0.00 in0.0 mm 0.02 in0.5 mm
12:09 AM 44.5°F6.9°C 43.2°F6.2°C 95% 3.0 mph ENE4.8 kmh ENE 5.0 mph8.0 kmh 30.10 in1019.3 mb 0.02 in0.5 mm 0.00 in0.0 mm 0.02 in0.5 mm
12:10 AM 44.5°F6.9°C 43.2°F6.2°C 95% 3.0 mph ENE4.8 kmh ENE 5.0 mph8.0 kmh 30.10 in1019.3 mb 0.02 in0.5 mm 0.00 in0.0 mm 0.02 in0.5 mm
12:11 AM 44.5°F6.9°C 43.2°F6.2°C 95% 5.0 mph ENE8.0 kmh ENE 5.0 mph8.0 kmh 30.10 in1019.3 mb 0.02 in0.5 mm 0.00 in0.0 mm 0.02 in0.5 mm
12:12 AM 44.5°F6.9°C 43.2°F6.2°C 95% 3.0 mph ENE4.8 kmh ENE 5.0 mph8.0 kmh 30.10 in1019.3 mb 0.02 in0.5 mm 0.00 in0.0 mm 0.02 in0.5 mm
12:13 AM 44.5°F6.9°C 43.2°F6.2°C 95% 3.0 mph ENE4.8 kmh ENE 5.0 mph8.0 kmh 30.10 in1019.3 mb 0.02 in0.5 mm 0.00 in0.0 mm 0.02 in0.5 mm
12:14 AM 44.5°F6.9°C 43.2°F6.2°C 95% 4.0 mph ENE6.4 kmh ENE 5.0 mph8.0 kmh 30.10 in1019.3 mb 0.02 in0.5 mm 0.00 in0.0 mm 0.02 in0.5 mm
12:15 AM 44.5°F6.9°C 43.2°F6.2°C 95% 4.0 mph ENE6.4 kmh ENE 5.0 mph8.0 kmh 30.11 in1019.6 mb 0.02 in0.5 mm 0.00 in0.0 mm 0.02 in0.5 mm
12:16 AM 44.5°F6.9°C 43.2°F6.2°C 95% 3.0 mph ENE4.8 kmh ENE 5.0 mph8.0 kmh 30.10 in1019.3 mb 0.02 in0.5 mm 0.00 in0.0 mm 0.02 in0.5 mm
12:17 AM 44.5°F6.9°C 43.2°F6.2°C 95% 3.0 mph ENE4.8 kmh ENE 5.0 mph8.0 kmh 30.11 in1019.6 mb 0.02 in0.5 mm 0.00 in0.0 mm 0.02 in0.5 mm
12:18 AM 44.5°F6.9°C 43.2°F6.2°C 95% 3.0 mph ENE4.8 kmh ENE 5.0 mph8.0 kmh 30.11 in1019.6 mb 0.02 in0.5 mm 0.00 in0.0 mm 0.02 in0.5 mm
12:19 AM 44.5°F6.9°C 43.2°F6.2°C 95% 8.0 mph ENE12.9 kmh ENE 8.0 mph12.9 kmh 30.11 in1019.6 mb 0.02 in0.5 mm 0.00 in0.0 mm 0.02 in0.5 mm
12:20 AM 44.5°F6.9°C 43.2°F6.2°C 95% 5.0 mph ENE8.0 kmh ENE 8.0 mph12.9 kmh 30.11 in1019.6 mb 0.02 in0.5 mm 0.00 in0.0 mm 0.02 in0.5 mm
12:21 AM 44.5°F6.9°C 43.2°F6.2°C 95% 3.0 mph ENE4.8 kmh ENE 8.0 mph12.9 kmh 30.11 in1019.6 mb 0.02 in0.5 mm 0.00 in0.0 mm 0.02 in0.5 mm
12:22 AM 44.6°F7.0°C 43.3°F6.3°C 95% 4.0 mph ENE6.4 kmh ENE 8.0 mph12.9 kmh 30.11 in1019.6 mb 0.02 in0.5 mm 0.00 in0.0 mm 0.02 in0.5 mm
12:23 AM 44.5°F6.9°C 43.2°F6.2°C 95% 4.0 mph ENE6.4 kmh ENE 8.0 mph12.9 kmh 30.11 in1019.6 mb 0.02 in0.5 mm 0.00 in0.0 mm 0.02 in0.5 mm
12:24 AM 44.5°F6.9°C 43.2°F6.2°C 95% 4.0 mph ENE6.4 kmh ENE 8.0 mph12.9 kmh 30.11 in1019.6 mb 0.02 in0.5 mm 0.00 in0.0 mm 0.02 in0.5 mm
12:25 AM 44.6°F7.0°C 43.3°F6.3°C 95% 3.0 mph ENE4.8 kmh ENE 8.0 mph12.9 kmh 30.11 in1019.6 mb 0.02 in0.5 mm 0.00 in0.0 mm 0.02 in0.5 mm
12:26 AM 44.6°F7.0°C 43.3°F6.3°C 95% 4.0 mph ENE6.4 kmh ENE 8.0 mph12.9 kmh 30.11 in1019.6 mb 0.02 in0.5 mm 0.00 in0.0 mm 0.02 in0.5 mm
12:27 AM 44.6°F7.0°C 43.3°F6.3°C 95% 4.0 mph ENE6.4 kmh ENE 8.0 mph12.9 kmh 30.11 in1019.6 mb 0.02 in0.5 mm 0.00 in0.0 mm 0.02 in0.5 mm
12:28 AM 44.6°F7.0°C 43.3°F6.3°C 95% 3.0 mph ENE4.8 kmh ENE 8.0 mph12.9 kmh 30.11 in1019.6 mb 0.02 in0.5 mm 0.00 in0.0 mm 0.02 in0.5 mm
12:29 AM 44.6°F7.0°C 43.3°F6.3°C 95% 4.0 mph ENE6.4 kmh ENE 8.0 mph12.9 kmh 30.11 in1019.6 mb 0.02 in0.5 mm 0.00 in0.0 mm 0.02 in0.5 mm
12:30 AM 44.6°F7.0°C 43.3°F6.3°C 95% 4.0 mph ENE6.4 kmh ENE 5.0 mph8.0 kmh 30.11 in1019.6 mb 0.00 in0.0 mm 0.00 in0.0 mm 0.02 in0.5 mm
12:31 AM 44.6°F7.0°C 43.3°F6.3°C 95% 4.0 mph ENE6.4 kmh ENE 5.0 mph8.0 kmh 30.11 in1019.6 mb 0.00 in0.0 mm 0.00 in0.0 mm 0.02 in0.5 mm
12:32 AM 44.6°F7.0°C 43.3°F6.3°C 95% 4.0 mph ENE6.4 kmh ENE 5.0 mph8.0 kmh 30.11 in1019.6 mb 0.00 in0.0 mm 0.00 in0.0 mm 0.02 in0.5 mm
12:33 AM 44.6°F7.0°C 43.3°F6.3°C 95% 3.0 mph ENE4.8 kmh ENE 5.0 mph8.0 kmh 30.11 in1019.6 mb 0.00 in0.0 mm 0.00 in0.0 mm 0.02 in0.5 mm
12:34 AM 44.6°F7.0°C 43.3°F6.3°C 95% 3.0 mph ENE4.8 kmh ENE 5.0 mph8.0 kmh 30.11 in1019.6 mb 0.00 in0.0 mm 0.00 in0.0 mm 0.02 in0.5 mm
12:35 AM 44.6°F7.0°C 43.3°F6.3°C 95% 3.0 mph ENE4.8 kmh ENE 5.0 mph8.0 kmh 30.11 in1019.6 mb 0.00 in0.0 mm 0.00 in0.0 mm 0.02 in0.5 mm
12:36 AM 44.5°F6.9°C 43.2°F6.2°C 95% 2.0 mph ENE3.2 kmh ENE 5.0 mph8.0 kmh 30.11 in1019.6 mb 0.00 in0.0 mm 0.00 in0.0 mm 0.02 in0.5 mm
12:37 AM 44.6°F7.0°C 43.3°F6.3°C 95% 4.0 mph ENE6.4 kmh ENE 5.0 mph8.0 kmh 30.11 in1019.6 mb 0.00 in0.0 mm 0.00 in0.0 mm 0.02 in0.5 mm
12:38 AM 44.5°F6.9°C 43.2°F6.2°C 95% 4.0 mph ENE6.4 kmh ENE 5.0 mph8.0 kmh 30.11 in1019.6 mb 0.00 in0.0 mm 0.00 in0.0 mm 0.02 in0.5 mm
12:39 AM 44.6°F7.0°C 43.3°F6.3°C 95% 3.0 mph ENE4.8 kmh ENE 5.0 mph8.0 kmh 30.11 in1019.6 mb 0.00 in0.0 mm 0.00 in0.0 mm 0.02 in0.5 mm
12:40 AM 44.5°F6.9°C 43.2°F6.2°C 95% 2.0 mph ENE3.2 kmh ENE 5.0 mph8.0 kmh 30.11 in1019.6 mb 0.00 in0.0 mm 0.00 in0.0 mm 0.02 in0.5 mm
12:41 AM 44.5°F6.9°C 43.2°F6.2°C 95% 4.0 mph ENE6.4 kmh ENE 5.0 mph8.0 kmh 30.11 in1019.6 mb 0.00 in0.0 mm 0.00 in0.0 mm 0.02 in0.5 mm
12:42 AM 44.5°F6.9°C 43.2°F6.2°C 95% 3.0 mph ENE4.8 kmh ENE 5.0 mph8.0 kmh 30.11 in1019.6 mb 0.00 in0.0 mm 0.00 in0.0 mm 0.02 in0.5 mm
12:43 AM 44.5°F6.9°C 43.2°F6.2°C 95% 3.0 mph ENE4.8 kmh ENE 5.0 mph8.0 kmh 30.11 in1019.6 mb 0.00 in0.0 mm 0.00 in0.0 mm 0.02 in0.5 mm
12:44 AM 44.5°F6.9°C 43.2°F6.2°C 95% 3.0 mph ENE4.8 kmh ENE 5.0 mph8.0 kmh 30.11 in1019.6 mb 0.00 in0.0 mm 0.00 in0.0 mm 0.02 in0.5 mm
12:45 AM 44.5°F6.9°C 43.2°F6.2°C 95% 3.0 mph ENE4.8 kmh ENE 5.0 mph8.0 kmh 30.11 in1019.6 mb 0.00 in0.0 mm 0.00 in0.0 mm 0.02 in0.5 mm
12:46 AM 44.5°F6.9°C 43.2°F6.2°C 95% 2.0 mph ENE3.2 kmh ENE 5.0 mph8.0 kmh 30.11 in1019.6 mb 0.00 in0.0 mm 0.00 in0.0 mm 0.02 in0.5 mm
12:47 AM 44.5°F6.9°C 43.2°F6.2°C 95% 4.0 mph ENE6.4 kmh ENE 5.0 mph8.0 kmh 30.11 in1019.6 mb 0.00 in0.0 mm 0.00 in0.0 mm 0.02 in0.5 mm
12:48 AM 44.5°F6.9°C 43.2°F6.2°C 95% 3.0 mph ENE4.8 kmh ENE 5.0 mph8.0 kmh 30.11 in1019.6 mb 0.00 in0.0 mm 0.00 in0.0 mm 0.02 in0.5 mm
12:49 AM 44.5°F6.9°C 43.2°F6.2°C 95% 3.0 mph ENE4.8 kmh ENE 5.0 mph8.0 kmh 30.11 in1019.6 mb 0.00 in0.0 mm 0.00 in0.0 mm 0.02 in0.5 mm
12:50 AM 44.5°F6.9°C 43.2°F6.2°C 95% 3.0 mph ENE4.8 kmh ENE 5.0 mph8.0 kmh 30.11 in1019.6 mb 0.00 in0.0 mm 0.00 in0.0 mm 0.02 in0.5 mm
12:51 AM 44.5°F6.9°C 43.2°F6.2°C 95% 4.0 mph ENE6.4 kmh ENE 5.0 mph8.0 kmh 30.11 in1019.6 mb 0.00 in0.0 mm 0.00 in0.0 mm 0.02 in0.5 mm
12:52 AM 44.5°F6.9°C 43.2°F6.2°C 95% 7.0 mph ENE11.3 kmh ENE 7.0 mph11.3 kmh 30.11 in1019.6 mb 0.00 in0.0 mm 0.00 in0.0 mm 0.02 in0.5 mm
12:53 AM 44.5°F6.9°C 43.2°F6.2°C 95% 4.0 mph ENE6.4 kmh ENE 7.0 mph11.3 kmh 30.11 in1019.6 mb 0.00 in0.0 mm 0.00 in0.0 mm 0.02 in0.5 mm
12:54 AM 44.5°F6.9°C 43.2°F6.2°C 95% 5.0 mph ENE8.0 kmh ENE 7.0 mph11.3 kmh 30.11 in1019.6 mb 0.00 in0.0 mm 0.00 in0.0 mm 0.02 in0.5 mm
12:55 AM 44.5°F6.9°C 43.2°F6.2°C 95% 7.0 mph ENE11.3 kmh ENE 7.0 mph11.3 kmh 30.11 in1019.6 mb 0.00 in0.0 mm 0.00 in0.0 mm 0.02 in0.5 mm
12:56 AM 44.5°F6.9°C 43.2°F6.2°C 95% 5.0 mph ENE8.0 kmh ENE 7.0 mph11.3 kmh 30.11 in1019.6 mb 0.00 in0.0 mm 0.00 in0.0 mm 0.02 in0.5 mm
12:57 AM 44.5°F6.9°C 43.2°F6.2°C 95% 4.0 mph ENE6.4 kmh ENE 7.0 mph11.3 kmh 30.11 in1019.6 mb 0.00 in0.0 mm 0.00 in0.0 mm 0.02 in0.5 mm
12:58 AM 44.5°F6.9°C 43.2°F6.2°C 95% 4.0 mph ENE6.4 kmh ENE 7.0 mph11.3 kmh 30.11 in1019.6 mb 0.00 in0.0 mm 0.00 in0.0 mm 0.02 in0.5 mm
12:59 AM 44.5°F6.9°C 43.2°F6.2°C 95% 4.0 mph ENE6.4 kmh ENE 7.0 mph11.3 kmh 30.11 in1019.6 mb 0.00 in0.0 mm 0.00 in0.0 mm 0.02 in0.5 mm
01:00 AM 44.5°F6.9°C 43.2°F6.2°C 95% 5.0 mph ENE8.0 kmh ENE 5.0 mph8.0 kmh 30.11 in1019.6 mb 0.00 in0.0 mm 0.00 in0.0 mm 0.02 in0.5 mm
01:01 AM 44.5°F6.9°C 43.2°F6.2°C 95% 4.0 mph ENE6.4 kmh ENE 5.0 mph8.0 kmh 30.11 in1019.6 mb 0.00 in0.0 mm 0.00 in0.0 mm 0.02 in0.5 mm
01:02 AM 44.5°F6.9°C 43.2°F6.2°C 95% 2.0 mph ENE3.2 kmh ENE 5.0 mph8.0 kmh 30.11 in1019.6 mb 0.00 in0.0 mm 0.00 in0.0 mm 0.02 in0.5 mm
01:03 AM 44.6°F7.0°C 43.3°F6.3°C 95% 4.0 mph ENE6.4 kmh ENE 5.0 mph8.0 kmh 30.11 in1019.6 mb 0.00 in0.0 mm 0.00 in0.0 mm 0.02 in0.5 mm
01:04 AM 44.5°F6.9°C 43.2°F6.2°C 95% 5.0 mph ENE8.0 kmh ENE 5.0 mph8.0 kmh 30.11 in1019.6 mb 0.00 in0.0 mm 0.00 in0.0 mm 0.02 in0.5 mm
01:05 AM 44.5°F6.9°C 43.2°F6.2°C 95% 5.0 mph ENE8.0 kmh ENE 7.0 mph11.3 kmh 30.11 in1019.6 mb 0.00 in0.0 mm 0.00 in0.0 mm 0.02 in0.5 mm
01:06 AM 44.5°F6.9°C 43.2°F6.2°C 95% 4.0 mph ENE6.4 kmh ENE 7.0 mph11.3 kmh 30.11 in1019.6 mb 0.00 in0.0 mm 0.00 in0.0 mm 0.02 in0.5 mm
01:07 AM 44.5°F6.9°C 43.2°F6.2°C 95% 4.0 mph ENE6.4 kmh ENE 7.0 mph11.3 kmh 30.11 in1019.6 mb 0.00 in0.0 mm 0.00 in0.0 mm 0.02 in0.5 mm
01:08 AM 44.5°F6.9°C 43.2°F6.2°C 95% 7.0 mph NE11.3 kmh NE 8.0 mph12.9 kmh 30.11 in1019.6 mb 0.00 in0.0 mm 0.00 in0.0 mm 0.02 in0.5 mm
01:09 AM 44.5°F6.9°C 43.2°F6.2°C 95% 7.0 mph NE11.3 kmh NE 8.0 mph12.9 kmh 30.11 in1019.6 mb 0.00 in0.0 mm 0.00 in0.0 mm 0.02 in0.5 mm
01:10 AM 44.6°F7.0°C 43.3°F6.3°C 95% 6.0 mph NE9.7 kmh NE 8.0 mph12.9 kmh 30.11 in1019.6 mb 0.00 in0.0 mm 0.00 in0.0 mm 0.02 in0.5 mm
01:11 AM 44.6°F7.0°C 43.3°F6.3°C 95% 5.0 mph NE8.0 kmh NE 8.0 mph12.9 kmh 30.11 in1019.6 mb 0.00 in0.0 mm 0.00 in0.0 mm 0.02 in0.5 mm
01:12 AM 44.6°F7.0°C 43.0°F6.1°C 94% 6.0 mph NE9.7 kmh NE 8.0 mph12.9 kmh 30.11 in1019.6 mb 0.00 in0.0 mm 0.00 in0.0 mm 0.02 in0.5 mm
01:13 AM 44.6°F7.0°C 43.0°F6.1°C 94% 5.0 mph NE8.0 kmh NE 8.0 mph12.9 kmh 30.11 in1019.6 mb 0.00 in0.0 mm 0.00 in0.0 mm 0.02 in0.5 mm
01:14 AM 44.6°F7.0°C 43.0°F6.1°C 94% 6.0 mph NE9.7 kmh NE 8.0 mph12.9 kmh 30.11 in1019.6 mb 0.00 in0.0 mm 0.00 in0.0 mm 0.02 in0.5 mm
01:15 AM 44.7°F7.1°C 43.1°F6.2°C 94% 6.0 mph NE9.7 kmh NE 8.0 mph12.9 kmh 30.11 in1019.6 mb 0.00 in0.0 mm 0.00 in0.0 mm 0.02 in0.5 mm
01:16 AM 44.7°F7.1°C 43.1°F6.2°C 94% 6.0 mph NE9.7 kmh NE 8.0 mph12.9 kmh 30.11 in1019.6 mb 0.00 in0.0 mm 0.00 in0.0 mm 0.02 in0.5 mm
01:17 AM 44.7°F7.1°C 43.1°F6.2°C 94% 5.0 mph NE8.0 kmh NE 8.0 mph12.9 kmh 30.11 in1019.6 mb 0.00 in0.0 mm 0.00 in0.0 mm 0.02 in0.5 mm
01:18 AM 44.7°F7.1°C 43.1°F6.2°C 94% 8.0 mph NE12.9 kmh NE 9.0 mph14.5 kmh 30.11 in1019.6 mb 0.00 in0.0 mm 0.00 in0.0 mm 0.02 in0.5 mm
01:19 AM 44.7°F7.1°C 43.1°F6.2°C 94% 9.0 mph NE14.5 kmh NE 9.0 mph14.5 kmh 30.11 in1019.6 mb 0.00 in0.0 mm 0.00 in0.0 mm 0.02 in0.5 mm
01:20 AM 44.7°F7.1°C 42.8°F6.0°C 93% 5.0 mph NE8.0 kmh NE 9.0 mph14.5 kmh 30.11 in1019.6 mb 0.00 in0.0 mm 0.00 in0.0 mm 0.02 in0.5 mm
01:21 AM 44.7°F7.1°C 42.8°F6.0°C 93% 5.0 mph NE8.0 kmh NE 9.0 mph14.5 kmh 30.11 in1019.6 mb 0.00 in0.0 mm 0.00 in0.0 mm 0.02 in0.5 mm
01:22 AM 44.7°F7.1°C 42.8°F6.0°C 93% 6.0 mph NE9.7 kmh NE 9.0 mph14.5 kmh 30.11 in1019.6 mb 0.00 in0.0 mm 0.00 in0.0 mm 0.02 in0.5 mm
01:23 AM 44.7°F7.1°C 42.8°F6.0°C 93% 6.0 mph NE9.7 kmh NE 9.0 mph14.5 kmh 30.11 in1019.6 mb 0.00 in0.0 mm 0.00 in0.0 mm 0.02 in0.5 mm
01:24 AM 44.8°F7.1°C 42.9°F6.1°C 93% 5.0 mph NE8.0 kmh NE 9.0 mph14.5 kmh 30.11 in1019.6 mb 0.00 in0.0 mm 0.00 in0.0 mm 0.02 in0.5 mm
01:25 AM 44.8°F7.1°C 42.9°F6.1°C 93% 7.0 mph NE11.3 kmh NE 9.0 mph14.5 kmh 30.11 in1019.6 mb 0.00 in0.0 mm 0.00 in0.0 mm 0.02 in0.5 mm
01:26 AM 44.8°F7.1°C 42.6°F5.9°C 92% 6.0 mph NE9.7 kmh NE 9.0 mph14.5 kmh 30.11 in1019.6 mb 0.00 in0.0 mm 0.00 in0.0 mm 0.02 in0.5 mm
01:27 AM 44.8°F7.1°C 42.6°F5.9°C 92% 7.0 mph NE11.3 kmh NE 9.0 mph14.5 kmh 30.11 in1019.6 mb 0.00 in0.0 mm 0.00 in0.0 mm 0.02 in0.5 mm
01:28 AM 44.8°F7.1°C 42.6°F5.9°C 92% 5.0 mph NE8.0 kmh NE 9.0 mph14.5 kmh 30.11 in1019.6 mb 0.00 in0.0 mm 0.00 in0.0 mm 0.02 in0.5 mm
01:29 AM 44.8°F7.1°C 42.6°F5.9°C 92% 6.0 mph NE9.7 kmh NE 9.0 mph14.5 kmh 30.11 in1019.6 mb 0.00 in0.0 mm 0.00 in0.0 mm 0.02 in0.5 mm
01:30 AM 44.8°F7.1°C 42.6°F5.9°C 92% 6.0 mph NE9.7 kmh NE 6.0 mph9.7 kmh 30.11 in1019.6 mb 0.00 in0.0 mm 0.00 in0.0 mm 0.02 in0.5 mm
01:31 AM 44.8°F7.1°C 42.6°F5.9°C 92% 6.0 mph NE9.7 kmh NE 7.0 mph11.3 kmh 30.11 in1019.6 mb 0.00 in0.0 mm 0.00 in0.0 mm 0.02 in0.5 mm
01:32 AM 44.8°F7.1°C 42.6°F5.9°C 92% 6.0 mph NE9.7 kmh NE 7.0 mph11.3 kmh 30.11 in1019.6 mb 0.00 in0.0 mm 0.00 in0.0 mm 0.02 in0.5 mm
01:33 AM 44.7°F7.1°C 42.5°F5.8°C 92% 5.0 mph NE8.0 kmh NE 7.0 mph11.3 kmh 30.12 in1020.0 mb 0.00 in0.0 mm 0.00 in0.0 mm 0.02 in0.5 mm
01:34 AM 44.8°F7.1°C 42.6°F5.9°C 92% 5.0 mph NE8.0 kmh NE 7.0 mph11.3 kmh 30.11 in1019.6 mb 0.00 in0.0 mm 0.00 in0.0 mm 0.02 in0.5 mm
01:35 AM 44.7°F7.1°C 42.5°F5.8°C 92% 6.0 mph NE9.7 kmh NE 7.0 mph11.3 kmh 30.11 in1019.6 mb 0.00 in0.0 mm 0.00 in0.0 mm 0.02 in0.5 mm
01:36 AM 44.7°F7.1°C 42.5°F5.8°C 92% 5.0 mph NE8.0 kmh NE 7.0 mph11.3 kmh 30.12 in1020.0 mb 0.00 in0.0 mm 0.00 in0.0 mm 0.02 in0.5 mm
01:37 AM 44.7°F7.1°C 42.5°F5.8°C 92% 5.0 mph NE8.0 kmh NE 7.0 mph11.3 kmh 30.11 in1019.6 mb 0.00 in0.0 mm 0.00 in0.0 mm 0.02 in0.5 mm
01:38 AM 44.7°F7.1°C 42.5°F5.8°C 92% 4.0 mph NE6.4 kmh NE 7.0 mph11.3 kmh 30.12 in1020.0 mb 0.00 in0.0 mm 0.00 in0.0 mm 0.02 in0.5 mm
01:39 AM 44.7°F7.1°C 42.5°F5.8°C 92% 6.0 mph NE9.7 kmh NE 7.0 mph11.3 kmh 30.11 in1019.6 mb 0.00 in0.0 mm 0.00 in0.0 mm 0.02 in0.5 mm
01:40 AM 44.6°F7.0°C 42.4°F5.8°C 92% 5.0 mph NE8.0 kmh NE 7.0 mph11.3 kmh 30.12 in1020.0 mb 0.00 in0.0 mm 0.00 in0.0 mm 0.02 in0.5 mm
01:41 AM 44.6°F7.0°C 42.4°F5.8°C 92% 5.0 mph NE8.0 kmh NE 7.0 mph11.3 kmh 30.12 in1020.0 mb 0.00 in0.0 mm 0.00 in0.0 mm 0.02 in0.5 mm
01:42 AM 44.6°F7.0°C 42.4°F5.8°C 92% 4.0 mph NE6.4 kmh NE 7.0 mph11.3 kmh 30.12 in1020.0 mb 0.00 in0.0 mm 0.00 in0.0 mm 0.02 in0.5 mm
01:43 AM 44.6°F7.0°C 42.4°F5.8°C 92% 6.0 mph NE9.7 kmh NE 7.0 mph11.3 kmh 30.12 in1020.0 mb 0.00 in0.0 mm 0.00 in0.0 mm 0.02 in0.5 mm
01:44 AM 44.6°F7.0°C 42.4°F5.8°C 92% 5.0 mph NE8.0 kmh NE 7.0 mph11.3 kmh 30.12 in1020.0 mb 0.00 in0.0 mm 0.00 in0.0 mm 0.02 in0.5 mm
01:45 AM 44.6°F7.0°C 42.4°F5.8°C 92% 4.0 mph NE6.4 kmh NE 7.0 mph11.3 kmh 30.12 in1020.0 mb 0.00 in0.0 mm 0.00 in0.0 mm 0.02 in0.5 mm
01:46 AM 44.6°F7.0°C 42.4°F5.8°C 92% 5.0 mph NE8.0 kmh NE 7.0 mph11.3 kmh 30.12 in1020.0 mb 0.00 in0.0 mm 0.00 in0.0 mm 0.02 in0.5 mm
01:47 AM 44.6°F7.0°C 42.4°F5.8°C 92% 4.0 mph NE6.4 kmh NE 7.0 mph11.3 kmh 30.12 in1020.0 mb 0.00 in0.0 mm 0.00 in0.0 mm 0.02 in0.5 mm
01:48 AM 44.5°F6.9°C 42.3°F5.7°C 92% 4.0 mph NE6.4 kmh NE 7.0 mph11.3 kmh 30.12 in1020.0 mb 0.00 in0.0 mm 0.00 in0.0 mm 0.02 in0.5 mm
01:49 AM 44.5°F6.9°C 42.3°F5.7°C 92% 5.0 mph NE8.0 kmh NE 7.0 mph11.3 kmh 30.12 in1020.0 mb 0.00 in0.0 mm 0.00 in0.0 mm 0.02 in0.5 mm
01:50 AM 44.5°F6.9°C 42.3°F5.7°C 92% 3.0 mph NE4.8 kmh NE 7.0 mph11.3 kmh 30.12 in1020.0 mb 0.00 in0.0 mm 0.00 in0.0 mm 0.02 in0.5 mm
01:51 AM 44.5°F6.9°C 42.3°F5.7°C 92% 5.0 mph NE8.0 kmh NE 7.0 mph11.3 kmh 30.12 in1020.0 mb 0.00 in0.0 mm 0.00 in0.0 mm 0.02 in0.5 mm
01:52 AM 44.5°F6.9°C 42.3°F5.7°C 92% 5.0 mph NE8.0 kmh NE 7.0 mph11.3 kmh 30.12 in1020.0 mb 0.00 in0.0 mm 0.00 in0.0 mm 0.02 in0.5 mm
01:53 AM 44.5°F6.9°C 42.3°F5.7°C 92% 4.0 mph NE6.4 kmh NE 7.0 mph11.3 kmh 30.12 in1020.0 mb 0.00 in0.0 mm 0.00 in0.0 mm 0.02 in0.5 mm
01:54 AM 44.5°F6.9°C 42.3°F5.7°C 92% 4.0 mph NE6.4 kmh NE 7.0 mph11.3 kmh 30.12 in1020.0 mb 0.00 in0.0 mm 0.00 in0.0 mm 0.02 in0.5 mm
01:55 AM 44.5°F6.9°C 42.3°F5.7°C 92% 4.0 mph NE6.4 kmh NE 7.0 mph11.3 kmh 30.12 in1020.0 mb 0.00 in0.0 mm 0.00 in0.0 mm 0.02 in0.5 mm
01:56 AM 44.5°F6.9°C 42.3°F5.7°C 92% 5.0 mph NE8.0 kmh NE 7.0 mph11.3 kmh 30.12 in1020.0 mb 0.00 in0.0 mm 0.00 in0.0 mm 0.02 in0.5 mm
01:57 AM 44.5°F6.9°C 42.3°F5.7°C 92% 6.0 mph NE9.7 kmh NE 7.0 mph11.3 kmh 30.12 in1020.0 mb 0.00 in0.0 mm 0.00 in0.0 mm 0.02 in0.5 mm
01:58 AM 44.5°F6.9°C 42.3°F5.7°C 92% 5.0 mph NE8.0 kmh NE 7.0 mph11.3 kmh 30.12 in1020.0 mb 0.00 in0.0 mm 0.00 in0.0 mm 0.02 in0.5 mm
01:59 AM 44.5°F6.9°C 42.3°F5.7°C 92% 6.0 mph NE9.7 kmh NE 7.0 mph11.3 kmh 30.12 in1020.0 mb 0.00 in0.0 mm 0.00 in0.0 mm 0.02 in0.5 mm
02:00 AM 44.4°F6.9°C 42.2°F5.7°C 92% 5.0 mph NE8.0 kmh NE 6.0 mph9.7 kmh 30.12 in1020.0 mb 0.00 in0.0 mm 0.00 in0.0 mm 0.02 in0.5 mm
02:01 AM 44.4°F6.9°C 42.2°F5.7°C 92% 6.0 mph NE9.7 kmh NE 7.0 mph11.3 kmh 30.12 in1020.0 mb 0.00 in0.0 mm 0.00 in0.0 mm 0.02 in0.5 mm
02:02 AM 44.4°F6.9°C 42.2°F5.7°C 92% 5.0 mph NE8.0 kmh NE 7.0 mph11.3 kmh 30.12 in1020.0 mb 0.00 in0.0 mm 0.00 in0.0 mm 0.02 in0.5 mm
02:03 AM 44.4°F6.9°C 42.2°F5.7°C 92% 7.0 mph NE11.3 kmh NE 7.0 mph11.3 kmh 30.12 in1020.0 mb 0.00 in0.0 mm 0.00 in0.0 mm 0.02 in0.5 mm
02:04 AM 44.4°F6.9°C 41.9°F5.5°C 91% 5.0 mph NE8.0 kmh NE 7.0 mph11.3 kmh 30.12 in1020.0 mb 0.00 in0.0 mm 0.00 in0.0 mm 0.02 in0.5 mm
02:05 AM 44.4°F6.9°C 41.9°F5.5°C 91% 5.0 mph NE8.0 kmh NE 7.0 mph11.3 kmh 30.12 in1020.0 mb 0.00 in0.0 mm 0.00 in0.0 mm 0.02 in0.5 mm
02:06 AM 44.4°F6.9°C 41.9°F5.5°C 91% 7.0 mph NE11.3 kmh NE 8.0 mph12.9 kmh 30.12 in1020.0 mb 0.00 in0.0 mm 0.00 in0.0 mm 0.02 in0.5 mm
02:07 AM 44.5°F6.9°C 42.0°F5.6°C 91% 5.0 mph NE8.0 kmh NE 8.0 mph12.9 kmh 30.12 in1020.0 mb 0.00 in0.0 mm 0.00 in0.0 mm 0.02 in0.5 mm
02:08 AM 44.4°F6.9°C 41.9°F5.5°C 91% 5.0 mph NE8.0 kmh NE 8.0 mph12.9 kmh 30.12 in1020.0 mb 0.00 in0.0 mm 0.00 in0.0 mm 0.02 in0.5 mm
02:09 AM 44.5°F6.9°C 42.0°F5.6°C 91% 5.0 mph NE8.0 kmh NE 8.0 mph12.9 kmh 30.12 in1020.0 mb 0.00 in0.0 mm 0.00 in0.0 mm 0.02 in0.5 mm
02:10 AM 44.5°F6.9°C 42.0°F5.6°C 91% 4.0 mph NE6.4 kmh NE 8.0 mph12.9 kmh 30.12 in1020.0 mb 0.00 in0.0 mm 0.00 in0.0 mm 0.02 in0.5 mm
02:11 AM 44.5°F6.9°C 42.0°F5.6°C 91% 5.0 mph NE8.0 kmh NE 8.0 mph12.9 kmh 30.12 in1020.0 mb 0.00 in0.0 mm 0.00 in0.0 mm 0.02 in0.5 mm
02:12 AM 44.5°F6.9°C 42.0°F5.6°C 91% 6.0 mph NE9.7 kmh NE 8.0 mph12.9 kmh 30.12 in1020.0 mb 0.00 in0.0 mm 0.00 in0.0 mm 0.02 in0.5 mm
02:13 AM 44.4°F6.9°C 41.9°F5.5°C 91% 6.0 mph NE9.7 kmh NE 8.0 mph12.9 kmh 30.12 in1020.0 mb 0.00 in0.0 mm 0.00 in0.0 mm 0.02 in0.5 mm
02:14 AM 44.4°F6.9°C 41.9°F5.5°C 91% 6.0 mph NNE9.7 kmh NNE 8.0 mph12.9 kmh 30.12 in1020.0 mb 0.00 in0.0 mm 0.00 in0.0 mm 0.02 in0.5 mm
02:15 AM 44.4°F6.9°C 41.9°F5.5°C 91% 5.0 mph NNE8.0 kmh NNE 8.0 mph12.9 kmh 30.12 in1020.0 mb 0.00 in0.0 mm 0.00 in0.0 mm 0.02 in0.5 mm
02:16 AM 44.4°F6.9°C 41.9°F5.5°C 91% 8.0 mph NNE12.9 kmh NNE 8.0 mph12.9 kmh 30.11 in1019.6 mb 0.00 in0.0 mm 0.00 in0.0 mm 0.02 in0.5 mm
02:17 AM 44.3°F6.8°C 41.8°F5.4°C 91% 8.0 mph NNE12.9 kmh NNE 8.0 mph12.9 kmh 30.12 in1020.0 mb 0.00 in0.0 mm 0.00 in0.0 mm 0.02 in0.5 mm
02:18 AM 44.3°F6.8°C 41.8°F5.4°C 91% 7.0 mph NNE11.3 kmh NNE 8.0 mph12.9 kmh 30.12 in1020.0 mb 0.00 in0.0 mm 0.00 in0.0 mm 0.02 in0.5 mm
02:19 AM 44.4°F6.9°C 41.9°F5.5°C 91% 4.0 mph NNE6.4 kmh NNE 9.0 mph14.5 kmh 30.11 in1019.6 mb 0.00 in0.0 mm 0.00 in0.0 mm 0.02 in0.5 mm
02:20 AM 44.3°F6.8°C 41.8°F5.4°C 91% 5.0 mph NNE8.0 kmh NNE 9.0 mph14.5 kmh 30.11 in1019.6 mb 0.00 in0.0 mm 0.00 in0.0 mm 0.02 in0.5 mm
02:21 AM 44.4°F6.9°C 41.9°F5.5°C 91% 6.0 mph NNE9.7 kmh NNE 9.0 mph14.5 kmh 30.11 in1019.6 mb 0.00 in0.0 mm 0.00 in0.0 mm 0.02 in0.5 mm
02:22 AM 44.4°F6.9°C 41.9°F5.5°C 91% 5.0 mph NNE8.0 kmh NNE 9.0 mph14.5 kmh 30.12 in1020.0 mb 0.00 in0.0 mm 0.00 in0.0 mm 0.02 in0.5 mm
02:23 AM 44.4°F6.9°C 41.9°F5.5°C 91% 5.0 mph NNE8.0 kmh NNE 9.0 mph14.5 kmh 30.12 in1020.0 mb 0.00 in0.0 mm 0.00 in0.0 mm 0.02 in0.5 mm
02:24 AM 44.4°F6.9°C 41.9°F5.5°C 91% 4.0 mph NNE6.4 kmh NNE 9.0 mph14.5 kmh 30.12 in1020.0 mb 0.00 in0.0 mm 0.00 in0.0 mm 0.02 in0.5 mm
02:25 AM 44.3°F6.8°C 41.6°F5.3°C 90% 7.0 mph NNE11.3 kmh NNE 9.0 mph14.5 kmh 30.12 in1020.0 mb 0.00 in0.0 mm 0.00 in0.0 mm 0.02 in0.5 mm
02:26 AM 44.4°F6.9°C 41.7°F5.4°C 90% 6.0 mph NNE9.7 kmh NNE 9.0 mph14.5 kmh 30.12 in1020.0 mb 0.00 in0.0 mm 0.00 in0.0 mm 0.02 in0.5 mm
02:27 AM 44.4°F6.9°C 41.7°F5.4°C 90% 6.0 mph NNE9.7 kmh NNE 9.0 mph14.5 kmh 30.12 in1020.0 mb 0.00 in0.0 mm 0.00 in0.0 mm 0.02 in0.5 mm
02:28 AM 44.4°F6.9°C 41.7°F5.4°C 90% 5.0 mph NNE8.0 kmh NNE 10.0 mph16.1 kmh 30.12 in1020.0 mb 0.00 in0.0 mm 0.00 in0.0 mm 0.02 in0.5 mm
02:29 AM 44.4°F6.9°C 41.7°F5.4°C 90% 4.0 mph NNE6.4 kmh NNE 10.0 mph16.1 kmh 30.12 in1020.0 mb 0.00 in0.0 mm 0.00 in0.0 mm 0.02 in0.5 mm
02:30 AM 44.4°F6.9°C 41.7°F5.4°C 90% 6.0 mph NNE9.7 kmh NNE 6.0 mph9.7 kmh 30.12 in1020.0 mb 0.00 in0.0 mm 0.00 in0.0 mm 0.02 in0.5 mm
02:31 AM 44.4°F6.9°C 41.7°F5.4°C 90% 6.0 mph NNE9.7 kmh NNE 7.0 mph11.3 kmh 30.12 in1020.0 mb 0.00 in0.0 mm 0.00 in0.0 mm 0.02 in0.5 mm
02:32 AM 44.4°F6.9°C 41.7°F5.4°C 90% 6.0 mph NNE9.7 kmh NNE 7.0 mph11.3 kmh 30.12 in1020.0 mb 0.00 in0.0 mm 0.00 in0.0 mm 0.02 in0.5 mm
02:33 AM 44.4°F6.9°C 41.7°F5.4°C 90% 5.0 mph NNE8.0 kmh NNE 7.0 mph11.3 kmh 30.12 in1020.0 mb 0.00 in0.0 mm 0.00 in0.0 mm 0.02 in0.5 mm
02:34 AM 44.4°F6.9°C 41.7°F5.4°C 90% 5.0 mph NNE8.0 kmh NNE 7.0 mph11.3 kmh 30.12 in1020.0 mb 0.00 in0.0 mm 0.00 in0.0 mm 0.02 in0.5 mm
02:35 AM 44.4°F6.9°C 41.7°F5.4°C 90% 7.0 mph NNE11.3 kmh NNE 7.0 mph11.3 kmh 30.12 in1020.0 mb 0.00 in0.0 mm 0.00 in0.0 mm 0.02 in0.5 mm
02:36 AM 44.4°F6.9°C 41.7°F5.4°C 90% 5.0 mph NNE8.0 kmh NNE 7.0 mph11.3 kmh 30.12 in1020.0 mb 0.00 in0.0 mm 0.00 in0.0 mm 0.02 in0.5 mm
02:37 AM 44.4°F6.9°C 41.7°F5.4°C 90% 5.0 mph NNE8.0 kmh NNE 7.0 mph11.3 kmh 30.12 in1020.0 mb 0.00 in0.0 mm 0.00 in0.0 mm 0.02 in0.5 mm
02:38 AM 44.4°F6.9°C 41.7°F5.4°C 90% 5.0 mph NNE8.0 kmh NNE 7.0 mph11.3 kmh 30.12 in1020.0 mb 0.00 in0.0 mm 0.00 in0.0 mm 0.02 in0.5 mm
02:39 AM 44.4°F6.9°C 41.7°F5.4°C 90% 5.0 mph NNE8.0 kmh NNE 7.0 mph11.3 kmh 30.12 in1020.0 mb 0.00 in0.0 mm 0.00 in0.0 mm 0.02 in0.5 mm
02:40 AM 44.4°F6.9°C 41.7°F5.4°C 90% 7.0 mph NNE11.3 kmh NNE 7.0 mph11.3 kmh 30.12 in1020.0 mb 0.00 in0.0 mm 0.00 in0.0 mm 0.02 in0.5 mm
02:41 AM 44.4°F6.9°C 41.7°F5.4°C 90% 6.0 mph NNE9.7 kmh NNE 7.0 mph11.3 kmh 30.12 in1020.0 mb 0.00 in0.0 mm 0.00 in0.0 mm 0.02 in0.5 mm
02:42 AM 44.4°F6.9°C 41.7°F5.4°C 90% 5.0 mph NNE8.0 kmh NNE 7.0 mph11.3 kmh 30.12 in1020.0 mb 0.00 in0.0 mm 0.00 in0.0 mm 0.02 in0.5 mm
02:43 AM 44.4°F6.9°C 41.7°F5.4°C 90% 6.0 mph NNE9.7 kmh NNE 7.0 mph11.3 kmh 30.12 in1020.0 mb 0.00 in0.0 mm 0.00 in0.0 mm 0.02 in0.5 mm
02:44 AM 44.4°F6.9°C 41.7°F5.4°C 90% 6.0 mph NNE9.7 kmh NNE 8.0 mph12.9 kmh 30.12 in1020.0 mb 0.00 in0.0 mm 0.00 in0.0 mm 0.02 in0.5 mm
02:45 AM 44.4°F6.9°C 41.7°F5.4°C 90% 6.0 mph NE9.7 kmh NE 8.0 mph12.9 kmh 30.12 in1020.0 mb 0.00 in0.0 mm 0.00 in0.0 mm 0.02 in0.5 mm
02:46 AM 44.4°F6.9°C 41.7°F5.4°C 90% 5.0 mph NE8.0 kmh NE 8.0 mph12.9 kmh 30.12 in1020.0 mb 0.00 in0.0 mm 0.00 in0.0 mm 0.02 in0.5 mm
02:47 AM 44.4°F6.9°C 41.7°F5.4°C 90% 6.0 mph NE9.7 kmh NE 8.0 mph12.9 kmh 30.12 in1020.0 mb 0.00 in0.0 mm 0.00 in0.0 mm 0.02 in0.5 mm
02:48 AM 44.4°F6.9°C 41.7°F5.4°C 90% 5.0 mph NE8.0 kmh NE 8.0 mph12.9 kmh 30.12 in1020.0 mb 0.00 in0.0 mm 0.00 in0.0 mm 0.02 in0.5 mm
02:49 AM 44.4°F6.9°C 41.7°F5.4°C 90% 6.0 mph NE9.7 kmh NE 8.0 mph12.9 kmh 30.12 in1020.0 mb 0.00 in0.0 mm 0.00 in0.0 mm 0.02 in0.5 mm
02:50 AM 44.4°F6.9°C 41.7°F5.4°C 90% 5.0 mph NE8.0 kmh NE 8.0 mph12.9 kmh 30.12 in1020.0 mb 0.00 in0.0 mm 0.00 in0.0 mm 0.02 in0.5 mm
02:51 AM 44.3°F6.8°C 41.6°F5.3°C 90% 4.0 mph NE6.4 kmh NE 8.0 mph12.9 kmh 30.12 in1020.0 mb 0.00 in0.0 mm 0.00 in0.0 mm 0.02 in0.5 mm
02:52 AM 44.3°F6.8°C 41.6°F5.3°C 90% 7.0 mph NE11.3 kmh NE 8.0 mph12.9 kmh 30.12 in1020.0 mb 0.00 in0.0 mm 0.00 in0.0 mm 0.02 in0.5 mm
02:53 AM 44.3°F6.8°C 41.6°F5.3°C 90% 5.0 mph NE8.0 kmh NE 8.0 mph12.9 kmh 30.12 in1020.0 mb 0.00 in0.0 mm 0.00 in0.0 mm 0.02 in0.5 mm
02:54 AM 44.3°F6.8°C 41.6°F5.3°C 90% 6.0 mph NE9.7 kmh NE 8.0 mph12.9 kmh 30.12 in1020.0 mb 0.00 in0.0 mm 0.00 in0.0 mm 0.02 in0.5 mm
02:55 AM 44.3°F6.8°C 41.6°F5.3°C 90% 7.0 mph NE11.3 kmh NE 8.0 mph12.9 kmh 30.12 in1020.0 mb 0.00 in0.0 mm 0.00 in0.0 mm 0.02 in0.5 mm
02:56 AM 44.3°F6.8°C 41.6°F5.3°C 90% 9.0 mph NE14.5 kmh NE 9.0 mph14.5 kmh 30.12 in1020.0 mb 0.00 in0.0 mm 0.00 in0.0 mm 0.02 in0.5 mm
02:57 AM 44.2°F6.8°C 41.5°F5.3°C 90% 6.0 mph NE9.7 kmh NE 10.0 mph16.1 kmh 30.12 in1020.0 mb 0.00 in0.0 mm 0.00 in0.0 mm 0.02 in0.5 mm
02:58 AM 44.2°F6.8°C 41.2°F5.1°C 89% 7.0 mph NE11.3 kmh NE 10.0 mph16.1 kmh 30.12 in1020.0 mb 0.00 in0.0 mm 0.00 in0.0 mm 0.02 in0.5 mm
02:59 AM 44.3°F6.8°C 41.3°F5.2°C 89% 7.0 mph NE11.3 kmh NE 10.0 mph16.1 kmh 30.12 in1020.0 mb 0.00 in0.0 mm 0.00 in0.0 mm 0.02 in0.5 mm
03:00 AM 44.3°F6.8°C 41.3°F5.2°C 89% 5.0 mph NE8.0 kmh NE 8.0 mph12.9 kmh 30.12 in1020.0 mb 0.00 in0.0 mm 0.00 in0.0 mm 0.02 in0.5 mm
03:01 AM 44.3°F6.8°C 41.3°F5.2°C 89% 6.0 mph NE9.7 kmh NE 8.0 mph12.9 kmh 30.12 in1020.0 mb 0.00 in0.0 mm 0.00 in0.0 mm 0.02 in0.5 mm
03:02 AM 44.3°F6.8°C 41.3°F5.2°C 89% 5.0 mph NE8.0 kmh NE 8.0 mph12.9 kmh 30.12 in1020.0 mb 0.00 in0.0 mm 0.00 in0.0 mm 0.02 in0.5 mm
03:03 AM 44.3°F6.8°C 41.3°F5.2°C 89% 5.0 mph NE8.0 kmh NE 8.0 mph12.9 kmh 30.12 in1020.0 mb 0.00 in0.0 mm 0.00 in0.0 mm 0.02 in0.5 mm
03:04 AM 44.3°F6.8°C 41.3°F5.2°C 89% 5.0 mph NE8.0 kmh NE 8.0 mph12.9 kmh 30.12 in1020.0 mb 0.00 in0.0 mm 0.00 in0.0 mm 0.02 in0.5 mm
03:05 AM 44.3°F6.8°C 41.3°F5.2°C 89% 7.0 mph NE11.3 kmh NE 8.0 mph12.9 kmh 30.12 in1020.0 mb 0.00 in0.0 mm 0.00 in0.0 mm 0.02 in0.5 mm
03:06 AM 44.3°F6.8°C 41.3°F5.2°C 89% 4.0 mph NE6.4 kmh NE 8.0 mph12.9 kmh 30.12 in1020.0 mb 0.00 in0.0 mm 0.00 in0.0 mm 0.02 in0.5 mm
03:07 AM 44.3°F6.8°C 41.3°F5.2°C 89% 4.0 mph NE6.4 kmh NE 8.0 mph12.9 kmh 30.12 in1020.0 mb 0.00 in0.0 mm 0.00 in0.0 mm 0.02 in0.5 mm
03:08 AM 44.2°F6.8°C 41.5°F5.3°C 90% 4.0 mph NE6.4 kmh NE 8.0 mph12.9 kmh 30.12 in1020.0 mb 0.00 in0.0 mm 0.00 in0.0 mm 0.02 in0.5 mm
03:09 AM 44.2°F6.8°C 41.5°F5.3°C 90% 4.0 mph NE6.4 kmh NE 8.0 mph12.9 kmh 30.12 in1020.0 mb 0.00 in0.0 mm 0.00 in0.0 mm 0.02 in0.5 mm
03:10 AM 44.2°F6.8°C 41.5°F5.3°C 90% 4.0 mph NE6.4 kmh NE 8.0 mph12.9 kmh 30.12 in1020.0 mb 0.00 in0.0 mm 0.00 in0.0 mm 0.02 in0.5 mm
03:11 AM 44.2°F6.8°C 41.5°F5.3°C 90% 4.0 mph NE6.4 kmh NE 8.0 mph12.9 kmh 30.12 in1020.0 mb 0.00 in0.0 mm 0.00 in0.0 mm 0.02 in0.5 mm
03:12 AM 44.2°F6.8°C 41.5°F5.3°C 90% 4.0 mph NE6.4 kmh NE 8.0 mph12.9 kmh 30.12 in1020.0 mb 0.00 in0.0 mm 0.00 in0.0 mm 0.02 in0.5 mm
03:13 AM 44.2°F6.8°C 41.5°F5.3°C 90% 3.0 mph NE4.8 kmh NE 8.0 mph12.9 kmh 30.12 in1020.0 mb 0.00 in0.0 mm 0.00 in0.0 mm 0.02 in0.5 mm
03:14 AM 44.2°F6.8°C 41.5°F5.3°C 90% 3.0 mph NE4.8 kmh NE 8.0 mph12.9 kmh 30.12 in1020.0 mb 0.00 in0.0 mm 0.00 in0.0 mm 0.02 in0.5 mm
03:15 AM 44.1°F6.7°C 41.4°F5.2°C 90% 4.0 mph NE6.4 kmh NE 8.0 mph12.9 kmh 30.12 in1020.0 mb 0.00 in0.0 mm 0.00 in0.0 mm 0.02 in0.5 mm
03:16 AM 44.1°F6.7°C 41.4°F5.2°C 90% 4.0 mph NE6.4 kmh NE 8.0 mph12.9 kmh 30.11 in1019.6 mb 0.00 in0.0 mm 0.00 in0.0 mm 0.02 in0.5 mm
03:17 AM 44.1°F6.7°C 41.4°F5.2°C 90% 4.0 mph NE6.4 kmh NE 8.0 mph12.9 kmh 30.11 in1019.6 mb 0.00 in0.0 mm 0.00 in0.0 mm 0.02 in0.5 mm
03:18 AM 44.0°F6.7°C 41.3°F5.2°C 90% 5.0 mph NE8.0 kmh NE 8.0 mph12.9 kmh 30.12 in1020.0 mb 0.00 in0.0 mm 0.00 in0.0 mm 0.02 in0.5 mm
03:19 AM 44.0°F6.7°C 41.3°F5.2°C 90% 5.0 mph NE8.0 kmh NE 8.0 mph12.9 kmh 30.12 in1020.0 mb 0.00 in0.0 mm 0.00 in0.0 mm 0.02 in0.5 mm
03:20 AM 44.0°F6.7°C 41.3°F5.2°C 90% 5.0 mph NE8.0 kmh NE 8.0 mph12.9 kmh 30.12 in1020.0 mb 0.00 in0.0 mm 0.00 in0.0 mm 0.02 in0.5 mm
03:21 AM 44.0°F6.7°C 41.3°F5.2°C 90% 6.0 mph NE9.7 kmh NE 8.0 mph12.9 kmh 30.12 in1020.0 mb 0.00 in0.0 mm 0.00 in0.0 mm 0.02 in0.5 mm
03:22 AM 44.0°F6.7°C 41.3°F5.2°C 90% 5.0 mph NE8.0 kmh NE 8.0 mph12.9 kmh 30.12 in1020.0 mb 0.00 in0.0 mm 0.00 in0.0 mm 0.02 in0.5 mm
03:23 AM 44.0°F6.7°C 41.3°F5.2°C 90% 4.0 mph NE6.4 kmh NE 8.0 mph12.9 kmh 30.12 in1020.0 mb 0.00 in0.0 mm 0.00 in0.0 mm 0.02 in0.5 mm
03:24 AM 44.0°F6.7°C 41.3°F5.2°C 90% 4.0 mph NE6.4 kmh NE 8.0 mph12.9 kmh 30.12 in1020.0 mb 0.00 in0.0 mm 0.00 in0.0 mm 0.02 in0.5 mm
03:25 AM 44.0°F6.7°C 41.3°F5.2°C 90% 5.0 mph NE8.0 kmh NE 8.0 mph12.9 kmh 30.12 in1020.0 mb 0.00 in0.0 mm 0.00 in0.0 mm 0.02 in0.5 mm
03:26 AM 44.0°F6.7°C 41.3°F5.2°C 90% 6.0 mph NE9.7 kmh NE 8.0 mph12.9 kmh 30.12 in1020.0 mb 0.00 in0.0 mm 0.00 in0.0 mm 0.02 in0.5 mm
03:27 AM 44.0°F6.7°C 41.3°F5.2°C 90% 7.0 mph NE11.3 kmh NE 8.0 mph12.9 kmh 30.12 in1020.0 mb 0.00 in0.0 mm 0.00 in0.0 mm 0.02 in0.5 mm
03:28 AM 44.0°F6.7°C 41.3°F5.2°C 90% 4.0 mph NE6.4 kmh NE 8.0 mph12.9 kmh 30.12 in1020.0 mb 0.00 in0.0 mm 0.00 in0.0 mm 0.02 in0.5 mm
03:29 AM 44.0°F6.7°C 41.3°F5.2°C 90% 5.0 mph NE8.0 kmh NE 8.0 mph12.9 kmh 30.12 in1020.0 mb 0.00 in0.0 mm 0.00 in0.0 mm 0.02 in0.5 mm
03:30 AM 44.0°F6.7°C 41.3°F5.2°C 90% 6.0 mph NE9.7 kmh NE 6.0 mph9.7 kmh 30.12 in1020.0 mb 0.00 in0.0 mm 0.00 in0.0 mm 0.02 in0.5 mm
03:31 AM 44.0°F6.7°C 41.3°F5.2°C 90% 3.0 mph NE4.8 kmh NE 6.0 mph9.7 kmh 30.12 in1020.0 mb 0.00 in0.0 mm 0.00 in0.0 mm 0.02 in0.5 mm
03:32 AM 44.1°F6.7°C 41.4°F5.2°C 90% 4.0 mph NE6.4 kmh NE 6.0 mph9.7 kmh 30.12 in1020.0 mb 0.00 in0.0 mm 0.00 in0.0 mm 0.02 in0.5 mm
03:33 AM 44.0°F6.7°C 41.3°F5.2°C 90% 8.0 mph NE12.9 kmh NE 8.0 mph12.9 kmh 30.12 in1020.0 mb 0.00 in0.0 mm 0.00 in0.0 mm 0.02 in0.5 mm
03:34 AM 44.0°F6.7°C 41.3°F5.2°C 90% 6.0 mph NE9.7 kmh NE 8.0 mph12.9 kmh 30.12 in1020.0 mb 0.00 in0.0 mm 0.00 in0.0 mm 0.02 in0.5 mm
03:35 AM 44.0°F6.7°C 41.3°F5.2°C 90% 5.0 mph NE8.0 kmh NE 8.0 mph12.9 kmh 30.12 in1020.0 mb 0.00 in0.0 mm 0.00 in0.0 mm 0.02 in0.5 mm
03:36 AM 44.0°F6.7°C 41.3°F5.2°C 90% 5.0 mph NE8.0 kmh NE 8.0 mph12.9 kmh 30.12 in1020.0 mb 0.00 in0.0 mm 0.00 in0.0 mm 0.02 in0.5 mm
03:37 AM 44.0°F6.7°C 41.3°F5.2°C 90% 5.0 mph NE8.0 kmh NE 8.0 mph12.9 kmh 30.12 in1020.0 mb 0.00 in0.0 mm 0.00 in0.0 mm 0.02 in0.5 mm
03:38 AM 44.0°F6.7°C 41.3°F5.2°C 90% 4.0 mph NE6.4 kmh NE 8.0 mph12.9 kmh 30.12 in1020.0 mb 0.00 in0.0 mm 0.00 in0.0 mm 0.02 in0.5 mm
03:39 AM 44.0°F6.7°C 41.3°F5.2°C 90% 4.0 mph NE6.4 kmh NE 8.0 mph12.9 kmh 30.12 in1020.0 mb 0.00 in0.0 mm 0.00 in0.0 mm 0.02 in0.5 mm
03:40 AM 44.0°F6.7°C 41.3°F5.2°C 90% 5.0 mph NE8.0 kmh NE 8.0 mph12.9 kmh 30.12 in1020.0 mb 0.00 in0.0 mm 0.00 in0.0 mm 0.02 in0.5 mm
03:41 AM 44.0°F6.7°C 41.0°F5.0°C 89% 4.0 mph NE6.4 kmh NE 8.0 mph12.9 kmh 30.12 in1020.0 mb 0.00 in0.0 mm 0.00 in0.0 mm 0.02 in0.5 mm
03:42 AM 44.0°F6.7°C 41.0°F5.0°C 89% 6.0 mph NE9.7 kmh NE 8.0 mph12.9 kmh 30.12 in1020.0 mb 0.00 in0.0 mm 0.00 in0.0 mm 0.02 in0.5 mm
03:43 AM 44.0°F6.7°C 41.0°F5.0°C 89% 4.0 mph NE6.4 kmh NE 8.0 mph12.9 kmh 30.12 in1020.0 mb 0.00 in0.0 mm 0.00 in0.0 mm 0.02 in0.5 mm
03:44 AM 44.0°F6.7°C 41.0°F5.0°C 89% 6.0 mph NE9.7 kmh NE 8.0 mph12.9 kmh 30.12 in1020.0 mb 0.00 in0.0 mm 0.00 in0.0 mm 0.02 in0.5 mm
03:45 AM 43.9°F6.6°C 40.9°F4.9°C 89% 6.0 mph NE9.7 kmh NE 8.0 mph12.9 kmh 30.12 in1020.0 mb 0.00 in0.0 mm 0.00 in0.0 mm 0.02 in0.5 mm
03:46 AM 44.0°F6.7°C 41.0°F5.0°C 89% 4.0 mph NE6.4 kmh NE 8.0 mph12.9 kmh 30.12 in1020.0 mb 0.00 in0.0 mm 0.00 in0.0 mm 0.02 in0.5 mm
03:47 AM 44.0°F6.7°C 41.0°F5.0°C 89% 5.0 mph NE8.0 kmh NE 8.0 mph12.9 kmh 30.12 in1020.0 mb 0.00 in0.0 mm 0.00 in0.0 mm 0.02 in0.5 mm
03:48 AM 44.0°F6.7°C 41.0°F5.0°C 89% 5.0 mph NE8.0 kmh NE 8.0 mph12.9 kmh 30.12 in1020.0 mb 0.00 in0.0 mm 0.00 in0.0 mm 0.02 in0.5 mm
03:49 AM 44.0°F6.7°C 41.0°F5.0°C 89% 4.0 mph NE6.4 kmh NE 8.0 mph12.9 kmh 30.12 in1020.0 mb 0.00 in0.0 mm 0.00 in0.0 mm 0.02 in0.5 mm
03:50 AM 43.9°F6.6°C 40.9°F4.9°C 89% 4.0 mph NE6.4 kmh NE 8.0 mph12.9 kmh 30.12 in1020.0 mb 0.00 in0.0 mm 0.00 in0.0 mm 0.02 in0.5 mm
03:51 AM 43.9°F6.6°C 41.2°F5.1°C 90% 5.0 mph NE8.0 kmh NE 8.0 mph12.9 kmh 30.12 in1020.0 mb 0.00 in0.0 mm 0.00 in0.0 mm 0.02 in0.5 mm
03:52 AM 43.9°F6.6°C 41.2°F5.1°C 90% 4.0 mph NE6.4 kmh NE 8.0 mph12.9 kmh 30.12 in1020.0 mb 0.00 in0.0 mm 0.00 in0.0 mm 0.02 in0.5 mm
03:53 AM 43.9°F6.6°C 41.2°F5.1°C 90% 5.0 mph NE8.0 kmh NE 8.0 mph12.9 kmh 30.12 in1020.0 mb 0.00 in0.0 mm 0.00 in0.0 mm 0.02 in0.5 mm
03:54 AM 43.9°F6.6°C 41.2°F5.1°C 90% 5.0 mph NE8.0 kmh NE 8.0 mph12.9 kmh 30.12 in1020.0 mb 0.00 in0.0 mm 0.00 in0.0 mm 0.02 in0.5 mm
03:55 AM 43.8°F6.6°C 41.1°F5.1°C 90% 5.0 mph NE8.0 kmh NE 8.0 mph12.9 kmh 30.12 in1020.0 mb 0.00 in0.0 mm 0.00 in0.0 mm 0.02 in0.5 mm
03:56 AM 43.8°F6.6°C 41.1°F5.1°C 90% 4.0 mph NE6.4 kmh NE 8.0 mph12.9 kmh 30.12 in1020.0 mb 0.00 in0.0 mm 0.00 in0.0 mm 0.02 in0.5 mm
03:57 AM 43.8°F6.6°C 41.1°F5.1°C 90% 4.0 mph NE6.4 kmh NE 8.0 mph12.9 kmh 30.12 in1020.0 mb 0.00 in0.0 mm 0.00 in0.0 mm 0.02 in0.5 mm
03:58 AM 43.8°F6.6°C 41.4°F5.2°C 91% 5.0 mph NE8.0 kmh NE 8.0 mph12.9 kmh 30.12 in1020.0 mb 0.00 in0.0 mm 0.00 in0.0 mm 0.02 in0.5 mm
03:59 AM 43.8°F6.6°C 41.4°F5.2°C 91% 6.0 mph NE9.7 kmh NE 8.0 mph12.9 kmh 30.12 in1020.0 mb 0.00 in0.0 mm 0.00 in0.0 mm 0.02 in0.5 mm
04:00 AM 43.8°F6.6°C 41.4°F5.2°C 91% 6.0 mph NNE9.7 kmh NNE 7.0 mph11.3 kmh 30.12 in1020.0 mb 0.00 in0.0 mm 0.00 in0.0 mm 0.02 in0.5 mm
04:01 AM 43.8°F6.6°C 41.4°F5.2°C 91% 5.0 mph N8.0 kmh N 8.0 mph12.9 kmh 30.12 in1020.0 mb 0.00 in0.0 mm 0.00 in0.0 mm 0.02 in0.5 mm
04:02 AM 43.7°F6.5°C 41.0°F5.0°C 90% 7.0 mph N11.3 kmh N 8.0 mph12.9 kmh 30.12 in1020.0 mb 0.00 in0.0 mm 0.00 in0.0 mm 0.02 in0.5 mm
04:03 AM 43.7°F6.5°C 41.0°F5.0°C 90% 5.0 mph N8.0 kmh N 8.0 mph12.9 kmh 30.12 in1020.0 mb 0.00 in0.0 mm 0.00 in0.0 mm 0.02 in0.5 mm
04:04 AM 43.7°F6.5°C 41.0°F5.0°C 90% 4.0 mph N6.4 kmh N 8.0 mph12.9 kmh 30.12 in1020.0 mb 0.00 in0.0 mm 0.00 in0.0 mm 0.02 in0.5 mm
04:05 AM 43.6°F6.4°C 40.9°F4.9°C 90% 7.0 mph NNW11.3 kmh NNW 8.0 mph12.9 kmh 30.12 in1020.0 mb 0.00 in0.0 mm 0.00 in0.0 mm 0.02 in0.5 mm
04:06 AM 43.6°F6.4°C 40.9°F4.9°C 90% 5.0 mph NNW8.0 kmh NNW 8.0 mph12.9 kmh 30.12 in1020.0 mb 0.00 in0.0 mm 0.00 in0.0 mm 0.02 in0.5 mm
04:07 AM 43.6°F6.4°C 40.9°F4.9°C 90% 5.0 mph NNW8.0 kmh NNW 8.0 mph12.9 kmh 30.12 in1020.0 mb 0.00 in0.0 mm 0.00 in0.0 mm 0.02 in0.5 mm
04:08 AM 43.6°F6.4°C 40.9°F4.9°C 90% 6.0 mph NNW9.7 kmh NNW 8.0 mph12.9 kmh 30.12 in1020.0 mb 0.00 in0.0 mm 0.00 in0.0 mm 0.02 in0.5 mm
04:09 AM 43.5°F6.4°C 40.8°F4.9°C 90% 7.0 mph NNW11.3 kmh NNW 8.0 mph12.9 kmh 30.12 in1020.0 mb 0.00 in0.0 mm 0.00 in0.0 mm 0.02 in0.5 mm
04:10 AM 43.5°F6.4°C 40.8°F4.9°C 90% 5.0 mph NNW8.0 kmh NNW 8.0 mph12.9 kmh 30.12 in1020.0 mb 0.00 in0.0 mm 0.00 in0.0 mm 0.02 in0.5 mm
04:11 AM 43.4°F6.3°C 40.7°F4.8°C 90% 6.0 mph NNW9.7 kmh NNW 8.0 mph12.9 kmh 30.12 in1020.0 mb 0.00 in0.0 mm 0.00 in0.0 mm 0.02 in0.5 mm
04:12 AM 43.4°F6.3°C 40.7°F4.8°C 90% 7.0 mph NNW11.3 kmh NNW 8.0 mph12.9 kmh 30.12 in1020.0 mb 0.00 in0.0 mm 0.00 in0.0 mm 0.02 in0.5 mm
04:13 AM 43.4°F6.3°C 40.7°F4.8°C 90% 5.0 mph NNW8.0 kmh NNW 8.0 mph12.9 kmh 30.12 in1020.0 mb 0.00 in0.0 mm 0.00 in0.0 mm 0.02 in0.5 mm
04:14 AM 43.3°F6.3°C 40.6°F4.8°C 90% 5.0 mph N8.0 kmh N 9.0 mph14.5 kmh 30.12 in1020.0 mb 0.00 in0.0 mm 0.00 in0.0 mm 0.02 in0.5 mm
04:15 AM 43.3°F6.3°C 40.6°F4.8°C 90% 6.0 mph N9.7 kmh N 9.0 mph14.5 kmh 30.12 in1020.0 mb 0.00 in0.0 mm 0.00 in0.0 mm 0.02 in0.5 mm
04:16 AM 43.3°F6.3°C 40.6°F4.8°C 90% 7.0 mph N11.3 kmh N 9.0 mph14.5 kmh 30.12 in1020.0 mb 0.00 in0.0 mm 0.00 in0.0 mm 0.02 in0.5 mm
04:17 AM 43.3°F6.3°C 40.3°F4.6°C 89% 6.0 mph N9.7 kmh N 9.0 mph14.5 kmh 30.12 in1020.0 mb 0.00 in0.0 mm 0.00 in0.0 mm 0.02 in0.5 mm
04:18 AM 43.2°F6.2°C 40.2°F4.6°C 89% 7.0 mph N11.3 kmh N 9.0 mph14.5 kmh 30.12 in1020.0 mb 0.00 in0.0 mm 0.00 in0.0 mm 0.02 in0.5 mm
04:19 AM 43.2°F6.2°C 40.2°F4.6°C 89% 6.0 mph N9.7 kmh N 9.0 mph14.5 kmh 30.12 in1020.0 mb 0.00 in0.0 mm 0.00 in0.0 mm 0.02 in0.5 mm
04:20 AM 43.2°F6.2°C 40.2°F4.6°C 89% 5.0 mph N8.0 kmh N 9.0 mph14.5 kmh 30.12 in1020.0 mb 0.00 in0.0 mm 0.00 in0.0 mm 0.02 in0.5 mm
04:21 AM 43.2°F6.2°C 40.5°F4.7°C 90% 6.0 mph N9.7 kmh N 9.0 mph14.5 kmh 30.12 in1020.0 mb 0.00 in0.0 mm 0.00 in0.0 mm 0.02 in0.5 mm
04:22 AM 43.2°F6.2°C 40.5°F4.7°C 90% 5.0 mph N8.0 kmh N 9.0 mph14.5 kmh 30.12 in1020.0 mb 0.00 in0.0 mm 0.00 in0.0 mm 0.02 in0.5 mm
04:23 AM 43.2°F6.2°C 40.5°F4.7°C 90% 5.0 mph N8.0 kmh N 9.0 mph14.5 kmh 30.12 in1020.0 mb 0.00 in0.0 mm 0.00 in0.0 mm 0.02 in0.5 mm
04:24 AM 43.1°F6.2°C 40.4°F4.7°C 90% 5.0 mph N8.0 kmh N 9.0 mph14.5 kmh 30.12 in1020.0 mb 0.00 in0.0 mm 0.00 in0.0 mm 0.02 in0.5 mm
04:25 AM 43.1°F6.2°C 40.4°F4.7°C 90% 6.0 mph N9.7 kmh N 9.0 mph14.5 kmh 30.12 in1020.0 mb 0.00 in0.0 mm 0.00 in0.0 mm 0.02 in0.5 mm
04:26 AM 43.1°F6.2°C 40.4°F4.7°C 90% 5.0 mph N8.0 kmh N 9.0 mph14.5 kmh 30.12 in1020.0 mb 0.00 in0.0 mm 0.00 in0.0 mm 0.02 in0.5 mm
04:27 AM 43.1°F6.2°C 40.4°F4.7°C 90% 5.0 mph N8.0 kmh N 9.0 mph14.5 kmh 30.12 in1020.0 mb 0.00 in0.0 mm 0.00 in0.0 mm 0.02 in0.5 mm
04:28 AM 43.1°F6.2°C 40.4°F4.7°C 90% 6.0 mph N9.7 kmh N 9.0 mph14.5 kmh 30.12 in1020.0 mb 0.00 in0.0 mm 0.00 in0.0 mm 0.02 in0.5 mm
04:29 AM 43.1°F6.2°C 40.4°F4.7°C 90% 6.0 mph N9.7 kmh N 9.0 mph14.5 kmh 30.12 in1020.0 mb 0.00 in0.0 mm 0.00 in0.0 mm 0.02 in0.5 mm
04:30 AM 43.0°F6.1°C 40.3°F4.6°C 90% 5.0 mph N8.0 kmh N 5.0 mph8.0 kmh 30.12 in1020.0 mb 0.00 in0.0 mm 0.00 in0.0 mm 0.02 in0.5 mm
04:31 AM 43.0°F6.1°C 40.3°F4.6°C 90% 4.0 mph N6.4 kmh N 6.0 mph9.7 kmh 30.12 in1020.0 mb 0.00 in0.0 mm 0.00 in0.0 mm 0.02 in0.5 mm
04:32 AM 43.0°F6.1°C 40.3°F4.6°C 90% 7.0 mph N11.3 kmh N 7.0 mph11.3 kmh 30.12 in1020.0 mb 0.00 in0.0 mm 0.00 in0.0 mm 0.02 in0.5 mm
04:33 AM 42.9°F6.1°C 40.2°F4.6°C 90% 6.0 mph N9.7 kmh N 7.0 mph11.3 kmh 30.12 in1020.0 mb 0.00 in0.0 mm 0.00 in0.0 mm 0.02 in0.5 mm
04:34 AM 42.9°F6.1°C 40.2°F4.6°C 90% 5.0 mph N8.0 kmh N 7.0 mph11.3 kmh 30.12 in1020.0 mb 0.00 in0.0 mm 0.00 in0.0 mm 0.02 in0.5 mm
04:35 AM 42.9°F6.1°C 40.5°F4.7°C 91% 6.0 mph N9.7 kmh N 7.0 mph11.3 kmh 30.12 in1020.0 mb 0.00 in0.0 mm 0.00 in0.0 mm 0.02 in0.5 mm
04:36 AM 42.8°F6.0°C 40.4°F4.7°C 91% 6.0 mph N9.7 kmh N 8.0 mph12.9 kmh 30.12 in1020.0 mb 0.00 in0.0 mm 0.00 in0.0 mm 0.02 in0.5 mm
04:37 AM 42.8°F6.0°C 40.4°F4.7°C 91% 7.0 mph N11.3 kmh N 8.0 mph12.9 kmh 30.12 in1020.0 mb 0.00 in0.0 mm 0.00 in0.0 mm 0.02 in0.5 mm
04:38 AM 42.8°F6.0°C 40.4°F4.7°C 91% 6.0 mph N9.7 kmh N 8.0 mph12.9 kmh 30.12 in1020.0 mb 0.00 in0.0 mm 0.00 in0.0 mm 0.02 in0.5 mm
04:39 AM 42.8°F6.0°C 40.4°F4.7°C 91% 6.0 mph N9.7 kmh N 8.0 mph12.9 kmh 30.12 in1020.0 mb 0.00 in0.0 mm 0.00 in0.0 mm 0.02 in0.5 mm
04:40 AM 42.8°F6.0°C 40.4°F4.7°C 91% 4.0 mph N6.4 kmh N 8.0 mph12.9 kmh 30.12 in1020.0 mb 0.00 in0.0 mm 0.00 in0.0 mm 0.02 in0.5 mm
04:41 AM 42.7°F5.9°C 40.3°F4.6°C 91% 7.0 mph N11.3 kmh N 8.0 mph12.9 kmh 30.12 in1020.0 mb 0.00 in0.0 mm 0.00 in0.0 mm 0.02 in0.5 mm
04:42 AM 42.7°F5.9°C 40.3°F4.6°C 91% 6.0 mph N9.7 kmh N 8.0 mph12.9 kmh 30.12 in1020.0 mb 0.00 in0.0 mm 0.00 in0.0 mm 0.02 in0.5 mm
04:43 AM 42.7°F5.9°C 40.3°F4.6°C 91% 5.0 mph N8.0 kmh N 8.0 mph12.9 kmh 30.12 in1020.0 mb 0.00 in0.0 mm 0.00 in0.0 mm 0.02 in0.5 mm
04:44 AM 42.7°F5.9°C 40.3°F4.6°C 91% 6.0 mph N9.7 kmh N 8.0 mph12.9 kmh 30.12 in1020.0 mb 0.00 in0.0 mm 0.00 in0.0 mm 0.02 in0.5 mm
04:45 AM 42.6°F5.9°C 40.2°F4.6°C 91% 5.0 mph N8.0 kmh N 8.0 mph12.9 kmh 30.12 in1020.0 mb 0.00 in0.0 mm 0.00 in0.0 mm 0.02 in0.5 mm
04:46 AM 42.6°F5.9°C 40.2°F4.6°C 91% 6.0 mph N9.7 kmh N 8.0 mph12.9 kmh 30.12 in1020.0 mb 0.00 in0.0 mm 0.00 in0.0 mm 0.02 in0.5 mm
04:47 AM 42.5°F5.8°C 40.1°F4.5°C 91% 6.0 mph N9.7 kmh N 8.0 mph12.9 kmh 30.12 in1020.0 mb 0.00 in0.0 mm 0.00 in0.0 mm 0.02 in0.5 mm
04:48 AM 42.5°F5.8°C 39.8°F4.3°C 90% 5.0 mph N8.0 kmh N 8.0 mph12.9 kmh 30.12 in1020.0 mb 0.00 in0.0 mm 0.00 in0.0 mm 0.02 in0.5 mm
04:49 AM 42.5°F5.8°C 39.8°F4.3°C 90% 7.0 mph N11.3 kmh N 8.0 mph12.9 kmh 30.12 in1020.0 mb 0.00 in0.0 mm 0.00 in0.0 mm 0.02 in0.5 mm
04:50 AM 42.5°F5.8°C 39.8°F4.3°C 90% 6.0 mph N9.7 kmh N 8.0 mph12.9 kmh 30.12 in1020.0 mb 0.00 in0.0 mm 0.00 in0.0 mm 0.02 in0.5 mm
04:51 AM 42.4°F5.8°C 39.7°F4.3°C 90% 6.0 mph N9.7 kmh N 8.0 mph12.9 kmh 30.12 in1020.0 mb 0.00 in0.0 mm 0.00 in0.0 mm 0.02 in0.5 mm
04:52 AM 42.4°F5.8°C 39.7°F4.3°C 90% 6.0 mph N9.7 kmh N 8.0 mph12.9 kmh 30.12 in1020.0 mb 0.00 in0.0 mm 0.00 in0.0 mm 0.02 in0.5 mm
04:53 AM 42.4°F5.8°C 39.7°F4.3°C 90% 5.0 mph N8.0 kmh N 8.0 mph12.9 kmh 30.12 in1020.0 mb 0.00 in0.0 mm 0.00 in0.0 mm 0.02 in0.5 mm
04:54 AM 42.4°F5.8°C 39.7°F4.3°C 90% 6.0 mph N9.7 kmh N 8.0 mph12.9 kmh 30.12 in1020.0 mb 0.00 in0.0 mm 0.00 in0.0 mm 0.02 in0.5 mm
04:55 AM 42.4°F5.8°C 39.7°F4.3°C 90% 7.0 mph N11.3 kmh N 8.0 mph12.9 kmh 30.12 in1020.0 mb 0.00 in0.0 mm 0.00 in0.0 mm 0.02 in0.5 mm
04:56 AM 42.4°F5.8°C 39.7°F4.3°C 90% 6.0 mph N9.7 kmh N 8.0 mph12.9 kmh 30.12 in1020.0 mb 0.00 in0.0 mm 0.00 in0.0 mm 0.02 in0.5 mm
04:57 AM 42.3°F5.7°C 39.6°F4.2°C 90% 8.0 mph N12.9 kmh N 8.0 mph12.9 kmh 30.12 in1020.0 mb 0.00 in0.0 mm 0.00 in0.0 mm 0.02 in0.5 mm
04:58 AM 42.3°F5.7°C 39.6°F4.2°C 90% 5.0 mph N8.0 kmh N 8.0 mph12.9 kmh 30.12 in1020.0 mb 0.00 in0.0 mm 0.00 in0.0 mm 0.02 in0.5 mm
04:59 AM 42.3°F5.7°C 39.6°F4.2°C 90% 7.0 mph N11.3 kmh N 8.0 mph12.9 kmh 30.12 in1020.0 mb 0.00 in0.0 mm 0.00 in0.0 mm 0.02 in0.5 mm
05:00 AM 42.3°F5.7°C 39.9°F4.4°C 91% 6.0 mph N9.7 kmh N 7.0 mph11.3 kmh 30.12 in1020.0 mb 0.00 in0.0 mm 0.00 in0.0 mm 0.02 in0.5 mm
05:01 AM 42.3°F5.7°C 39.9°F4.4°C 91% 6.0 mph N9.7 kmh N 9.0 mph14.5 kmh 30.12 in1020.0 mb 0.00 in0.0 mm 0.00 in0.0 mm 0.02 in0.5 mm
05:02 AM 42.2°F5.7°C 39.8°F4.3°C 91% 6.0 mph N9.7 kmh N 9.0 mph14.5 kmh 30.12 in1020.0 mb 0.00 in0.0 mm 0.00 in0.0 mm 0.02 in0.5 mm
05:03 AM 42.2°F5.7°C 39.8°F4.3°C 91% 6.0 mph N9.7 kmh N 9.0 mph14.5 kmh 30.12 in1020.0 mb 0.00 in0.0 mm 0.00 in0.0 mm 0.02 in0.5 mm
05:04 AM 42.2°F5.7°C 39.8°F4.3°C 91% 7.0 mph N11.3 kmh N 9.0 mph14.5 kmh 30.12 in1020.0 mb 0.00 in0.0 mm 0.00 in0.0 mm 0.02 in0.5 mm
05:05 AM 42.2°F5.7°C 39.8°F4.3°C 91% 7.0 mph N11.3 kmh N 9.0 mph14.5 kmh 30.12 in1020.0 mb 0.00 in0.0 mm 0.00 in0.0 mm 0.02 in0.5 mm
05:06 AM 42.2°F5.7°C 39.8°F4.3°C 91% 7.0 mph N11.3 kmh N 9.0 mph14.5 kmh 30.12 in1020.0 mb 0.00 in0.0 mm 0.00 in0.0 mm 0.02 in0.5 mm
05:07 AM 42.2°F5.7°C 39.8°F4.3°C 91% 7.0 mph N11.3 kmh N 9.0 mph14.5 kmh 30.12 in1020.0 mb 0.00 in0.0 mm 0.00 in0.0 mm 0.02 in0.5 mm
05:08 AM 42.1°F5.6°C 39.7°F4.3°C 91% 6.0 mph N9.7 kmh N 9.0 mph14.5 kmh 30.12 in1020.0 mb 0.00 in0.0 mm 0.00 in0.0 mm 0.02 in0.5 mm
05:09 AM 42.1°F5.6°C 39.7°F4.3°C 91% 6.0 mph N9.7 kmh N 9.0 mph14.5 kmh 30.12 in1020.0 mb 0.00 in0.0 mm 0.00 in0.0 mm 0.02 in0.5 mm
05:10 AM 42.1°F5.6°C 39.7°F4.3°C 91% 5.0 mph N8.0 kmh N 9.0 mph14.5 kmh 30.12 in1020.0 mb 0.00 in0.0 mm 0.00 in0.0 mm 0.02 in0.5 mm
05:11 AM 42.1°F5.6°C 39.7°F4.3°C 91% 6.0 mph N9.7 kmh N 9.0 mph14.5 kmh 30.12 in1020.0 mb 0.00 in0.0 mm 0.00 in0.0 mm 0.02 in0.5 mm
05:12 AM 42.0°F5.6°C 39.6°F4.2°C 91% 8.0 mph N12.9 kmh N 9.0 mph14.5 kmh 30.12 in1020.0 mb 0.00 in0.0 mm 0.00 in0.0 mm 0.02 in0.5 mm
05:13 AM 42.0°F5.6°C 39.6°F4.2°C 91% 8.0 mph N12.9 kmh N 9.0 mph14.5 kmh 30.12 in1020.0 mb 0.00 in0.0 mm 0.00 in0.0 mm 0.02 in0.5 mm
05:14 AM 42.0°F5.6°C 39.6°F4.2°C 91% 7.0 mph N11.3 kmh N 9.0 mph14.5 kmh 30.12 in1020.0 mb 0.00 in0.0 mm 0.00 in0.0 mm 0.02 in0.5 mm
05:15 AM 42.0°F5.6°C 39.6°F4.2°C 91% 6.0 mph N9.7 kmh N 9.0 mph14.5 kmh 30.12 in1020.0 mb 0.00 in0.0 mm 0.00 in0.0 mm 0.02 in0.5 mm
05:16 AM 42.0°F5.6°C 39.6°F4.2°C 91% 8.0 mph N12.9 kmh N 9.0 mph14.5 kmh 30.12 in1020.0 mb 0.00 in0.0 mm 0.00 in0.0 mm 0.02 in0.5 mm
05:17 AM 42.0°F5.6°C 39.6°F4.2°C 91% 7.0 mph N11.3 kmh N 9.0 mph14.5 kmh 30.12 in1020.0 mb 0.00 in0.0 mm 0.00 in0.0 mm 0.02 in0.5 mm
05:18 AM 42.0°F5.6°C 39.6°F4.2°C 91% 7.0 mph N11.3 kmh N 9.0 mph14.5 kmh 30.12 in1020.0 mb 0.00 in0.0 mm 0.00 in0.0 mm 0.02 in0.5 mm
05:19 AM 42.0°F5.6°C 39.6°F4.2°C 91% 8.0 mph N12.9 kmh N 10.0 mph16.1 kmh 30.12 in1020.0 mb 0.00 in0.0 mm 0.00 in0.0 mm 0.02 in0.5 mm
05:20 AM 41.9°F5.5°C 39.5°F4.2°C 91% 8.0 mph N12.9 kmh N 10.0 mph16.1 kmh 30.12 in1020.0 mb 0.00 in0.0 mm 0.00 in0.0 mm 0.02 in0.5 mm
05:21 AM 41.9°F5.5°C 39.5°F4.2°C 91% 9.0 mph N14.5 kmh N 11.0 mph17.7 kmh 30.12 in1020.0 mb 0.00 in0.0 mm 0.00 in0.0 mm 0.02 in0.5 mm
05:22 AM 41.9°F5.5°C 39.5°F4.2°C 91% 7.0 mph N11.3 kmh N 11.0 mph17.7 kmh 30.12 in1020.0 mb 0.00 in0.0 mm 0.00 in0.0 mm 0.02 in0.5 mm
05:23 AM 41.9°F5.5°C 39.5°F4.2°C 91% 8.0 mph N12.9 kmh N 11.0 mph17.7 kmh 30.12 in1020.0 mb 0.00 in0.0 mm 0.00 in0.0 mm 0.02 in0.5 mm
05:24 AM 41.9°F5.5°C 39.5°F4.2°C 91% 7.0 mph N11.3 kmh N 11.0 mph17.7 kmh 30.12 in1020.0 mb 0.00 in0.0 mm 0.00 in0.0 mm 0.02 in0.5 mm
05:25 AM 41.9°F5.5°C 39.5°F4.2°C 91% 8.0 mph N12.9 kmh N 11.0 mph17.7 kmh 30.12 in1020.0 mb 0.00 in0.0 mm 0.00 in0.0 mm 0.02 in0.5 mm
05:26 AM 41.9°F5.5°C 39.5°F4.2°C 91% 7.0 mph N11.3 kmh N 11.0 mph17.7 kmh 30.12 in1020.0 mb 0.00 in0.0 mm 0.00 in0.0 mm 0.02 in0.5 mm
05:27 AM 41.9°F5.5°C 39.5°F4.2°C 91% 7.0 mph N11.3 kmh N 11.0 mph17.7 kmh 30.12 in1020.0 mb 0.00 in0.0 mm 0.00 in0.0 mm 0.02 in0.5 mm
05:28 AM 41.9°F5.5°C 39.5°F4.2°C 91% 7.0 mph N11.3 kmh N 11.0 mph17.7 kmh 30.12 in1020.0 mb 0.00 in0.0 mm 0.00 in0.0 mm 0.02 in0.5 mm
05:29 AM 41.8°F5.4°C 39.1°F3.9°C 90% 8.0 mph N12.9 kmh N 11.0 mph17.7 kmh 30.12 in1020.0 mb 0.00 in0.0 mm 0.00 in0.0 mm 0.02 in0.5 mm
05:30 AM 41.9°F5.5°C 39.2°F4.0°C 90% 8.0 mph N12.9 kmh N 9.0 mph14.5 kmh 30.12 in1020.0 mb 0.00 in0.0 mm 0.00 in0.0 mm 0.02 in0.5 mm
05:31 AM 41.8°F5.4°C 39.1°F3.9°C 90% 7.0 mph N11.3 kmh N 9.0 mph14.5 kmh 30.12 in1020.0 mb 0.00 in0.0 mm 0.00 in0.0 mm 0.02 in0.5 mm
05:32 AM 41.8°F5.4°C 39.1°F3.9°C 90% 10.0 mph N16.1 kmh N 10.0 mph16.1 kmh 30.12 in1020.0 mb 0.00 in0.0 mm 0.00 in0.0 mm 0.02 in0.5 mm
05:33 AM 41.8°F5.4°C 39.1°F3.9°C 90% 7.0 mph N11.3 kmh N 11.0 mph17.7 kmh 30.12 in1020.0 mb 0.00 in0.0 mm 0.00 in0.0 mm 0.02 in0.5 mm
05:34 AM 41.8°F5.4°C 39.1°F3.9°C 90% 8.0 mph N12.9 kmh N 11.0 mph17.7 kmh 30.12 in1020.0 mb 0.00 in0.0 mm 0.00 in0.0 mm 0.02 in0.5 mm
05:35 AM 41.8°F5.4°C 39.1°F3.9°C 90% 10.0 mph N16.1 kmh N 11.0 mph17.7 kmh 30.12 in1020.0 mb 0.00 in0.0 mm 0.00 in0.0 mm 0.02 in0.5 mm
05:36 AM 41.7°F5.4°C 39.0°F3.9°C 90% 8.0 mph N12.9 kmh N 11.0 mph17.7 kmh 30.12 in1020.0 mb 0.00 in0.0 mm 0.00 in0.0 mm 0.02 in0.5 mm
05:37 AM 41.7°F5.4°C 39.0°F3.9°C 90% 8.0 mph N12.9 kmh N 11.0 mph17.7 kmh 30.12 in1020.0 mb 0.00 in0.0 mm 0.00 in0.0 mm 0.02 in0.5 mm
05:38 AM 41.7°F5.4°C 39.0°F3.9°C 90% 10.0 mph N16.1 kmh N 11.0 mph17.7 kmh 30.12 in1020.0 mb 0.00 in0.0 mm 0.00 in0.0 mm 0.02 in0.5 mm
05:39 AM 41.7°F5.4°C 39.0°F3.9°C 90% 7.0 mph N11.3 kmh N 11.0 mph17.7 kmh 30.12 in1020.0 mb 0.00 in0.0 mm 0.00 in0.0 mm 0.02 in0.5 mm
05:40 AM 41.6°F5.3°C 38.9°F3.8°C 90% 10.0 mph N16.1 kmh N 11.0 mph17.7 kmh 30.12 in1020.0 mb 0.00 in0.0 mm 0.00 in0.0 mm 0.02 in0.5 mm
05:41 AM 41.6°F5.3°C 38.6°F3.7°C 89% 11.0 mph N17.7 kmh N 13.0 mph20.9 kmh 30.12 in1020.0 mb 0.00 in0.0 mm 0.00 in0.0 mm 0.02 in0.5 mm
05:42 AM 41.6°F5.3°C 38.6°F3.7°C 89% 8.0 mph N12.9 kmh N 13.0 mph20.9 kmh 30.12 in1020.0 mb 0.00 in0.0 mm 0.00 in0.0 mm 0.02 in0.5 mm
05:43 AM 41.6°F5.3°C 38.6°F3.7°C 89% 8.0 mph N12.9 kmh N 13.0 mph20.9 kmh 30.12 in1020.0 mb 0.00 in0.0 mm 0.00 in0.0 mm 0.02 in0.5 mm
05:44 AM 41.6°F5.3°C 38.6°F3.7°C 89% 10.0 mph N16.1 kmh N 13.0 mph20.9 kmh 30.12 in1020.0 mb 0.00 in0.0 mm 0.00 in0.0 mm 0.02 in0.5 mm
05:45 AM 41.5°F5.3°C 38.5°F3.6°C 89% 9.0 mph N14.5 kmh N 13.0 mph20.9 kmh 30.12 in1020.0 mb 0.00 in0.0 mm 0.00 in0.0 mm 0.02 in0.5 mm
05:46 AM 41.5°F5.3°C 38.5°F3.6°C 89% 8.0 mph N12.9 kmh N 13.0 mph20.9 kmh 30.12 in1020.0 mb 0.00 in0.0 mm 0.00 in0.0 mm 0.02 in0.5 mm
05:47 AM 41.5°F5.3°C 38.5°F3.6°C 89% 9.0 mph N14.5 kmh N 13.0 mph20.9 kmh 30.12 in1020.0 mb 0.00 in0.0 mm 0.00 in0.0 mm 0.02 in0.5 mm
05:48 AM 41.5°F5.3°C 38.5°F3.6°C 89% 7.0 mph N11.3 kmh N 13.0 mph20.9 kmh 30.12 in1020.0 mb 0.00 in0.0 mm 0.00 in0.0 mm 0.02 in0.5 mm
05:49 AM 41.5°F5.3°C 38.5°F3.6°C 89% 10.0 mph N16.1 kmh N 13.0 mph20.9 kmh 30.12 in1020.0 mb 0.00 in0.0 mm 0.00 in0.0 mm 0.02 in0.5 mm
05:50 AM 41.5°F5.3°C 38.5°F3.6°C 89% 6.0 mph N9.7 kmh N 13.0 mph20.9 kmh 30.12 in1020.0 mb 0.00 in0.0 mm 0.00 in0.0 mm 0.02 in0.5 mm
05:51 AM 41.4°F5.2°C 38.1°F3.4°C 88% 10.0 mph N16.1 kmh N 13.0 mph20.9 kmh 30.12 in1020.0 mb 0.00 in0.0 mm 0.00 in0.0 mm 0.02 in0.5 mm
05:52 AM 41.4°F5.2°C 38.1°F3.4°C 88% 9.0 mph N14.5 kmh N 13.0 mph20.9 kmh 30.12 in1020.0 mb 0.00 in0.0 mm 0.00 in0.0 mm 0.02 in0.5 mm
05:53 AM 41.4°F5.2°C 38.1°F3.4°C 88% 10.0 mph N16.1 kmh N 13.0 mph20.9 kmh 30.12 in1020.0 mb 0.00 in0.0 mm 0.00 in0.0 mm 0.02 in0.5 mm
05:54 AM 41.4°F5.2°C 38.1°F3.4°C 88% 11.0 mph N17.7 kmh N 13.0 mph20.9 kmh 30.12 in1020.0 mb 0.00 in0.0 mm 0.00 in0.0 mm 0.02 in0.5 mm
05:55 AM 41.4°F5.2°C 38.1°F3.4°C 88% 9.0 mph N14.5 kmh N 13.0 mph20.9 kmh 30.12 in1020.0 mb 0.00 in0.0 mm 0.00 in0.0 mm 0.02 in0.5 mm
05:56 AM 41.4°F5.2°C 38.1°F3.4°C 88% 11.0 mph N17.7 kmh N 13.0 mph20.9 kmh 30.12 in1020.0 mb 0.00 in0.0 mm 0.00 in0.0 mm 0.02 in0.5 mm
05:57 AM 41.3°F5.2°C 38.0°F3.3°C 88% 11.0 mph N17.7 kmh N 13.0 mph20.9 kmh 30.12 in1020.0 mb 0.00 in0.0 mm 0.00 in0.0 mm 0.02 in0.5 mm
05:58 AM 41.3°F5.2°C 38.0°F3.3°C 88% 10.0 mph N16.1 kmh N 13.0 mph20.9 kmh 30.12 in1020.0 mb 0.00 in0.0 mm 0.00 in0.0 mm 0.02 in0.5 mm
05:59 AM 41.3°F5.2°C 38.0°F3.3°C 88% 11.0 mph N17.7 kmh N 13.0 mph20.9 kmh 30.12 in1020.0 mb 0.00 in0.0 mm 0.00 in0.0 mm 0.02 in0.5 mm
06:00 AM 41.3°F5.2°C 38.0°F3.3°C 88% 8.0 mph N12.9 kmh N 10.0 mph16.1 kmh 30.12 in1020.0 mb 0.00 in0.0 mm 0.00 in0.0 mm 0.02 in0.5 mm
06:01 AM 41.3°F5.2°C 38.0°F3.3°C 88% 13.0 mph N20.9 kmh N 13.0 mph20.9 kmh 30.12 in1020.0 mb 0.00 in0.0 mm 0.00 in0.0 mm 0.02 in0.5 mm
06:02 AM 41.2°F5.1°C 37.9°F3.3°C 88% 8.0 mph N12.9 kmh N 13.0 mph20.9 kmh 30.12 in1020.0 mb 0.00 in0.0 mm 0.00 in0.0 mm 0.02 in0.5 mm
06:03 AM 41.2°F5.1°C 37.9°F3.3°C 88% 7.0 mph N11.3 kmh N 13.0 mph20.9 kmh 30.12 in1020.0 mb 0.00 in0.0 mm 0.00 in0.0 mm 0.02 in0.5 mm
06:04 AM 41.2°F5.1°C 37.9°F3.3°C 88% 11.0 mph N17.7 kmh N 13.0 mph20.9 kmh 30.12 in1020.0 mb 0.00 in0.0 mm 0.00 in0.0 mm 0.02 in0.5 mm
06:05 AM 41.2°F5.1°C 37.9°F3.3°C 88% 9.0 mph N14.5 kmh N 13.0 mph20.9 kmh 30.12 in1020.0 mb 0.00 in0.0 mm 0.00 in0.0 mm 0.02 in0.5 mm
06:06 AM 41.2°F5.1°C 37.9°F3.3°C 88% 10.0 mph N16.1 kmh N 13.0 mph20.9 kmh 30.12 in1020.0 mb 0.00 in0.0 mm 0.00 in0.0 mm 0.02 in0.5 mm
06:07 AM 41.2°F5.1°C 37.9°F3.3°C 88% 12.0 mph N19.3 kmh N 13.0 mph20.9 kmh 30.12 in1020.0 mb 0.00 in0.0 mm 0.00 in0.0 mm 0.02 in0.5 mm
06:08 AM 41.2°F5.1°C 37.9°F3.3°C 88% 8.0 mph N12.9 kmh N 13.0 mph20.9 kmh 30.12 in1020.0 mb 0.00 in0.0 mm 0.00 in0.0 mm 0.02 in0.5 mm
06:09 AM 41.2°F5.1°C 37.9°F3.3°C 88% 11.0 mph N17.7 kmh N 13.0 mph20.9 kmh 30.12 in1020.0 mb 0.00 in0.0 mm 0.00 in0.0 mm 0.02 in0.5 mm
06:10 AM 41.2°F5.1°C 37.9°F3.3°C 88% 9.0 mph N14.5 kmh N 13.0 mph20.9 kmh 30.12 in1020.0 mb 0.00 in0.0 mm 0.00 in0.0 mm 0.02 in0.5 mm
06:11 AM 41.2°F5.1°C 37.9°F3.3°C 88% 12.0 mph N19.3 kmh N 13.0 mph20.9 kmh 30.13 in1020.3 mb 0.00 in0.0 mm 0.00 in0.0 mm 0.02 in0.5 mm
06:12 AM 41.2°F5.1°C 37.9°F3.3°C 88% 10.0 mph N16.1 kmh N 13.0 mph20.9 kmh 30.12 in1020.0 mb 0.00 in0.0 mm 0.00 in0.0 mm 0.02 in0.5 mm
06:13 AM 41.2°F5.1°C 37.9°F3.3°C 88% 8.0 mph N12.9 kmh N 13.0 mph20.9 kmh 30.12 in1020.0 mb 0.00 in0.0 mm 0.00 in0.0 mm 0.02 in0.5 mm
06:14 AM 41.2°F5.1°C 37.9°F3.3°C 88% 10.0 mph N16.1 kmh N 13.0 mph20.9 kmh 30.13 in1020.3 mb 0.00 in0.0 mm 0.00 in0.0 mm 0.02 in0.5 mm
06:15 AM 41.1°F5.1°C 37.8°F3.2°C 88% 10.0 mph N16.1 kmh N 13.0 mph20.9 kmh 30.13 in1020.3 mb 0.00 in0.0 mm 0.00 in0.0 mm 0.02 in0.5 mm
06:16 AM 41.1°F5.1°C 37.8°F3.2°C 88% 9.0 mph N14.5 kmh N 13.0 mph20.9 kmh 30.13 in1020.3 mb 0.00 in0.0 mm 0.00 in0.0 mm 0.02 in0.5 mm
06:17 AM 41.1°F5.1°C 37.8°F3.2°C 88% 8.0 mph N12.9 kmh N 13.0 mph20.9 kmh 30.13 in1020.3 mb 0.00 in0.0 mm 0.00 in0.0 mm 0.02 in0.5 mm
06:18 AM 41.1°F5.1°C 37.8°F3.2°C 88% 11.0 mph N17.7 kmh N 13.0 mph20.9 kmh 30.13 in1020.3 mb 0.00 in0.0 mm 0.00 in0.0 mm 0.02 in0.5 mm
06:19 AM 41.1°F5.1°C 37.8°F3.2°C 88% 8.0 mph N12.9 kmh N 13.0 mph20.9 kmh 30.13 in1020.3 mb 0.00 in0.0 mm 0.00 in0.0 mm 0.02 in0.5 mm
06:20 AM 41.1°F5.1°C 37.8°F3.2°C 88% 7.0 mph N11.3 kmh N 13.0 mph20.9 kmh 30.13 in1020.3 mb 0.00 in0.0 mm 0.00 in0.0 mm 0.02 in0.5 mm
06:21 AM 41.1°F5.1°C 37.8°F3.2°C 88% 11.0 mph N17.7 kmh N 13.0 mph20.9 kmh 30.13 in1020.3 mb 0.00 in0.0 mm 0.00 in0.0 mm 0.02 in0.5 mm
06:22 AM 41.1°F5.1°C 37.8°F3.2°C 88% 8.0 mph N12.9 kmh N 13.0 mph20.9 kmh 30.13 in1020.3 mb 0.00 in0.0 mm 0.00 in0.0 mm 0.02 in0.5 mm
06:23 AM 41.1°F5.1°C 37.8°F3.2°C 88% 11.0 mph N17.7 kmh N 13.0 mph20.9 kmh 30.13 in1020.3 mb 0.00 in0.0 mm 0.00 in0.0 mm 0.02 in0.5 mm
06:24 AM 41.1°F5.1°C 37.8°F3.2°C 88% 9.0 mph N14.5 kmh N 13.0 mph20.9 kmh 30.13 in1020.3 mb 0.00 in0.0 mm 0.00 in0.0 mm 0.02 in0.5 mm
06:25 AM 41.1°F5.1°C 37.8°F3.2°C 88% 14.0 mph N22.5 kmh N 14.0 mph22.5 kmh 30.13 in1020.3 mb 0.00 in0.0 mm 0.00 in0.0 mm 0.02 in0.5 mm
06:26 AM 41.1°F5.1°C 37.8°F3.2°C 88% 11.0 mph N17.7 kmh N 14.0 mph22.5 kmh 30.13 in1020.3 mb 0.00 in0.0 mm 0.00 in0.0 mm 0.02 in0.5 mm
06:27 AM 41.1°F5.1°C 37.8°F3.2°C 88% 12.0 mph N19.3 kmh N 14.0 mph22.5 kmh 30.13 in1020.3 mb 0.00 in0.0 mm 0.00 in0.0 mm 0.02 in0.5 mm
06:28 AM 41.1°F5.1°C 37.8°F3.2°C 88% 12.0 mph N19.3 kmh N 14.0 mph22.5 kmh 30.13 in1020.3 mb 0.00 in0.0 mm 0.00 in0.0 mm 0.02 in0.5 mm
06:29 AM 41.1°F5.1°C 37.8°F3.2°C 88% 12.0 mph N19.3 kmh N 14.0 mph22.5 kmh 30.13 in1020.3 mb 0.00 in0.0 mm 0.00 in0.0 mm 0.02 in0.5 mm
06:30 AM 41.1°F5.1°C 37.8°F3.2°C 88% 12.0 mph N19.3 kmh N 12.0 mph19.3 kmh 30.13 in1020.3 mb 0.00 in0.0 mm 0.00 in0.0 mm 0.02 in0.5 mm
06:31 AM 41.1°F5.1°C 37.8°F3.2°C 88% 10.0 mph N16.1 kmh N 16.0 mph25.7 kmh 30.13 in1020.3 mb 0.00 in0.0 mm 0.00 in0.0 mm 0.02 in0.5 mm
06:32 AM 41.1°F5.1°C 37.8°F3.2°C 88% 9.0 mph N14.5 kmh N 16.0 mph25.7 kmh 30.13 in1020.3 mb 0.00 in0.0 mm 0.00 in0.0 mm 0.02 in0.5 mm
06:33 AM 41.0°F5.0°C 37.7°F3.2°C 88% 12.0 mph N19.3 kmh N 16.0 mph25.7 kmh 30.13 in1020.3 mb 0.00 in0.0 mm 0.00 in0.0 mm 0.02 in0.5 mm
06:34 AM 41.0°F5.0°C 37.7°F3.2°C 88% 11.0 mph N17.7 kmh N 16.0 mph25.7 kmh 30.13 in1020.3 mb 0.00 in0.0 mm 0.00 in0.0 mm 0.02 in0.5 mm
06:35 AM 41.0°F5.0°C 37.7°F3.2°C 88% 10.0 mph N16.1 kmh N 16.0 mph25.7 kmh 30.13 in1020.3 mb 0.00 in0.0 mm 0.00 in0.0 mm 0.02 in0.5 mm
06:36 AM 41.0°F5.0°C 37.7°F3.2°C 88% 7.0 mph N11.3 kmh N 16.0 mph25.7 kmh 30.13 in1020.3 mb 0.00 in0.0 mm 0.00 in0.0 mm 0.02 in0.5 mm
06:37 AM 41.0°F5.0°C 37.7°F3.2°C 88% 10.0 mph N16.1 kmh N 16.0 mph25.7 kmh 30.13 in1020.3 mb 0.00 in0.0 mm 0.00 in0.0 mm 0.02 in0.5 mm
06:38 AM 41.0°F5.0°C 37.7°F3.2°C 88% 10.0 mph N16.1 kmh N 16.0 mph25.7 kmh 30.13 in1020.3 mb 0.00 in0.0 mm 0.00 in0.0 mm 0.02 in0.5 mm
06:39 AM 41.0°F5.0°C 37.7°F3.2°C 88% 11.0 mph N17.7 kmh N 16.0 mph25.7 kmh 30.13 in1020.3 mb 0.00 in0.0 mm 0.00 in0.0 mm 0.02 in0.5 mm
06:40 AM 41.0°F5.0°C 37.7°F3.2°C 88% 9.0 mph N14.5 kmh N 16.0 mph25.7 kmh 30.14 in1020.7 mb 0.00 in0.0 mm 0.00 in0.0 mm 0.02 in0.5 mm
06:41 AM 41.0°F5.0°C 37.7°F3.2°C 88% 11.0 mph N17.7 kmh N 16.0 mph25.7 kmh 30.14 in1020.7 mb 0.00 in0.0 mm 0.00 in0.0 mm 0.02 in0.5 mm
06:42 AM 41.0°F5.0°C 37.7°F3.2°C 88% 10.0 mph N16.1 kmh N 16.0 mph25.7 kmh 30.14 in1020.7 mb 0.00 in0.0 mm 0.00 in0.0 mm 0.02 in0.5 mm
06:43 AM 41.0°F5.0°C 37.7°F3.2°C 88% 10.0 mph N16.1 kmh N 16.0 mph25.7 kmh 30.14 in1020.7 mb 0.00 in0.0 mm 0.00 in0.0 mm 0.02 in0.5 mm
06:44 AM 41.0°F5.0°C 37.7°F3.2°C 88% 12.0 mph N19.3 kmh N 16.0 mph25.7 kmh 30.14 in1020.7 mb 0.00 in0.0 mm 0.00 in0.0 mm 0.02 in0.5 mm
06:45 AM 41.0°F5.0°C 37.7°F3.2°C 88% 8.0 mph N12.9 kmh N 16.0 mph25.7 kmh 30.14 in1020.7 mb 0.00 in0.0 mm 0.00 in0.0 mm 0.02 in0.5 mm
06:46 AM 41.0°F5.0°C 37.7°F3.2°C 88% 12.0 mph N19.3 kmh N 16.0 mph25.7 kmh 30.14 in1020.7 mb 0.00 in0.0 mm 0.00 in0.0 mm 0.02 in0.5 mm
06:47 AM 41.0°F5.0°C 37.7°F3.2°C 88% 11.0 mph N17.7 kmh N 16.0 mph25.7 kmh 30.14 in1020.7 mb 0.00 in0.0 mm 0.00 in0.0 mm 0.02 in0.5 mm
06:48 AM 41.0°F5.0°C 37.7°F3.2°C 88% 9.0 mph N14.5 kmh N 16.0 mph25.7 kmh 30.14 in1020.7 mb 0.00 in0.0 mm 0.00 in0.0 mm 0.02 in0.5 mm
06:49 AM 41.0°F5.0°C 37.7°F3.2°C 88% 13.0 mph N20.9 kmh N 16.0 mph25.7 kmh 30.14 in1020.7 mb 0.00 in0.0 mm 0.00 in0.0 mm 0.02 in0.5 mm
06:50 AM 40.9°F4.9°C 37.3°F2.9°C 87% 9.0 mph N14.5 kmh N 16.0 mph25.7 kmh 30.14 in1020.7 mb 0.00 in0.0 mm 0.00 in0.0 mm 0.02 in0.5 mm
06:51 AM 41.0°F5.0°C 37.4°F3.0°C 87% 12.0 mph N19.3 kmh N 16.0 mph25.7 kmh 30.14 in1020.7 mb 0.00 in0.0 mm 0.00 in0.0 mm 0.02 in0.5 mm
06:52 AM 41.0°F5.0°C 37.4°F3.0°C 87% 13.0 mph N20.9 kmh N 16.0 mph25.7 kmh 30.14 in1020.7 mb 0.00 in0.0 mm 0.00 in0.0 mm 0.02 in0.5 mm
06:53 AM 41.0°F5.0°C 37.4°F3.0°C 87% 10.0 mph N16.1 kmh N 16.0 mph25.7 kmh 30.14 in1020.7 mb 0.00 in0.0 mm 0.00 in0.0 mm 0.02 in0.5 mm
06:54 AM 41.0°F5.0°C 37.4°F3.0°C 87% 11.0 mph N17.7 kmh N 16.0 mph25.7 kmh 30.14 in1020.7 mb 0.00 in0.0 mm 0.00 in0.0 mm 0.02 in0.5 mm
06:55 AM 41.0°F5.0°C 37.4°F3.0°C 87% 14.0 mph N22.5 kmh N 16.0 mph25.7 kmh 30.14 in1020.7 mb 0.00 in0.0 mm 0.00 in0.0 mm 0.02 in0.5 mm
06:56 AM 41.0°F5.0°C 37.4°F3.0°C 87% 10.0 mph N16.1 kmh N 16.0 mph25.7 kmh 30.14 in1020.7 mb 0.00 in0.0 mm 0.00 in0.0 mm 0.02 in0.5 mm
06:57 AM 41.0°F5.0°C 37.4°F3.0°C 87% 7.0 mph N11.3 kmh N 16.0 mph25.7 kmh 30.14 in1020.7 mb 0.00 in0.0 mm 0.00 in0.0 mm 0.02 in0.5 mm
06:58 AM 40.9°F4.9°C 37.3°F2.9°C 87% 11.0 mph N17.7 kmh N 16.0 mph25.7 kmh 30.14 in1020.7 mb 0.00 in0.0 mm 0.00 in0.0 mm 0.02 in0.5 mm
06:59 AM 40.9°F4.9°C 37.3°F2.9°C 87% 11.0 mph N17.7 kmh N 16.0 mph25.7 kmh 30.14 in1020.7 mb 0.00 in0.0 mm 0.00 in0.0 mm 0.02 in0.5 mm
07:00 AM 41.0°F5.0°C 37.4°F3.0°C 87% 10.0 mph N16.1 kmh N 11.0 mph17.7 kmh 30.14 in1020.7 mb 0.00 in0.0 mm 0.00 in0.0 mm 0.02 in0.5 mm
07:01 AM 40.9°F4.9°C 37.3°F2.9°C 87% 8.0 mph N12.9 kmh N 12.0 mph19.3 kmh 30.14 in1020.7 mb 0.00 in0.0 mm 0.00 in0.0 mm 0.02 in0.5 mm
07:02 AM 40.9°F4.9°C 37.3°F2.9°C 87% 12.0 mph N19.3 kmh N 13.0 mph20.9 kmh 30.14 in1020.7 mb 0.00 in0.0 mm 0.00 in0.0 mm 0.02 in0.5 mm
07:03 AM 40.9°F4.9°C 37.3°F2.9°C 87% 12.0 mph N19.3 kmh N 13.0 mph20.9 kmh 30.14 in1020.7 mb 0.00 in0.0 mm 0.00 in0.0 mm 0.02 in0.5 mm
07:04 AM 40.9°F4.9°C 37.3°F2.9°C 87% 8.0 mph N12.9 kmh N 13.0 mph20.9 kmh 30.14 in1020.7 mb 0.00 in0.0 mm 0.00 in0.0 mm 0.02 in0.5 mm
07:05 AM 40.9°F4.9°C 37.3°F2.9°C 87% 10.0 mph N16.1 kmh N 14.0 mph22.5 kmh 30.14 in1020.7 mb 0.00 in0.0 mm 0.00 in0.0 mm 0.02 in0.5 mm
07:06 AM 40.9°F4.9°C 37.3°F2.9°C 87% 11.0 mph N17.7 kmh N 14.0 mph22.5 kmh 30.14 in1020.7 mb 0.00 in0.0 mm 0.00 in0.0 mm 0.02 in0.5 mm
07:07 AM 41.0°F5.0°C 37.4°F3.0°C 87% 9.0 mph N14.5 kmh N 14.0 mph22.5 kmh 30.14 in1020.7 mb 0.00 in0.0 mm 0.00 in0.0 mm 0.02 in0.5 mm
07:08 AM 40.9°F4.9°C 37.3°F2.9°C 87% 11.0 mph N17.7 kmh N 14.0 mph22.5 kmh 30.14 in1020.7 mb 0.00 in0.0 mm 0.00 in0.0 mm 0.02 in0.5 mm
07:09 AM 41.0°F5.0°C 37.4°F3.0°C 87% 9.0 mph N14.5 kmh N 14.0 mph22.5 kmh 30.14 in1020.7 mb 0.00 in0.0 mm 0.00 in0.0 mm 0.02 in0.5 mm
07:10 AM 40.9°F4.9°C 37.3°F2.9°C 87% 11.0 mph N17.7 kmh N 14.0 mph22.5 kmh 30.14 in1020.7 mb 0.00 in0.0 mm 0.00 in0.0 mm 0.02 in0.5 mm
07:11 AM 40.9°F4.9°C 37.3°F2.9°C 87% 10.0 mph N16.1 kmh N 14.0 mph22.5 kmh 30.14 in1020.7 mb 0.00 in0.0 mm 0.00 in0.0 mm 0.02 in0.5 mm
07:12 AM 41.0°F5.0°C 37.4°F3.0°C 87% 12.0 mph NNE19.3 kmh NNE 14.0 mph22.5 kmh 30.14 in1020.7 mb 0.00 in0.0 mm 0.00 in0.0 mm 0.02 in0.5 mm
07:13 AM 41.0°F5.0°C 37.4°F3.0°C 87% 9.0 mph N14.5 kmh N 14.0 mph22.5 kmh 30.14 in1020.7 mb 0.00 in0.0 mm 0.00 in0.0 mm 0.02 in0.5 mm
07:14 AM 41.0°F5.0°C 37.7°F3.2°C 88% 11.0 mph N17.7 kmh N 14.0 mph22.5 kmh 30.14 in1020.7 mb 0.00 in0.0 mm 0.00 in0.0 mm 0.02 in0.5 mm
07:15 AM 41.0°F5.0°C 37.7°F3.2°C 88% 9.0 mph N14.5 kmh N 14.0 mph22.5 kmh 30.14 in1020.7 mb 0.00 in0.0 mm 0.00 in0.0 mm 0.02 in0.5 mm
07:16 AM 41.0°F5.0°C 37.7°F3.2°C 88% 13.0 mph N20.9 kmh N 14.0 mph22.5 kmh 30.14 in1020.7 mb 0.00 in0.0 mm 0.00 in0.0 mm 0.02 in0.5 mm
07:17 AM 41.0°F5.0°C 37.4°F3.0°C 87% 9.0 mph N14.5 kmh N 14.0 mph22.5 kmh 30.14 in1020.7 mb 0.00 in0.0 mm 0.00 in0.0 mm 0.02 in0.5 mm
07:18 AM 41.0°F5.0°C 37.4°F3.0°C 87% 14.0 mph N22.5 kmh N 14.0 mph22.5 kmh 30.14 in1020.7 mb 0.00 in0.0 mm 0.00 in0.0 mm 0.02 in0.5 mm
07:19 AM 41.0°F5.0°C 37.4°F3.0°C 87% 13.0 mph N20.9 kmh N 14.0 mph22.5 kmh 30.14 in1020.7 mb 0.00 in0.0 mm 0.00 in0.0 mm 0.02 in0.5 mm
07:20 AM 41.0°F5.0°C 37.4°F3.0°C 87% 12.0 mph N19.3 kmh N 14.0 mph22.5 kmh 30.15 in1021.0 mb 0.00 in0.0 mm 0.00 in0.0 mm 0.02 in0.5 mm
07:21 AM 41.0°F5.0°C 37.4°F3.0°C 87% 11.0 mph N17.7 kmh N 14.0 mph22.5 kmh 30.15 in1021.0 mb 0.00 in0.0 mm 0.00 in0.0 mm 0.02 in0.5 mm
07:22 AM 41.0°F5.0°C 37.4°F3.0°C 87% 14.0 mph N22.5 kmh N 14.0 mph22.5 kmh 30.15 in1021.0 mb 0.00 in0.0 mm 0.00 in0.0 mm 0.02 in0.5 mm
07:23 AM 41.0°F5.0°C 37.4°F3.0°C 87% 11.0 mph N17.7 kmh N 14.0 mph22.5 kmh 30.15 in1021.0 mb 0.00 in0.0 mm 0.00 in0.0 mm 0.02 in0.5 mm
07:24 AM 41.0°F5.0°C 37.4°F3.0°C 87% 11.0 mph N17.7 kmh N 14.0 mph22.5 kmh 30.15 in1021.0 mb 0.00 in0.0 mm 0.00 in0.0 mm 0.02 in0.5 mm
07:25 AM 41.0°F5.0°C 37.4°F3.0°C 87% 10.0 mph NNE16.1 kmh NNE 15.0 mph24.1 kmh 30.15 in1021.0 mb 0.00 in0.0 mm 0.00 in0.0 mm 0.02 in0.5 mm
07:26 AM 41.1°F5.1°C 37.5°F3.1°C 87% 12.0 mph N19.3 kmh N 15.0 mph24.1 kmh 30.15 in1021.0 mb 0.00 in0.0 mm 0.00 in0.0 mm 0.02 in0.5 mm
07:27 AM 41.0°F5.0°C 37.4°F3.0°C 87% 12.0 mph NNE19.3 kmh NNE 15.0 mph24.1 kmh 30.15 in1021.0 mb 0.00 in0.0 mm 0.00 in0.0 mm 0.02 in0.5 mm
07:28 AM 41.1°F5.1°C 37.5°F3.1°C 87% 12.0 mph N19.3 kmh N 15.0 mph24.1 kmh 30.15 in1021.0 mb 0.00 in0.0 mm 0.00 in0.0 mm 0.02 in0.5 mm
07:29 AM 41.0°F5.0°C 37.4°F3.0°C 87% 11.0 mph N17.7 kmh N 15.0 mph24.1 kmh 30.15 in1021.0 mb 0.00 in0.0 mm 0.00 in0.0 mm 0.02 in0.5 mm
07:30 AM 41.1°F5.1°C 37.5°F3.1°C 87% 8.0 mph NNE12.9 kmh NNE 12.0 mph19.3 kmh 30.15 in1021.0 mb 0.00 in0.0 mm 0.00 in0.0 mm 0.02 in0.5 mm
07:31 AM 41.1°F5.1°C 37.5°F3.1°C 87% 9.0 mph N14.5 kmh N 12.0 mph19.3 kmh 30.15 in1021.0 mb 0.00 in0.0 mm 0.00 in0.0 mm 0.02 in0.5 mm
07:32 AM 41.1°F5.1°C 37.8°F3.2°C 88% 10.0 mph N16.1 kmh N 12.0 mph19.3 kmh 30.15 in1021.0 mb 0.00 in0.0 mm 0.00 in0.0 mm 0.02 in0.5 mm
07:33 AM 41.1°F5.1°C 37.8°F3.2°C 88% 8.0 mph NNE12.9 kmh NNE 13.0 mph20.9 kmh 30.15 in1021.0 mb 0.00 in0.0 mm 0.00 in0.0 mm 0.02 in0.5 mm
07:34 AM 41.1°F5.1°C 37.8°F3.2°C 88% 11.0 mph N17.7 kmh N 14.0 mph22.5 kmh 30.15 in1021.0 mb 0.00 in0.0 mm 0.00 in0.0 mm 0.02 in0.5 mm
07:35 AM 41.1°F5.1°C 37.8°F3.2°C 88% 9.0 mph NNE14.5 kmh NNE 14.0 mph22.5 kmh 30.15 in1021.0 mb 0.00 in0.0 mm 0.00 in0.0 mm 0.02 in0.5 mm
07:36 AM 41.1°F5.1°C 37.8°F3.2°C 88% 9.0 mph N14.5 kmh N 14.0 mph22.5 kmh 30.15 in1021.0 mb 0.00 in0.0 mm 0.00 in0.0 mm 0.02 in0.5 mm
07:37 AM 41.1°F5.1°C 37.5°F3.1°C 87% 12.0 mph NNE19.3 kmh NNE 14.0 mph22.5 kmh 30.15 in1021.0 mb 0.00 in0.0 mm 0.00 in0.0 mm 0.02 in0.5 mm
07:38 AM 41.1°F5.1°C 37.5°F3.1°C 87% 7.0 mph N11.3 kmh N 14.0 mph22.5 kmh 30.15 in1021.0 mb 0.00 in0.0 mm 0.00 in0.0 mm 0.02 in0.5 mm
07:39 AM 41.2°F5.1°C 37.6°F3.1°C 87% 10.0 mph N16.1 kmh N 14.0 mph22.5 kmh 30.15 in1021.0 mb 0.00 in0.0 mm 0.00 in0.0 mm 0.02 in0.5 mm
07:40 AM 41.2°F5.1°C 37.9°F3.3°C 88% 9.0 mph N14.5 kmh N 14.0 mph22.5 kmh 30.15 in1021.0 mb 0.00 in0.0 mm 0.00 in0.0 mm 0.02 in0.5 mm
07:41 AM 41.2°F5.1°C 37.9°F3.3°C 88% 11.0 mph N17.7 kmh N 14.0 mph22.5 kmh 30.15 in1021.0 mb 0.00 in0.0 mm 0.00 in0.0 mm 0.02 in0.5 mm
07:42 AM 41.2°F5.1°C 37.9°F3.3°C 88% 10.0 mph N16.1 kmh N 14.0 mph22.5 kmh 30.15 in1021.0 mb 0.00 in0.0 mm 0.00 in0.0 mm 0.02 in0.5 mm
07:43 AM 41.2°F5.1°C 37.6°F3.1°C 87% 11.0 mph NNE17.7 kmh NNE 15.0 mph24.1 kmh 30.15 in1021.0 mb 0.00 in0.0 mm 0.00 in0.0 mm 0.02 in0.5 mm
07:44 AM 41.2°F5.1°C 37.6°F3.1°C 87% 10.0 mph N16.1 kmh N 15.0 mph24.1 kmh 30.15 in1021.0 mb 0.00 in0.0 mm 0.00 in0.0 mm 0.02 in0.5 mm
07:45 AM 41.3°F5.2°C 37.7°F3.2°C 87% 10.0 mph N16.1 kmh N 15.0 mph24.1 kmh 30.15 in1021.0 mb 0.00 in0.0 mm 0.00 in0.0 mm 0.02 in0.5 mm
07:46 AM 41.3°F5.2°C 38.0°F3.3°C 88% 10.0 mph NNE16.1 kmh NNE 15.0 mph24.1 kmh 30.15 in1021.0 mb 0.00 in0.0 mm 0.00 in0.0 mm 0.02 in0.5 mm
07:47 AM 41.3°F5.2°C 38.0°F3.3°C 88% 11.0 mph N17.7 kmh N 15.0 mph24.1 kmh 30.15 in1021.0 mb 0.00 in0.0 mm 0.00 in0.0 mm 0.02 in0.5 mm
07:48 AM 41.3°F5.2°C 38.0°F3.3°C 88% 8.0 mph NNE12.9 kmh NNE 15.0 mph24.1 kmh 30.15 in1021.0 mb 0.00 in0.0 mm 0.00 in0.0 mm 0.02 in0.5 mm
07:49 AM 41.3°F5.2°C 37.7°F3.2°C 87% 10.0 mph N16.1 kmh N 15.0 mph24.1 kmh 30.15 in1021.0 mb 0.00 in0.0 mm 0.00 in0.0 mm 0.02 in0.5 mm
07:50 AM 41.3°F5.2°C 38.0°F3.3°C 88% 12.0 mph NNE19.3 kmh NNE 15.0 mph24.1 kmh 30.15 in1021.0 mb 0.00 in0.0 mm 0.00 in0.0 mm 0.02 in0.5 mm
07:51 AM 41.4°F5.2°C 38.1°F3.4°C 88% 12.0 mph N19.3 kmh N 15.0 mph24.1 kmh 30.15 in1021.0 mb 0.00 in0.0 mm 0.00 in0.0 mm 0.02 in0.5 mm
07:52 AM 41.4°F5.2°C 38.1°F3.4°C 88% 13.0 mph N20.9 kmh N 15.0 mph24.1 kmh 30.15 in1021.0 mb 0.00 in0.0 mm 0.00 in0.0 mm 0.02 in0.5 mm
07:53 AM 41.4°F5.2°C 37.8°F3.2°C 87% 12.0 mph N19.3 kmh N 15.0 mph24.1 kmh 30.15 in1021.0 mb 0.00 in0.0 mm 0.00 in0.0 mm 0.02 in0.5 mm
07:54 AM 41.4°F5.2°C 37.8°F3.2°C 87% 13.0 mph NNE20.9 kmh NNE 16.0 mph25.7 kmh 30.15 in1021.0 mb 0.00 in0.0 mm 0.00 in0.0 mm 0.02 in0.5 mm
07:55 AM 41.4°F5.2°C 37.8°F3.2°C 87% 11.0 mph N17.7 kmh N 16.0 mph25.7 kmh 30.15 in1021.0 mb 0.00 in0.0 mm 0.00 in0.0 mm 0.02 in0.5 mm
07:56 AM 41.4°F5.2°C 37.8°F3.2°C 87% 10.0 mph N16.1 kmh N 16.0 mph25.7 kmh 30.15 in1021.0 mb 0.00 in0.0 mm 0.00 in0.0 mm 0.02 in0.5 mm
07:57 AM 41.4°F5.2°C 37.8°F3.2°C 87% 9.0 mph N14.5 kmh N 16.0 mph25.7 kmh 30.15 in1021.0 mb 0.00 in0.0 mm 0.00 in0.0 mm 0.02 in0.5 mm
07:58 AM 41.5°F5.3°C 38.2°F3.4°C 88% 10.0 mph N16.1 kmh N 16.0 mph25.7 kmh 30.15 in1021.0 mb 0.00 in0.0 mm 0.00 in0.0 mm 0.02 in0.5 mm
07:59 AM 41.5°F5.3°C 38.2°F3.4°C 88% 10.0 mph N16.1 kmh N 16.0 mph25.7 kmh 30.15 in1021.0 mb 0.00 in0.0 mm 0.00 in0.0 mm 0.02 in0.5 mm
08:00 AM 41.5°F5.3°C 38.2°F3.4°C 88% 13.0 mph NNE20.9 kmh NNE 15.0 mph24.1 kmh 30.16 in1021.3 mb 0.00 in0.0 mm 0.00 in0.0 mm 0.02 in0.5 mm
08:01 AM 41.5°F5.3°C 37.9°F3.3°C 87% 9.0 mph NNE14.5 kmh NNE 15.0 mph24.1 kmh 30.15 in1021.0 mb 0.00 in0.0 mm 0.00 in0.0 mm 0.02 in0.5 mm
08:02 AM 41.6°F5.3°C 38.0°F3.3°C 87% 10.0 mph N16.1 kmh N 15.0 mph24.1 kmh 30.16 in1021.3 mb 0.00 in0.0 mm 0.00 in0.0 mm 0.02 in0.5 mm
08:03 AM 41.6°F5.3°C 38.3°F3.5°C 88% 10.0 mph N16.1 kmh N 15.0 mph24.1 kmh 30.15 in1021.0 mb 0.00 in0.0 mm 0.00 in0.0 mm 0.02 in0.5 mm
08:04 AM 41.7°F5.4°C 38.4°F3.6°C 88% 12.0 mph N19.3 kmh N 15.0 mph24.1 kmh 30.16 in1021.3 mb 0.00 in0.0 mm 0.00 in0.0 mm 0.02 in0.5 mm
08:05 AM 41.7°F5.4°C 38.4°F3.6°C 88% 13.0 mph N20.9 kmh N 15.0 mph24.1 kmh 30.16 in1021.3 mb 0.00 in0.0 mm 0.00 in0.0 mm 0.02 in0.5 mm
08:06 AM 41.7°F5.4°C 38.4°F3.6°C 88% 8.0 mph N12.9 kmh N 15.0 mph24.1 kmh 30.16 in1021.3 mb 0.00 in0.0 mm 0.00 in0.0 mm 0.02 in0.5 mm
08:07 AM 41.7°F5.4°C 38.4°F3.6°C 88% 10.0 mph N16.1 kmh N 15.0 mph24.1 kmh 30.16 in1021.3 mb 0.00 in0.0 mm 0.00 in0.0 mm 0.02 in0.5 mm
08:08 AM 41.7°F5.4°C 38.4°F3.6°C 88% 10.0 mph N16.1 kmh N 15.0 mph24.1 kmh 30.16 in1021.3 mb 0.00 in0.0 mm 0.00 in0.0 mm 0.02 in0.5 mm
08:09 AM 41.7°F5.4°C 38.4°F3.6°C 88% 12.0 mph NNE19.3 kmh NNE 15.0 mph24.1 kmh 30.16 in1021.3 mb 0.00 in0.0 mm 0.00 in0.0 mm 0.02 in0.5 mm
08:10 AM 41.8°F5.4°C 38.5°F3.6°C 88% 12.0 mph NNE19.3 kmh NNE 15.0 mph24.1 kmh 30.16 in1021.3 mb 0.00 in0.0 mm 0.00 in0.0 mm 0.02 in0.5 mm
08:11 AM 41.8°F5.4°C 38.5°F3.6°C 88% 10.0 mph N16.1 kmh N 15.0 mph24.1 kmh 30.16 in1021.3 mb 0.00 in0.0 mm 0.00 in0.0 mm 0.02 in0.5 mm
08:12 AM 41.8°F5.4°C 38.5°F3.6°C 88% 12.0 mph N19.3 kmh N 15.0 mph24.1 kmh 30.16 in1021.3 mb 0.00 in0.0 mm 0.00 in0.0 mm 0.02 in0.5 mm
08:13 AM 41.9°F5.5°C 38.6°F3.7°C 88% 10.0 mph NNE16.1 kmh NNE 15.0 mph24.1 kmh 30.16 in1021.3 mb 0.00 in0.0 mm 0.00 in0.0 mm 0.02 in0.5 mm
08:14 AM 41.9°F5.5°C 38.6°F3.7°C 88% 10.0 mph NE16.1 kmh NE 15.0 mph24.1 kmh 30.16 in1021.3 mb 0.00 in0.0 mm 0.00 in0.0 mm 0.02 in0.5 mm
08:15 AM 41.9°F5.5°C 38.3°F3.5°C 87% 11.0 mph NNE17.7 kmh NNE 15.0 mph24.1 kmh 30.16 in1021.3 mb 0.00 in0.0 mm 0.00 in0.0 mm 0.02 in0.5 mm
08:16 AM 41.9°F5.5°C 38.3°F3.5°C 87% 13.0 mph NNE20.9 kmh NNE 15.0 mph24.1 kmh 30.16 in1021.3 mb 0.00 in0.0 mm 0.00 in0.0 mm 0.02 in0.5 mm
08:17 AM 41.9°F5.5°C 38.3°F3.5°C 87% 13.0 mph NNE20.9 kmh NNE 15.0 mph24.1 kmh 30.16 in1021.3 mb 0.00 in0.0 mm 0.00 in0.0 mm 0.02 in0.5 mm
08:18 AM 41.9°F5.5°C 38.3°F3.5°C 87% 9.0 mph NNE14.5 kmh NNE 15.0 mph24.1 kmh 30.16 in1021.3 mb 0.00 in0.0 mm 0.00 in0.0 mm 0.02 in0.5 mm
08:19 AM 41.9°F5.5°C 38.6°F3.7°C 88% 10.0 mph NNE16.1 kmh NNE 15.0 mph24.1 kmh 30.16 in1021.3 mb 0.00 in0.0 mm 0.00 in0.0 mm 0.02 in0.5 mm
08:20 AM 42.0°F5.6°C 38.7°F3.7°C 88% 11.0 mph NNE17.7 kmh NNE 15.0 mph24.1 kmh 30.16 in1021.3 mb 0.00 in0.0 mm 0.00 in0.0 mm 0.02 in0.5 mm
08:21 AM 42.0°F5.6°C 38.4°F3.6°C 87% 15.0 mph N24.1 kmh N 15.0 mph24.1 kmh 30.16 in1021.3 mb 0.00 in0.0 mm 0.00 in0.0 mm 0.02 in0.5 mm
08:22 AM 42.0°F5.6°C 38.4°F3.6°C 87% 10.0 mph NNE16.1 kmh NNE 16.0 mph25.7 kmh 30.16 in1021.3 mb 0.00 in0.0 mm 0.00 in0.0 mm 0.02 in0.5 mm
08:23 AM 42.0°F5.6°C 38.4°F3.6°C 87% 13.0 mph N20.9 kmh N 16.0 mph25.7 kmh 30.16 in1021.3 mb 0.00 in0.0 mm 0.00 in0.0 mm 0.02 in0.5 mm
08:24 AM 42.0°F5.6°C 38.4°F3.6°C 87% 14.0 mph NNE22.5 kmh NNE 16.0 mph25.7 kmh 30.16 in1021.3 mb 0.00 in0.0 mm 0.00 in0.0 mm 0.02 in0.5 mm
08:25 AM 42.0°F5.6°C 38.1°F3.4°C 86% 9.0 mph N14.5 kmh N 16.0 mph25.7 kmh 30.15 in1021.0 mb 0.00 in0.0 mm 0.00 in0.0 mm 0.02 in0.5 mm
08:26 AM 42.1°F5.6°C 38.5°F3.6°C 87% 10.0 mph NNE16.1 kmh NNE 16.0 mph25.7 kmh 30.16 in1021.3 mb 0.00 in0.0 mm 0.00 in0.0 mm 0.02 in0.5 mm
08:27 AM 42.1°F5.6°C 38.5°F3.6°C 87% 15.0 mph NNE24.1 kmh NNE 16.0 mph25.7 kmh 30.16 in1021.3 mb 0.00 in0.0 mm 0.00 in0.0 mm 0.02 in0.5 mm
08:28 AM 42.2°F5.7°C 38.6°F3.7°C 87% 12.0 mph NNE19.3 kmh NNE 16.0 mph25.7 kmh 30.16 in1021.3 mb 0.00 in0.0 mm 0.00 in0.0 mm 0.02 in0.5 mm
08:29 AM 42.2°F5.7°C 38.6°F3.7°C 87% 9.0 mph NNE14.5 kmh NNE 16.0 mph25.7 kmh 30.15 in1021.0 mb 0.00 in0.0 mm 0.00 in0.0 mm 0.02 in0.5 mm
08:30 AM 42.2°F5.7°C 38.6°F3.7°C 87% 11.0 mph N17.7 kmh N 13.0 mph20.9 kmh 30.16 in1021.3 mb 0.00 in0.0 mm 0.00 in0.0 mm 0.02 in0.5 mm
08:31 AM 42.4°F5.8°C 38.8°F3.8°C 87% 12.0 mph NNE19.3 kmh NNE 14.0 mph22.5 kmh 30.15 in1021.0 mb 0.00 in0.0 mm 0.00 in0.0 mm 0.02 in0.5 mm
08:32 AM 42.4°F5.8°C 39.1°F3.9°C 88% 12.0 mph NNE19.3 kmh NNE 16.0 mph25.7 kmh 30.16 in1021.3 mb 0.00 in0.0 mm 0.00 in0.0 mm 0.02 in0.5 mm
08:33 AM 42.5°F5.8°C 38.9°F3.8°C 87% 11.0 mph NNE17.7 kmh NNE 16.0 mph25.7 kmh 30.16 in1021.3 mb 0.00 in0.0 mm 0.00 in0.0 mm 0.02 in0.5 mm
08:34 AM 42.5°F5.8°C 38.9°F3.8°C 87% 11.0 mph NNE17.7 kmh NNE 16.0 mph25.7 kmh 30.16 in1021.3 mb 0.00 in0.0 mm 0.00 in0.0 mm 0.02 in0.5 mm
08:35 AM 42.6°F5.9°C 39.0°F3.9°C 87% 12.0 mph NNE19.3 kmh NNE 16.0 mph25.7 kmh 30.15 in1021.0 mb 0.00 in0.0 mm 0.00 in0.0 mm 0.02 in0.5 mm
08:36 AM 42.6°F5.9°C 39.0°F3.9°C 87% 12.0 mph N19.3 kmh N 16.0 mph25.7 kmh 30.16 in1021.3 mb 0.00 in0.0 mm 0.00 in0.0 mm 0.02 in0.5 mm
08:37 AM 42.7°F5.9°C 39.1°F3.9°C 87% 15.0 mph NNE24.1 kmh NNE 16.0 mph25.7 kmh 30.15 in1021.0 mb 0.00 in0.0 mm 0.00 in0.0 mm 0.02 in0.5 mm
08:38 AM 42.8°F6.0°C 39.5°F4.2°C 88% 14.0 mph NNE22.5 kmh NNE 17.0 mph27.4 kmh 30.16 in1021.3 mb 0.00 in0.0 mm 0.00 in0.0 mm 0.02 in0.5 mm
08:39 AM 42.9°F6.1°C 39.3°F4.1°C 87% 13.0 mph NNE20.9 kmh NNE 17.0 mph27.4 kmh 30.15 in1021.0 mb 0.00 in0.0 mm 0.00 in0.0 mm 0.02 in0.5 mm
08:40 AM 42.9°F6.1°C 39.3°F4.1°C 87% 12.0 mph N19.3 kmh N 17.0 mph27.4 kmh 30.16 in1021.3 mb 0.00 in0.0 mm 0.00 in0.0 mm 0.02 in0.5 mm
08:41 AM 43.0°F6.1°C 39.4°F4.1°C 87% 12.0 mph NNE19.3 kmh NNE 17.0 mph27.4 kmh 30.16 in1021.3 mb 0.00 in0.0 mm 0.00 in0.0 mm 0.02 in0.5 mm
08:42 AM 43.0°F6.1°C 39.4°F4.1°C 87% 10.0 mph N16.1 kmh N 17.0 mph27.4 kmh 30.16 in1021.3 mb 0.00 in0.0 mm 0.00 in0.0 mm 0.02 in0.5 mm
08:43 AM 43.1°F6.2°C 39.5°F4.2°C 87% 15.0 mph NNE24.1 kmh NNE 17.0 mph27.4 kmh 30.16 in1021.3 mb 0.00 in0.0 mm 0.00 in0.0 mm 0.02 in0.5 mm
08:44 AM 43.1°F6.2°C 39.5°F4.2°C 87% 13.0 mph NNE20.9 kmh NNE 17.0 mph27.4 kmh 30.16 in1021.3 mb 0.00 in0.0 mm 0.00 in0.0 mm 0.02 in0.5 mm
08:45 AM 43.1°F6.2°C 39.5°F4.2°C 87% 12.0 mph NNE19.3 kmh NNE 17.0 mph27.4 kmh 30.16 in1021.3 mb 0.00 in0.0 mm 0.00 in0.0 mm 0.02 in0.5 mm
08:46 AM 43.1°F6.2°C 39.2°F4.0°C 86% 11.0 mph N17.7 kmh N 17.0 mph27.4 kmh 30.16 in1021.3 mb 0.00 in0.0 mm 0.00 in0.0 mm 0.02 in0.5 mm
08:47 AM 43.1°F6.2°C 39.2°F4.0°C 86% 13.0 mph NNE20.9 kmh NNE 17.0 mph27.4 kmh 30.16 in1021.3 mb 0.00 in0.0 mm 0.00 in0.0 mm 0.02 in0.5 mm
08:48 AM 43.2°F6.2°C 39.3°F4.1°C 86% 11.0 mph NNE17.7 kmh NNE 17.0 mph27.4 kmh 30.16 in1021.3 mb 0.00 in0.0 mm 0.00 in0.0 mm 0.02 in0.5 mm
08:49 AM 43.2°F6.2°C 39.3°F4.1°C 86% 15.0 mph NE24.1 kmh NE 17.0 mph27.4 kmh 30.16 in1021.3 mb 0.00 in0.0 mm 0.00 in0.0 mm 0.02 in0.5 mm
08:50 AM 43.3°F6.3°C 39.4°F4.1°C 86% 13.0 mph NNE20.9 kmh NNE 17.0 mph27.4 kmh 30.16 in1021.3 mb 0.00 in0.0 mm 0.00 in0.0 mm 0.02 in0.5 mm
08:51 AM 43.3°F6.3°C 39.4°F4.1°C 86% 16.0 mph NNE25.7 kmh NNE 17.0 mph27.4 kmh 30.16 in1021.3 mb 0.00 in0.0 mm 0.00 in0.0 mm 0.02 in0.5 mm
08:52 AM 43.3°F6.3°C 39.4°F4.1°C 86% 14.0 mph NNE22.5 kmh NNE 17.0 mph27.4 kmh 30.16 in1021.3 mb 0.00 in0.0 mm 0.00 in0.0 mm 0.02 in0.5 mm
08:53 AM 43.3°F6.3°C 39.4°F4.1°C 86% 15.0 mph N24.1 kmh N 17.0 mph27.4 kmh 30.16 in1021.3 mb 0.00 in0.0 mm 0.00 in0.0 mm 0.02 in0.5 mm
08:54 AM 43.4°F6.3°C 39.5°F4.2°C 86% 10.0 mph NNE16.1 kmh NNE 17.0 mph27.4 kmh 30.16 in1021.3 mb 0.00 in0.0 mm 0.00 in0.0 mm 0.02 in0.5 mm
08:55 AM 43.7°F6.5°C 40.1°F4.5°C 87% 14.0 mph N22.5 kmh N 17.0 mph27.4 kmh 30.16 in1021.3 mb 0.00 in0.0 mm 0.00 in0.0 mm 0.02 in0.5 mm
08:56 AM 44.0°F6.7°C 40.7°F4.8°C 88% 19.0 mph N30.6 kmh N 19.0 mph30.6 kmh 30.16 in1021.3 mb 0.00 in0.0 mm 0.00 in0.0 mm 0.02 in0.5 mm
08:57 AM 44.2°F6.8°C 40.6°F4.8°C 87% 11.0 mph NNE17.7 kmh NNE 19.0 mph30.6 kmh 30.16 in1021.3 mb 0.00 in0.0 mm 0.00 in0.0 mm 0.02 in0.5 mm
08:58 AM 44.3°F6.8°C 40.4°F4.7°C 86% 9.0 mph NE14.5 kmh NE 19.0 mph30.6 kmh 30.16 in1021.3 mb 0.00 in0.0 mm 0.00 in0.0 mm 0.02 in0.5 mm
08:59 AM 44.3°F6.8°C 40.4°F4.7°C 86% 6.0 mph NNE9.7 kmh NNE 19.0 mph30.6 kmh 30.16 in1021.3 mb 0.00 in0.0 mm 0.00 in0.0 mm 0.02 in0.5 mm
09:00 AM 44.6°F7.0°C 41.0°F5.0°C 87% 13.0 mph NNE20.9 kmh NNE 13.0 mph20.9 kmh 30.16 in1021.3 mb 0.00 in0.0 mm 0.00 in0.0 mm 0.02 in0.5 mm
09:01 AM 44.7°F7.1°C 41.1°F5.1°C 87% 12.0 mph NNE19.3 kmh NNE 16.0 mph25.7 kmh 30.16 in1021.3 mb 0.00 in0.0 mm 0.00 in0.0 mm 0.02 in0.5 mm
09:02 AM 44.7°F7.1°C 41.1°F5.1°C 87% 15.0 mph N24.1 kmh N 16.0 mph25.7 kmh 30.16 in1021.3 mb 0.00 in0.0 mm 0.00 in0.0 mm 0.02 in0.5 mm
09:03 AM 44.7°F7.1°C 40.8°F4.9°C 86% 13.0 mph NNE20.9 kmh NNE 16.0 mph25.7 kmh 30.16 in1021.3 mb 0.00 in0.0 mm 0.00 in0.0 mm 0.02 in0.5 mm
09:04 AM 44.7°F7.1°C 40.5°F4.7°C 85% 13.0 mph NNE20.9 kmh NNE 17.0 mph27.4 kmh 30.16 in1021.3 mb 0.00 in0.0 mm 0.00 in0.0 mm 0.02 in0.5 mm
09:05 AM 44.6°F7.0°C 40.4°F4.7°C 85% 13.0 mph NNE20.9 kmh NNE 17.0 mph27.4 kmh 30.16 in1021.3 mb 0.00 in0.0 mm 0.00 in0.0 mm 0.02 in0.5 mm
09:06 AM 44.5°F6.9°C 40.0°F4.4°C 84% 11.0 mph NE17.7 kmh NE 17.0 mph27.4 kmh 30.16 in1021.3 mb 0.00 in0.0 mm 0.00 in0.0 mm 0.02 in0.5 mm
09:07 AM 44.5°F6.9°C 40.0°F4.4°C 84% 12.0 mph N19.3 kmh N 17.0 mph27.4 kmh 30.16 in1021.3 mb 0.00 in0.0 mm 0.00 in0.0 mm 0.02 in0.5 mm
09:08 AM 44.4°F6.9°C 39.9°F4.4°C 84% 12.0 mph NNE19.3 kmh NNE 17.0 mph27.4 kmh 30.16 in1021.3 mb 0.00 in0.0 mm 0.00 in0.0 mm 0.02 in0.5 mm
09:09 AM 44.3°F6.8°C 39.8°F4.3°C 84% 11.0 mph NE17.7 kmh NE 17.0 mph27.4 kmh 30.16 in1021.3 mb 0.00 in0.0 mm 0.00 in0.0 mm 0.02 in0.5 mm
09:10 AM 44.3°F6.8°C 39.8°F4.3°C 84% 11.0 mph NE17.7 kmh NE 17.0 mph27.4 kmh 30.16 in1021.3 mb 0.00 in0.0 mm 0.00 in0.0 mm 0.02 in0.5 mm
09:11 AM 44.4°F6.9°C 40.2°F4.6°C 85% 10.0 mph N16.1 kmh N 17.0 mph27.4 kmh 30.16 in1021.3 mb 0.00 in0.0 mm 0.00 in0.0 mm 0.02 in0.5 mm
09:12 AM 44.5°F6.9°C 40.6°F4.8°C 86% 12.0 mph N19.3 kmh N 17.0 mph27.4 kmh 30.16 in1021.3 mb 0.00 in0.0 mm 0.00 in0.0 mm 0.02 in0.5 mm
09:13 AM 44.5°F6.9°C 40.6°F4.8°C 86% 11.0 mph NNE17.7 kmh NNE 17.0 mph27.4 kmh 30.16 in1021.3 mb 0.00 in0.0 mm 0.00 in0.0 mm 0.02 in0.5 mm
09:14 AM 44.6°F7.0°C 40.4°F4.7°C 85% 11.0 mph NE17.7 kmh NE 17.0 mph27.4 kmh 30.16 in1021.3 mb 0.00 in0.0 mm 0.00 in0.0 mm 0.02 in0.5 mm
09:15 AM 44.6°F7.0°C 40.4°F4.7°C 85% 8.0 mph NE12.9 kmh NE 17.0 mph27.4 kmh 30.16 in1021.3 mb 0.00 in0.0 mm 0.00 in0.0 mm 0.02 in0.5 mm
09:16 AM 44.6°F7.0°C 40.7°F4.8°C 86% 11.0 mph NNE17.7 kmh NNE 17.0 mph27.4 kmh 30.16 in1021.3 mb 0.00 in0.0 mm 0.00 in0.0 mm 0.02 in0.5 mm
09:17 AM 44.6°F7.0°C 40.4°F4.7°C 85% 14.0 mph NNE22.5 kmh NNE 17.0 mph27.4 kmh 30.16 in1021.3 mb 0.00 in0.0 mm 0.00 in0.0 mm 0.02 in0.5 mm
09:18 AM 44.5°F6.9°C 40.3°F4.6°C 85% 14.0 mph N22.5 kmh N 17.0 mph27.4 kmh 30.16 in1021.3 mb 0.00 in0.0 mm 0.00 in0.0 mm 0.02 in0.5 mm
09:19 AM 44.5°F6.9°C 40.3°F4.6°C 85% 9.0 mph NNE14.5 kmh NNE 17.0 mph27.4 kmh 30.16 in1021.3 mb 0.00 in0.0 mm 0.00 in0.0 mm 0.02 in0.5 mm
09:20 AM 44.4°F6.9°C 39.9°F4.4°C 84% 13.0 mph NNE20.9 kmh NNE 17.0 mph27.4 kmh 30.16 in1021.3 mb 0.00 in0.0 mm 0.00 in0.0 mm 0.02 in0.5 mm
09:21 AM 44.4°F6.9°C 39.9°F4.4°C 84% 15.0 mph NNE24.1 kmh NNE 17.0 mph27.4 kmh 30.16 in1021.3 mb 0.00 in0.0 mm 0.00 in0.0 mm 0.02 in0.5 mm
09:22 AM 44.4°F6.9°C 39.9°F4.4°C 84% 9.0 mph NNE14.5 kmh NNE 17.0 mph27.4 kmh 30.16 in1021.3 mb 0.00 in0.0 mm 0.00 in0.0 mm 0.02 in0.5 mm
09:23 AM 44.4°F6.9°C 39.9°F4.4°C 84% 13.0 mph N20.9 kmh N 17.0 mph27.4 kmh 30.16 in1021.3 mb 0.00 in0.0 mm 0.00 in0.0 mm 0.02 in0.5 mm
09:24 AM 44.5°F6.9°C 40.0°F4.4°C 84% 13.0 mph N20.9 kmh N 17.0 mph27.4 kmh 30.16 in1021.3 mb 0.00 in0.0 mm 0.00 in0.0 mm 0.02 in0.5 mm
09:25 AM 44.6°F7.0°C 40.4°F4.7°C 85% 10.0 mph NNE16.1 kmh NNE 17.0 mph27.4 kmh 30.16 in1021.3 mb 0.00 in0.0 mm 0.00 in0.0 mm 0.02 in0.5 mm
09:26 AM 44.7°F7.1°C 40.5°F4.7°C 85% 10.0 mph N16.1 kmh N 17.0 mph27.4 kmh 30.16 in1021.3 mb 0.00 in0.0 mm 0.00 in0.0 mm 0.02 in0.5 mm
09:27 AM 44.8°F7.1°C 40.6°F4.8°C 85% 9.0 mph NNE14.5 kmh NNE 17.0 mph27.4 kmh 30.16 in1021.3 mb 0.00 in0.0 mm 0.00 in0.0 mm 0.02 in0.5 mm
09:28 AM 44.9°F7.2°C 40.7°F4.8°C 85% 10.0 mph NNE16.1 kmh NNE 17.0 mph27.4 kmh 30.16 in1021.3 mb 0.00 in0.0 mm 0.00 in0.0 mm 0.02 in0.5 mm
09:29 AM 45.0°F7.2°C 41.1°F5.1°C 86% 12.0 mph NNE19.3 kmh NNE 17.0 mph27.4 kmh 30.16 in1021.3 mb 0.00 in0.0 mm 0.00 in0.0 mm 0.02 in0.5 mm
09:30 AM 45.1°F7.3°C 40.9°F4.9°C 85% 14.0 mph NNE22.5 kmh NNE 14.0 mph22.5 kmh 30.16 in1021.3 mb 0.00 in0.0 mm 0.00 in0.0 mm 0.02 in0.5 mm
09:31 AM 45.1°F7.3°C 40.9°F4.9°C 85% 15.0 mph NE24.1 kmh NE 16.0 mph25.7 kmh 30.16 in1021.3 mb 0.00 in0.0 mm 0.00 in0.0 mm 0.02 in0.5 mm
09:32 AM 45.2°F7.3°C 40.7°F4.8°C 84% 9.0 mph NNE14.5 kmh NNE 16.0 mph25.7 kmh 30.16 in1021.3 mb 0.00 in0.0 mm 0.00 in0.0 mm 0.02 in0.5 mm
09:33 AM 45.3°F7.4°C 41.1°F5.1°C 85% 13.0 mph N20.9 kmh N 16.0 mph25.7 kmh 30.16 in1021.3 mb 0.00 in0.0 mm 0.00 in0.0 mm 0.02 in0.5 mm
09:34 AM 45.4°F7.4°C 41.2°F5.1°C 85% 9.0 mph NNE14.5 kmh NNE 16.0 mph25.7 kmh 30.16 in1021.3 mb 0.00 in0.0 mm 0.00 in0.0 mm 0.02 in0.5 mm
09:35 AM 45.7°F7.6°C 41.5°F5.3°C 85% 11.0 mph NNE17.7 kmh NNE 16.0 mph25.7 kmh 30.16 in1021.3 mb 0.00 in0.0 mm 0.00 in0.0 mm 0.02 in0.5 mm
09:36 AM 45.8°F7.7°C 41.6°F5.3°C 85% 13.0 mph NNE20.9 kmh NNE 16.0 mph25.7 kmh 30.16 in1021.3 mb 0.00 in0.0 mm 0.00 in0.0 mm 0.02 in0.5 mm
09:38 AM 46.2°F7.9°C 42.0°F5.6°C 85% 17.0 mph NNE27.4 kmh NNE 17.0 mph27.4 kmh 30.16 in1021.3 mb 0.00 in0.0 mm 0.00 in0.0 mm 0.02 in0.5 mm
09:39 AM 46.3°F7.9°C 42.1°F5.6°C 85% 13.0 mph NNE20.9 kmh NNE 17.0 mph27.4 kmh 30.16 in1021.3 mb 0.00 in0.0 mm 0.00 in0.0 mm 0.02 in0.5 mm
09:40 AM 46.5°F8.1°C 42.2°F5.7°C 85% 14.0 mph N22.5 kmh N 17.0 mph27.4 kmh 30.16 in1021.3 mb 0.00 in0.0 mm 0.00 in0.0 mm 0.02 in0.5 mm
09:41 AM 46.7°F8.2°C 42.4°F5.8°C 85% 16.0 mph NNE25.7 kmh NNE 17.0 mph27.4 kmh 30.16 in1021.3 mb 0.00 in0.0 mm 0.00 in0.0 mm 0.02 in0.5 mm
09:42 AM 46.8°F8.2°C 42.5°F5.8°C 85% 16.0 mph NNE25.7 kmh NNE 17.0 mph27.4 kmh 30.16 in1021.3 mb 0.00 in0.0 mm 0.00 in0.0 mm 0.02 in0.5 mm
09:43 AM 47.0°F8.3°C 42.4°F5.8°C 84% 16.0 mph NNE25.7 kmh NNE 17.0 mph27.4 kmh 30.16 in1021.3 mb 0.00 in0.0 mm 0.00 in0.0 mm 0.02 in0.5 mm
09:44 AM 47.0°F8.3°C 42.4°F5.8°C 84% 14.0 mph N22.5 kmh N 17.0 mph27.4 kmh 30.16 in1021.3 mb 0.00 in0.0 mm 0.00 in0.0 mm 0.02 in0.5 mm
09:45 AM 47.1°F8.4°C 42.2°F5.7°C 83% 14.0 mph NNE22.5 kmh NNE 18.0 mph29.0 kmh 30.16 in1021.3 mb 0.00 in0.0 mm 0.00 in0.0 mm 0.02 in0.5 mm
09:46 AM 47.2°F8.4°C 42.3°F5.7°C 83% 14.0 mph NNE22.5 kmh NNE 18.0 mph29.0 kmh 30.16 in1021.3 mb 0.00 in0.0 mm 0.00 in0.0 mm 0.02 in0.5 mm
09:47 AM 47.3°F8.5°C 42.4°F5.8°C 83% 16.0 mph NNE25.7 kmh NNE 18.0 mph29.0 kmh 30.16 in1021.3 mb 0.00 in0.0 mm 0.00 in0.0 mm 0.02 in0.5 mm
09:48 AM 47.3°F8.5°C 42.7°F5.9°C 84% 14.0 mph NE22.5 kmh NE 18.0 mph29.0 kmh 30.16 in1021.3 mb 0.00 in0.0 mm 0.00 in0.0 mm 0.02 in0.5 mm
09:49 AM 47.3°F8.5°C 42.1°F5.6°C 82% 10.0 mph NNE16.1 kmh NNE 18.0 mph29.0 kmh 30.16 in1021.3 mb 0.00 in0.0 mm 0.00 in0.0 mm 0.02 in0.5 mm
09:50 AM 47.4°F8.6°C 42.5°F5.8°C 83% 12.0 mph NE19.3 kmh NE 18.0 mph29.0 kmh 30.16 in1021.3 mb 0.00 in0.0 mm 0.00 in0.0 mm 0.02 in0.5 mm
09:51 AM 47.4°F8.6°C 42.5°F5.8°C 83% 13.0 mph NNE20.9 kmh NNE 18.0 mph29.0 kmh 30.16 in1021.3 mb 0.00 in0.0 mm 0.00 in0.0 mm 0.02 in0.5 mm
09:52 AM 47.6°F8.7°C 42.7°F5.9°C 83% 8.0 mph NNE12.9 kmh NNE 18.0 mph29.0 kmh 30.16 in1021.3 mb 0.00 in0.0 mm 0.00 in0.0 mm 0.02 in0.5 mm
09:53 AM 47.8°F8.8°C 42.9°F6.1°C 83% 18.0 mph NNE29.0 kmh NNE 19.0 mph30.6 kmh 30.16 in1021.3 mb 0.00 in0.0 mm 0.00 in0.0 mm 0.02 in0.5 mm
09:54 AM 48.0°F8.9°C 43.4°F6.3°C 84% 11.0 mph NE17.7 kmh NE 19.0 mph30.6 kmh 30.16 in1021.3 mb 0.00 in0.0 mm 0.00 in0.0 mm 0.02 in0.5 mm
09:55 AM 48.1°F8.9°C 43.2°F6.2°C 83% 14.0 mph NNE22.5 kmh NNE 19.0 mph30.6 kmh 30.16 in1021.3 mb 0.00 in0.0 mm 0.00 in0.0 mm 0.02 in0.5 mm
09:56 AM 48.1°F8.9°C 42.9°F6.1°C 82% 10.0 mph NNE16.1 kmh NNE 19.0 mph30.6 kmh 30.16 in1021.3 mb 0.00 in0.0 mm 0.00 in0.0 mm 0.02 in0.5 mm
09:57 AM 48.1°F8.9°C 42.6°F5.9°C 81% 14.0 mph NNE22.5 kmh NNE 19.0 mph30.6 kmh 30.16 in1021.3 mb 0.00 in0.0 mm 0.00 in0.0 mm 0.02 in0.5 mm
09:58 AM 48.1°F8.9°C 42.6°F5.9°C 81% 11.0 mph NE17.7 kmh NE 19.0 mph30.6 kmh 30.16 in1021.3 mb 0.00 in0.0 mm 0.00 in0.0 mm 0.02 in0.5 mm
09:59 AM 48.1°F8.9°C 42.9°F6.1°C 82% 13.0 mph NNE20.9 kmh NNE 19.0 mph30.6 kmh 30.16 in1021.3 mb 0.00 in0.0 mm 0.00 in0.0 mm 0.02 in0.5 mm
10:00 AM 48.0°F8.9°C 42.8°F6.0°C 82% 12.0 mph NE19.3 kmh NE 13.0 mph20.9 kmh 30.16 in1021.3 mb 0.00 in0.0 mm 0.00 in0.0 mm 0.02 in0.5 mm
10:01 AM 48.0°F8.9°C 42.5°F5.8°C 81% 12.0 mph NNE19.3 kmh NNE 16.0 mph25.7 kmh 30.16 in1021.3 mb 0.00 in0.0 mm 0.00 in0.0 mm 0.02 in0.5 mm
10:02 AM 47.9°F8.8°C 42.4°F5.8°C 81% 14.0 mph NE22.5 kmh NE 16.0 mph25.7 kmh 30.16 in1021.3 mb 0.00 in0.0 mm 0.00 in0.0 mm 0.02 in0.5 mm
10:03 AM 47.9°F8.8°C 42.4°F5.8°C 81% 10.0 mph NNE16.1 kmh NNE 16.0 mph25.7 kmh 30.16 in1021.3 mb 0.00 in0.0 mm 0.00 in0.0 mm 0.02 in0.5 mm
10:04 AM 47.9°F8.8°C 42.7°F5.9°C 82% 12.0 mph NE19.3 kmh NE 16.0 mph25.7 kmh 30.16 in1021.3 mb 0.00 in0.0 mm 0.00 in0.0 mm 0.02 in0.5 mm
10:05 AM 47.8°F8.8°C 42.6°F5.9°C 82% 11.0 mph NE17.7 kmh NE 17.0 mph27.4 kmh 30.16 in1021.3 mb 0.00 in0.0 mm 0.00 in0.0 mm 0.02 in0.5 mm
10:06 AM 47.7°F8.7°C 42.2°F5.7°C 81% 10.0 mph NE16.1 kmh NE 17.0 mph27.4 kmh 30.16 in1021.3 mb 0.00 in0.0 mm 0.00 in0.0 mm 0.02 in0.5 mm
10:07 AM 47.8°F8.8°C 42.6°F5.9°C 82% 14.0 mph NNE22.5 kmh NNE 17.0 mph27.4 kmh 30.16 in1021.3 mb 0.00 in0.0 mm 0.00 in0.0 mm 0.02 in0.5 mm
10:08 AM 47.8°F8.8°C 42.6°F5.9°C 82% 9.0 mph NE14.5 kmh NE 17.0 mph27.4 kmh 30.16 in1021.3 mb 0.00 in0.0 mm 0.00 in0.0 mm 0.02 in0.5 mm
10:09 AM 47.7°F8.7°C 42.5°F5.8°C 82% 9.0 mph NE14.5 kmh NE 17.0 mph27.4 kmh 30.16 in1021.3 mb 0.00 in0.0 mm 0.00 in0.0 mm 0.02 in0.5 mm
10:10 AM 47.7°F8.7°C 42.5°F5.8°C 82% 9.0 mph NE14.5 kmh NE 17.0 mph27.4 kmh 30.16 in1021.3 mb 0.00 in0.0 mm 0.00 in0.0 mm 0.02 in0.5 mm
10:11 AM 47.8°F8.8°C 42.6°F5.9°C 82% 14.0 mph N22.5 kmh N 17.0 mph27.4 kmh 30.16 in1021.3 mb 0.00 in0.0 mm 0.00 in0.0 mm 0.02 in0.5 mm
10:12 AM 47.9°F8.8°C 43.0°F6.1°C 83% 13.0 mph N20.9 kmh N 17.0 mph27.4 kmh 30.16 in1021.3 mb 0.00 in0.0 mm 0.00 in0.0 mm 0.02 in0.5 mm
10:13 AM 47.9°F8.8°C 42.7°F5.9°C 82% 12.0 mph NNE19.3 kmh NNE 17.0 mph27.4 kmh 30.16 in1021.3 mb 0.00 in0.0 mm 0.00 in0.0 mm 0.02 in0.5 mm
10:14 AM 47.9°F8.8°C 42.7°F5.9°C 82% 12.0 mph NNE19.3 kmh NNE 17.0 mph27.4 kmh 30.16 in1021.3 mb 0.00 in0.0 mm 0.00 in0.0 mm 0.02 in0.5 mm
10:15 AM 47.8°F8.8°C 42.6°F5.9°C 82% 13.0 mph N20.9 kmh N 17.0 mph27.4 kmh 30.16 in1021.3 mb 0.00 in0.0 mm 0.00 in0.0 mm 0.02 in0.5 mm
10:16 AM 47.9°F8.8°C 43.3°F6.3°C 84% 10.0 mph N16.1 kmh N 17.0 mph27.4 kmh 30.16 in1021.3 mb 0.00 in0.0 mm 0.00 in0.0 mm 0.02 in0.5 mm
10:17 AM 48.0°F8.9°C 43.1°F6.2°C 83% 14.0 mph NNE22.5 kmh NNE 17.0 mph27.4 kmh 30.16 in1021.3 mb 0.00 in0.0 mm 0.00 in0.0 mm 0.02 in0.5 mm
10:18 AM 48.0°F8.9°C 42.8°F6.0°C 82% 14.0 mph N22.5 kmh N 17.0 mph27.4 kmh 30.16 in1021.3 mb 0.00 in0.0 mm 0.00 in0.0 mm 0.02 in0.5 mm
10:19 AM 47.9°F8.8°C 42.4°F5.8°C 81% 12.0 mph NNE19.3 kmh NNE 17.0 mph27.4 kmh 30.16 in1021.3 mb 0.00 in0.0 mm 0.00 in0.0 mm 0.02 in0.5 mm
10:20 AM 47.9°F8.8°C 42.4°F5.8°C 81% 12.0 mph N19.3 kmh N 17.0 mph27.4 kmh 30.16 in1021.3 mb 0.00 in0.0 mm 0.00 in0.0 mm 0.02 in0.5 mm
10:21 AM 47.9°F8.8°C 42.7°F5.9°C 82% 15.0 mph NNE24.1 kmh NNE 17.0 mph27.4 kmh 30.16 in1021.3 mb 0.00 in0.0 mm 0.00 in0.0 mm 0.02 in0.5 mm
10:22 AM 47.9°F8.8°C 42.7°F5.9°C 82% 11.0 mph N17.7 kmh N 17.0 mph27.4 kmh 30.16 in1021.3 mb 0.00 in0.0 mm 0.00 in0.0 mm 0.02 in0.5 mm
10:23 AM 47.9°F8.8°C 42.7°F5.9°C 82% 13.0 mph NNE20.9 kmh NNE 17.0 mph27.4 kmh 30.16 in1021.3 mb 0.00 in0.0 mm 0.00 in0.0 mm 0.02 in0.5 mm
10:24 AM 48.0°F8.9°C 42.5°F5.8°C 81% 11.0 mph N17.7 kmh N 17.0 mph27.4 kmh 30.16 in1021.3 mb 0.00 in0.0 mm 0.00 in0.0 mm 0.02 in0.5 mm
10:25 AM 48.0°F8.9°C 42.5°F5.8°C 81% 11.0 mph N17.7 kmh N 17.0 mph27.4 kmh 30.16 in1021.3 mb 0.00 in0.0 mm 0.00 in0.0 mm 0.02 in0.5 mm
10:26 AM 48.0°F8.9°C 42.8°F6.0°C 82% 11.0 mph NNE17.7 kmh NNE 17.0 mph27.4 kmh 30.16 in1021.3 mb 0.00 in0.0 mm 0.00 in0.0 mm 0.02 in0.5 mm
10:27 AM 48.1°F8.9°C 42.9°F6.1°C 82% 12.0 mph NE19.3 kmh NE 17.0 mph27.4 kmh 30.16 in1021.3 mb 0.00 in0.0 mm 0.00 in0.0 mm 0.02 in0.5 mm
10:28 AM 48.3°F9.1°C 43.4°F6.3°C 83% 10.0 mph NE16.1 kmh NE 17.0 mph27.4 kmh 30.16 in1021.3 mb 0.00 in0.0 mm 0.00 in0.0 mm 0.02 in0.5 mm
10:29 AM 48.3°F9.1°C 43.1°F6.2°C 82% 10.0 mph NNE16.1 kmh NNE 17.0 mph27.4 kmh 30.16 in1021.3 mb 0.00 in0.0 mm 0.00 in0.0 mm 0.02 in0.5 mm
10:30 AM 48.4°F9.1°C 42.5°F5.8°C 80% 7.0 mph NNE11.3 kmh NNE 11.0 mph17.7 kmh 30.16 in1021.3 mb 0.00 in0.0 mm 0.00 in0.0 mm 0.02 in0.5 mm
10:31 AM 48.4°F9.1°C 42.5°F5.8°C 80% 11.0 mph NNE17.7 kmh NNE 12.0 mph19.3 kmh 30.16 in1021.3 mb 0.00 in0.0 mm 0.00 in0.0 mm 0.02 in0.5 mm
10:32 AM 48.4°F9.1°C 42.5°F5.8°C 80% 12.0 mph NNE19.3 kmh NNE 15.0 mph24.1 kmh 30.16 in1021.3 mb 0.00 in0.0 mm 0.00 in0.0 mm 0.02 in0.5 mm
10:33 AM 48.4°F9.1°C 42.5°F5.8°C 80% 14.0 mph NE22.5 kmh NE 15.0 mph24.1 kmh 30.16 in1021.3 mb 0.00 in0.0 mm 0.00 in0.0 mm 0.02 in0.5 mm
10:34 AM 48.3°F9.1°C 42.1°F5.6°C 79% 11.0 mph N17.7 kmh N 15.0 mph24.1 kmh 30.16 in1021.3 mb 0.00 in0.0 mm 0.00 in0.0 mm 0.02 in0.5 mm
10:35 AM 48.4°F9.1°C 42.5°F5.8°C 80% 15.0 mph NNE24.1 kmh NNE 15.0 mph24.1 kmh 30.16 in1021.3 mb 0.00 in0.0 mm 0.00 in0.0 mm 0.02 in0.5 mm
10:36 AM 48.5°F9.2°C 43.0°F6.1°C 81% 11.0 mph NE17.7 kmh NE 15.0 mph24.1 kmh 30.16 in1021.3 mb 0.00 in0.0 mm 0.00 in0.0 mm 0.02 in0.5 mm
10:37 AM 48.5°F9.2°C 42.6°F5.9°C 80% 13.0 mph NE20.9 kmh NE 15.0 mph24.1 kmh 30.16 in1021.3 mb 0.00 in0.0 mm 0.00 in0.0 mm 0.02 in0.5 mm
10:38 AM 48.5°F9.2°C 42.3°F5.7°C 79% 7.0 mph NE11.3 kmh NE 15.0 mph24.1 kmh 30.16 in1021.3 mb 0.00 in0.0 mm 0.00 in0.0 mm 0.02 in0.5 mm
10:39 AM 48.7°F9.3°C 43.1°F6.2°C 81% 8.0 mph NNE12.9 kmh NNE 15.0 mph24.1 kmh 30.16 in1021.3 mb 0.00 in0.0 mm 0.00 in0.0 mm 0.02 in0.5 mm
10:40 AM 48.9°F9.4°C 43.7°F6.5°C 82% 11.0 mph NE17.7 kmh NE 16.0 mph25.7 kmh 30.16 in1021.3 mb 0.00 in0.0 mm 0.00 in0.0 mm 0.02 in0.5 mm
10:41 AM 49.0°F9.4°C 43.4°F6.3°C 81% 12.0 mph NE19.3 kmh NE 16.0 mph25.7 kmh 30.16 in1021.3 mb 0.00 in0.0 mm 0.00 in0.0 mm 0.02 in0.5 mm
10:42 AM 49.0°F9.4°C 42.8°F6.0°C 79% 10.0 mph NNE16.1 kmh NNE 16.0 mph25.7 kmh 30.16 in1021.3 mb 0.00 in0.0 mm 0.00 in0.0 mm 0.02 in0.5 mm
10:43 AM 49.0°F9.4°C 42.5°F5.8°C 78% 7.0 mph NE11.3 kmh NE 16.0 mph25.7 kmh 30.16 in1021.3 mb 0.00 in0.0 mm 0.00 in0.0 mm 0.02 in0.5 mm
10:44 AM 49.2°F9.6°C 43.3°F6.3°C 80% 13.0 mph NE20.9 kmh NE 16.0 mph25.7 kmh 30.16 in1021.3 mb 0.00 in0.0 mm 0.00 in0.0 mm 0.02 in0.5 mm
10:45 AM 49.2°F9.6°C 43.3°F6.3°C 80% 11.0 mph NNE17.7 kmh NNE 16.0 mph25.7 kmh 30.16 in1021.3 mb 0.00 in0.0 mm 0.00 in0.0 mm 0.02 in0.5 mm
10:46 AM 49.3°F9.6°C 43.1°F6.2°C 79% 8.0 mph N12.9 kmh N 16.0 mph25.7 kmh 30.16 in1021.3 mb 0.00 in0.0 mm 0.00 in0.0 mm 0.02 in0.5 mm
10:47 AM 49.4°F9.7°C 43.5°F6.4°C 80% 10.0 mph NNE16.1 kmh NNE 16.0 mph25.7 kmh 30.16 in1021.3 mb 0.00 in0.0 mm 0.00 in0.0 mm 0.02 in0.5 mm
10:48 AM 49.4°F9.7°C 43.5°F6.4°C 80% 9.0 mph NNE14.5 kmh NNE 16.0 mph25.7 kmh 30.16 in1021.3 mb 0.00 in0.0 mm 0.00 in0.0 mm 0.02 in0.5 mm
10:49 AM 49.4°F9.7°C 43.2°F6.2°C 79% 12.0 mph N19.3 kmh N 16.0 mph25.7 kmh 30.16 in1021.3 mb 0.00 in0.0 mm 0.00 in0.0 mm 0.02 in0.5 mm
10:50 AM 49.5°F9.7°C 44.2°F6.8°C 82% 11.0 mph NNE17.7 kmh NNE 16.0 mph25.7 kmh 30.16 in1021.3 mb 0.00 in0.0 mm 0.00 in0.0 mm 0.02 in0.5 mm
10:51 AM 49.6°F9.8°C 44.0°F6.7°C 81% 10.0 mph N16.1 kmh N 16.0 mph25.7 kmh 30.16 in1021.3 mb 0.00 in0.0 mm 0.00 in0.0 mm 0.02 in0.5 mm
10:52 AM 49.6°F9.8°C 43.7°F6.5°C 80% 10.0 mph N16.1 kmh N 16.0 mph25.7 kmh 30.16 in1021.3 mb 0.00 in0.0 mm 0.00 in0.0 mm 0.02 in0.5 mm
10:53 AM 49.6°F9.8°C 43.4°F6.3°C 79% 8.0 mph NNE12.9 kmh NNE 16.0 mph25.7 kmh 30.16 in1021.3 mb 0.00 in0.0 mm 0.00 in0.0 mm 0.02 in0.5 mm
10:54 AM 49.6°F9.8°C 43.7°F6.5°C 80% 8.0 mph NE12.9 kmh NE 16.0 mph25.7 kmh 30.16 in1021.3 mb 0.00 in0.0 mm 0.00 in0.0 mm 0.02 in0.5 mm
10:55 AM 49.7°F9.8°C 44.1°F6.7°C 81% 9.0 mph NNE14.5 kmh NNE 16.0 mph25.7 kmh 30.16 in1021.3 mb 0.00 in0.0 mm 0.00 in0.0 mm 0.02 in0.5 mm
10:56 AM 49.9°F9.9°C 44.3°F6.8°C 81% 12.0 mph NNE19.3 kmh NNE 16.0 mph25.7 kmh 30.16 in1021.3 mb 0.00 in0.0 mm 0.00 in0.0 mm 0.02 in0.5 mm
10:57 AM 49.8°F9.9°C 43.2°F6.2°C 78% 14.0 mph NNE22.5 kmh NNE 16.0 mph25.7 kmh 30.16 in1021.3 mb 0.00 in0.0 mm 0.00 in0.0 mm 0.02 in0.5 mm
10:58 AM 49.8°F9.9°C 43.2°F6.2°C 78% 10.0 mph N16.1 kmh N 16.0 mph25.7 kmh 30.16 in1021.3 mb 0.00 in0.0 mm 0.00 in0.0 mm 0.02 in0.5 mm
10:59 AM 49.9°F9.9°C 43.3°F6.3°C 78% 12.0 mph NNE19.3 kmh NNE 16.0 mph25.7 kmh 30.16 in1021.3 mb 0.00 in0.0 mm 0.00 in0.0 mm 0.02 in0.5 mm
11:00 AM 50.0°F10.0°C 43.4°F6.3°C 78% 12.0 mph NNE19.3 kmh NNE 14.0 mph22.5 kmh 30.16 in1021.3 mb 0.00 in0.0 mm 0.00 in0.0 mm 0.02 in0.5 mm
11:01 AM 50.0°F10.0°C 43.4°F6.3°C 78% 14.0 mph NE22.5 kmh NE 14.0 mph22.5 kmh 30.16 in1021.3 mb 0.00 in0.0 mm 0.00 in0.0 mm 0.02 in0.5 mm
11:02 AM 50.2°F10.1°C 43.3°F6.3°C 77% 12.0 mph NNE19.3 kmh NNE 14.0 mph22.5 kmh 30.16 in1021.3 mb 0.00 in0.0 mm 0.00 in0.0 mm 0.02 in0.5 mm
11:03 AM 50.2°F10.1°C 43.6°F6.4°C 78% 13.0 mph NE20.9 kmh NE 14.0 mph22.5 kmh 30.16 in1021.3 mb 0.00 in0.0 mm 0.00 in0.0 mm 0.02 in0.5 mm
11:04 AM 50.3°F10.2°C 43.4°F6.3°C 77% 8.0 mph NE12.9 kmh NE 14.0 mph22.5 kmh 30.16 in1021.3 mb 0.00 in0.0 mm 0.00 in0.0 mm 0.02 in0.5 mm
11:05 AM 50.5°F10.3°C 44.2°F6.8°C 79% 11.0 mph NNE17.7 kmh NNE 14.0 mph22.5 kmh 30.16 in1021.3 mb 0.00 in0.0 mm 0.00 in0.0 mm 0.02 in0.5 mm
11:06 AM 50.4°F10.2°C 43.5°F6.4°C 77% 8.0 mph NE12.9 kmh NE 14.0 mph22.5 kmh 30.16 in1021.3 mb 0.00 in0.0 mm 0.00 in0.0 mm 0.02 in0.5 mm
11:07 AM 50.4°F10.2°C 43.5°F6.4°C 77% 12.0 mph NE19.3 kmh NE 14.0 mph22.5 kmh 30.16 in1021.3 mb 0.00 in0.0 mm 0.00 in0.0 mm 0.02 in0.5 mm
11:08 AM 50.5°F10.3°C 43.9°F6.6°C 78% 11.0 mph N17.7 kmh N 14.0 mph22.5 kmh 30.16 in1021.3 mb 0.00 in0.0 mm 0.00 in0.0 mm 0.02 in0.5 mm
11:09 AM 50.7°F10.4°C 44.4°F6.9°C 79% 7.0 mph N11.3 kmh N 14.0 mph22.5 kmh 30.16 in1021.3 mb 0.00 in0.0 mm 0.00 in0.0 mm 0.02 in0.5 mm
11:10 AM 51.1°F10.6°C 45.2°F7.3°C 80% 11.0 mph N17.7 kmh N 14.0 mph22.5 kmh 30.16 in1021.3 mb 0.00 in0.0 mm 0.00 in0.0 mm 0.02 in0.5 mm
11:11 AM 51.3°F10.7°C 45.4°F7.4°C 80% 15.0 mph NNE24.1 kmh NNE 15.0 mph24.1 kmh 30.16 in1021.3 mb 0.00 in0.0 mm 0.00 in0.0 mm 0.02 in0.5 mm
11:12 AM 51.6°F10.9°C 45.3°F7.4°C 79% 11.0 mph NNE17.7 kmh NNE 15.0 mph24.1 kmh 30.16 in1021.3 mb 0.00 in0.0 mm 0.00 in0.0 mm 0.02 in0.5 mm
11:13 AM 51.7°F10.9°C 45.1°F7.3°C 78% 9.0 mph NNE14.5 kmh NNE 15.0 mph24.1 kmh 30.16 in1021.3 mb 0.00 in0.0 mm 0.00 in0.0 mm 0.02 in0.5 mm
11:14 AM 51.7°F10.9°C 45.1°F7.3°C 78% 8.0 mph NNE12.9 kmh NNE 15.0 mph24.1 kmh 30.16 in1021.3 mb 0.00 in0.0 mm 0.00 in0.0 mm 0.02 in0.5 mm
11:15 AM 51.9°F11.1°C 45.6°F7.6°C 79% 11.0 mph NNE17.7 kmh NNE 15.0 mph24.1 kmh 30.16 in1021.3 mb 0.00 in0.0 mm 0.00 in0.0 mm 0.02 in0.5 mm
11:16 AM 52.0°F11.1°C 45.7°F7.6°C 79% 12.0 mph NE19.3 kmh NE 16.0 mph25.7 kmh 30.16 in1021.3 mb 0.00 in0.0 mm 0.00 in0.0 mm 0.02 in0.5 mm
11:17 AM 52.2°F11.2°C 46.2°F7.9°C 80% 9.0 mph NNE14.5 kmh NNE 16.0 mph25.7 kmh 30.15 in1021.0 mb 0.00 in0.0 mm 0.00 in0.0 mm 0.02 in0.5 mm
11:18 AM 52.4°F11.3°C 46.4°F8.0°C 80% 11.0 mph NNE17.7 kmh NNE 16.0 mph25.7 kmh 30.15 in1021.0 mb 0.00 in0.0 mm 0.00 in0.0 mm 0.02 in0.5 mm
11:19 AM 52.5°F11.4°C 45.9°F7.7°C 78% 14.0 mph N22.5 kmh N 16.0 mph25.7 kmh 30.16 in1021.3 mb 0.00 in0.0 mm 0.00 in0.0 mm 0.02 in0.5 mm
11:20 AM 52.4°F11.3°C 45.1°F7.3°C 76% 11.0 mph N17.7 kmh N 16.0 mph25.7 kmh 30.16 in1021.3 mb 0.00 in0.0 mm 0.00 in0.0 mm 0.02 in0.5 mm
11:21 AM 52.4°F11.3°C 45.1°F7.3°C 76% 12.0 mph N19.3 kmh N 16.0 mph25.7 kmh 30.16 in1021.3 mb 0.00 in0.0 mm 0.00 in0.0 mm 0.02 in0.5 mm
11:22 AM 52.3°F11.3°C 44.3°F6.8°C 74% 12.0 mph N19.3 kmh N 16.0 mph25.7 kmh 30.15 in1021.0 mb 0.00 in0.0 mm 0.00 in0.0 mm 0.02 in0.5 mm
11:23 AM 52.2°F11.2°C 44.5°F6.9°C 75% 12.0 mph NNE19.3 kmh NNE 16.0 mph25.7 kmh 30.16 in1021.3 mb 0.00 in0.0 mm 0.00 in0.0 mm 0.02 in0.5 mm
11:24 AM 52.2°F11.2°C 45.2°F7.3°C 77% 13.0 mph NE20.9 kmh NE 16.0 mph25.7 kmh 30.16 in1021.3 mb 0.00 in0.0 mm 0.00 in0.0 mm 0.02 in0.5 mm
11:25 AM 52.2°F11.2°C 45.2°F7.3°C 77% 15.0 mph NNE24.1 kmh NNE 17.0 mph27.4 kmh 30.16 in1021.3 mb 0.00 in0.0 mm 0.00 in0.0 mm 0.02 in0.5 mm
11:26 AM 52.1°F11.2°C 44.4°F6.9°C 75% 14.0 mph N22.5 kmh N 18.0 mph29.0 kmh 30.16 in1021.3 mb 0.00 in0.0 mm 0.00 in0.0 mm 0.02 in0.5 mm
11:27 AM 52.0°F11.1°C 43.6°F6.4°C 73% 13.0 mph NNE20.9 kmh NNE 18.0 mph29.0 kmh 30.16 in1021.3 mb 0.00 in0.0 mm 0.00 in0.0 mm 0.02 in0.5 mm
11:28 AM 51.8°F11.0°C 43.4°F6.3°C 73% 12.0 mph N19.3 kmh N 18.0 mph29.0 kmh 30.15 in1021.0 mb 0.00 in0.0 mm 0.00 in0.0 mm 0.02 in0.5 mm
11:29 AM 51.8°F11.0°C 44.5°F6.9°C 76% 8.0 mph NE12.9 kmh NE 18.0 mph29.0 kmh 30.15 in1021.0 mb 0.00 in0.0 mm 0.00 in0.0 mm 0.02 in0.5 mm
11:30 AM 52.0°F11.1°C 45.7°F7.6°C 79% 9.0 mph N14.5 kmh N 11.0 mph17.7 kmh 30.16 in1021.3 mb 0.00 in0.0 mm 0.00 in0.0 mm 0.02 in0.5 mm
11:31 AM 52.1°F11.2°C 45.1°F7.3°C 77% 11.0 mph N17.7 kmh N 11.0 mph17.7 kmh 30.16 in1021.3 mb 0.00 in0.0 mm 0.00 in0.0 mm 0.02 in0.5 mm
11:32 AM 52.1°F11.2°C 44.8°F7.1°C 76% 12.0 mph NNE19.3 kmh NNE 13.0 mph20.9 kmh 30.16 in1021.3 mb 0.00 in0.0 mm 0.00 in0.0 mm 0.02 in0.5 mm
11:33 AM 52.1°F11.2°C 44.1°F6.7°C 74% 8.0 mph NE12.9 kmh NE 13.0 mph20.9 kmh 30.15 in1021.0 mb 0.00 in0.0 mm 0.00 in0.0 mm 0.02 in0.5 mm
11:34 AM 52.3°F11.3°C 45.7°F7.6°C 78% 9.0 mph NNE14.5 kmh NNE 13.0 mph20.9 kmh 30.16 in1021.3 mb 0.00 in0.0 mm 0.00 in0.0 mm 0.02 in0.5 mm
11:35 AM 52.6°F11.4°C 45.3°F7.4°C 76% 14.0 mph N22.5 kmh N 14.0 mph22.5 kmh 30.16 in1021.3 mb 0.00 in0.0 mm 0.00 in0.0 mm 0.02 in0.5 mm
11:36 AM 52.8°F11.6°C 45.5°F7.5°C 76% 14.0 mph N22.5 kmh N 16.0 mph25.7 kmh 30.15 in1021.0 mb 0.00 in0.0 mm 0.00 in0.0 mm 0.02 in0.5 mm
11:37 AM 52.9°F11.6°C 45.2°F7.3°C 75% 15.0 mph N24.1 kmh N 16.0 mph25.7 kmh 30.16 in1021.3 mb 0.00 in0.0 mm 0.00 in0.0 mm 0.02 in0.5 mm
11:38 AM 52.9°F11.6°C 44.9°F7.2°C 74% 15.0 mph N24.1 kmh N 17.0 mph27.4 kmh 30.15 in1021.0 mb 0.00 in0.0 mm 0.00 in0.0 mm 0.02 in0.5 mm
11:39 AM 52.9°F11.6°C 44.9°F7.2°C 74% 11.0 mph N17.7 kmh N 17.0 mph27.4 kmh 30.15 in1021.0 mb 0.00 in0.0 mm 0.00 in0.0 mm 0.02 in0.5 mm
11:40 AM 52.9°F11.6°C 44.5°F6.9°C 73% 11.0 mph NNE17.7 kmh NNE 17.0 mph27.4 kmh 30.15 in1021.0 mb 0.00 in0.0 mm 0.00 in0.0 mm 0.02 in0.5 mm
11:41 AM 53.0°F11.7°C 45.0°F7.2°C 74% 13.0 mph NNE20.9 kmh NNE 17.0 mph27.4 kmh 30.15 in1021.0 mb 0.00 in0.0 mm 0.00 in0.0 mm 0.02 in0.5 mm
11:42 AM 53.1°F11.7°C 45.0°F7.2°C 74% 14.0 mph NNE22.5 kmh NNE 17.0 mph27.4 kmh 30.15 in1021.0 mb 0.00 in0.0 mm 0.00 in0.0 mm 0.02 in0.5 mm
11:43 AM 53.2°F11.8°C 45.1°F7.3°C 74% 16.0 mph NNE25.7 kmh NNE 17.0 mph27.4 kmh 30.16 in1021.3 mb 0.00 in0.0 mm 0.00 in0.0 mm 0.02 in0.5 mm
11:44 AM 53.2°F11.8°C 44.4°F6.9°C 72% 14.0 mph NE22.5 kmh NE 17.0 mph27.4 kmh 30.15 in1021.0 mb 0.00 in0.0 mm 0.00 in0.0 mm 0.02 in0.5 mm
11:45 AM 53.1°F11.7°C 44.3°F6.8°C 72% 10.0 mph NE16.1 kmh NE 17.0 mph27.4 kmh 30.15 in1021.0 mb 0.00 in0.0 mm 0.00 in0.0 mm 0.02 in0.5 mm
11:46 AM 53.1°F11.7°C 44.7°F7.1°C 73% 13.0 mph NE20.9 kmh NE 17.0 mph27.4 kmh 30.16 in1021.3 mb 0.00 in0.0 mm 0.00 in0.0 mm 0.02 in0.5 mm
11:47 AM 53.1°F11.7°C 44.0°F6.7°C 71% 12.0 mph NE19.3 kmh NE 17.0 mph27.4 kmh 30.15 in1021.0 mb 0.00 in0.0 mm 0.00 in0.0 mm 0.02 in0.5 mm
11:48 AM 53.2°F11.8°C 44.4°F6.9°C 72% 10.0 mph NE16.1 kmh NE 17.0 mph27.4 kmh 30.16 in1021.3 mb 0.00 in0.0 mm 0.00 in0.0 mm 0.02 in0.5 mm
11:49 AM 53.3°F11.8°C 45.2°F7.3°C 74% 15.0 mph NNE24.1 kmh NNE 17.0 mph27.4 kmh 30.16 in1021.3 mb 0.00 in0.0 mm 0.00 in0.0 mm 0.02 in0.5 mm
11:50 AM 53.6°F12.0°C 46.2°F7.9°C 76% 13.0 mph NNE20.9 kmh NNE 17.0 mph27.4 kmh 30.16 in1021.3 mb 0.00 in0.0 mm 0.00 in0.0 mm 0.02 in0.5 mm
11:51 AM 53.8°F12.1°C 46.4°F8.0°C 76% 15.0 mph N24.1 kmh N 17.0 mph27.4 kmh 30.16 in1021.3 mb 0.00 in0.0 mm 0.00 in0.0 mm 0.02 in0.5 mm
11:52 AM 53.9°F12.2°C 44.7°F7.1°C 71% 9.0 mph NNE14.5 kmh NNE 17.0 mph27.4 kmh 30.16 in1021.3 mb 0.00 in0.0 mm 0.00 in0.0 mm 0.02 in0.5 mm
11:53 AM 53.9°F12.2°C 45.1°F7.3°C 72% 11.0 mph NNE17.7 kmh NNE 17.0 mph27.4 kmh 30.16 in1021.3 mb 0.00 in0.0 mm 0.00 in0.0 mm 0.02 in0.5 mm
11:54 AM 53.9°F12.2°C 45.1°F7.3°C 72% 20.0 mph NNE32.2 kmh NNE 20.0 mph32.2 kmh 30.16 in1021.3 mb 0.00 in0.0 mm 0.00 in0.0 mm 0.02 in0.5 mm
11:55 AM 54.0°F12.2°C 45.6°F7.6°C 73% 8.0 mph N12.9 kmh N 20.0 mph32.2 kmh 30.16 in1021.3 mb 0.00 in0.0 mm 0.00 in0.0 mm 0.02 in0.5 mm
11:56 AM 54.3°F12.4°C 46.9°F8.3°C 76% 14.0 mph N22.5 kmh N 20.0 mph32.2 kmh 30.16 in1021.3 mb 0.00 in0.0 mm 0.00 in0.0 mm 0.02 in0.5 mm
11:57 AM 54.5°F12.5°C 47.1°F8.4°C 76% 8.0 mph NNE12.9 kmh NNE 20.0 mph32.2 kmh 30.16 in1021.3 mb 0.00 in0.0 mm 0.00 in0.0 mm 0.02 in0.5 mm
11:58 AM 54.3°F12.4°C 44.4°F6.9°C 69% 8.0 mph NE12.9 kmh NE 20.0 mph32.2 kmh 30.15 in1021.0 mb 0.00 in0.0 mm 0.00 in0.0 mm 0.02 in0.5 mm
11:59 AM 54.1°F12.3°C 44.6°F7.0°C 70% 15.0 mph NNE24.1 kmh NNE 20.0 mph32.2 kmh 30.16 in1021.3 mb 0.00 in0.0 mm 0.00 in0.0 mm 0.02 in0.5 mm
12:00 PM 54.3°F12.4°C 46.2°F7.9°C 74% 10.0 mph N16.1 kmh N 14.0 mph22.5 kmh 30.16 in1021.3 mb 0.00 in0.0 mm 0.00 in0.0 mm 0.02 in0.5 mm
12:01 PM 54.4°F12.4°C 46.7°F8.2°C 75% 11.0 mph N17.7 kmh N 14.0 mph22.5 kmh 30.15 in1021.0 mb 0.00 in0.0 mm 0.00 in0.0 mm 0.02 in0.5 mm
12:02 PM 54.5°F12.5°C 46.4°F8.0°C 74% 8.0 mph NNE12.9 kmh NNE 14.0 mph22.5 kmh 30.16 in1021.3 mb 0.00 in0.0 mm 0.00 in0.0 mm 0.02 in0.5 mm
12:03 PM 54.5°F12.5°C 45.3°F7.4°C 71% 12.0 mph N19.3 kmh N 14.0 mph22.5 kmh 30.15 in1021.0 mb 0.00 in0.0 mm 0.00 in0.0 mm 0.02 in0.5 mm
12:04 PM 54.5°F12.5°C 44.6°F7.0°C 69% 13.0 mph N20.9 kmh N 14.0 mph22.5 kmh 30.15 in1021.0 mb 0.00 in0.0 mm 0.00 in0.0 mm 0.02 in0.5 mm
12:05 PM 54.5°F12.5°C 46.0°F7.8°C 73% 8.0 mph NNE12.9 kmh NNE 17.0 mph27.4 kmh 30.15 in1021.0 mb 0.00 in0.0 mm 0.00 in0.0 mm 0.02 in0.5 mm
12:06 PM 54.6°F12.6°C 45.8°F7.7°C 72% 16.0 mph N25.7 kmh N 17.0 mph27.4 kmh 30.15 in1021.0 mb 0.00 in0.0 mm 0.00 in0.0 mm 0.02 in0.5 mm
12:07 PM 54.7°F12.6°C 46.2°F7.9°C 73% 11.0 mph N17.7 kmh N 19.0 mph30.6 kmh 30.15 in1021.0 mb 0.00 in0.0 mm 0.00 in0.0 mm 0.02 in0.5 mm
12:08 PM 54.8°F12.7°C 46.3°F7.9°C 73% 13.0 mph NE20.9 kmh NE 19.0 mph30.6 kmh 30.15 in1021.0 mb 0.00 in0.0 mm 0.00 in0.0 mm 0.02 in0.5 mm
12:09 PM 54.9°F12.7°C 46.1°F7.8°C 72% 15.0 mph NE24.1 kmh NE 19.0 mph30.6 kmh 30.15 in1021.0 mb 0.00 in0.0 mm 0.00 in0.0 mm 0.02 in0.5 mm
12:10 PM 55.0°F12.8°C 44.7°F7.1°C 68% 12.0 mph NE19.3 kmh NE 19.0 mph30.6 kmh 30.15 in1021.0 mb 0.00 in0.0 mm 0.00 in0.0 mm 0.02 in0.5 mm
12:11 PM 54.9°F12.7°C 43.8°F6.6°C 66% 11.0 mph NE17.7 kmh NE 19.0 mph30.6 kmh 30.15 in1021.0 mb 0.00 in0.0 mm 0.00 in0.0 mm 0.02 in0.5 mm
12:12 PM 54.9°F12.7°C 44.2°F6.8°C 67% 10.0 mph NNE16.1 kmh NNE 19.0 mph30.6 kmh 30.15 in1021.0 mb 0.00 in0.0 mm 0.00 in0.0 mm 0.02 in0.5 mm
12:13 PM 55.1°F12.8°C 45.9°F7.7°C 71% 10.0 mph N16.1 kmh N 19.0 mph30.6 kmh 30.15 in1021.0 mb 0.00 in0.0 mm 0.00 in0.0 mm 0.02 in0.5 mm
12:14 PM 55.3°F12.9°C 46.4°F8.0°C 72% 15.0 mph N24.1 kmh N 19.0 mph30.6 kmh 30.15 in1021.0 mb 0.00 in0.0 mm 0.00 in0.0 mm 0.02 in0.5 mm
12:15 PM 55.3°F12.9°C 45.3°F7.4°C 69% 9.0 mph NNE14.5 kmh NNE 19.0 mph30.6 kmh 30.15 in1021.0 mb 0.00 in0.0 mm 0.00 in0.0 mm 0.02 in0.5 mm
12:16 PM 55.3°F12.9°C 46.1°F7.8°C 71% 14.0 mph NNE22.5 kmh NNE 19.0 mph30.6 kmh 30.15 in1021.0 mb 0.00 in0.0 mm 0.00 in0.0 mm 0.02 in0.5 mm
12:17 PM 55.3°F12.9°C 46.1°F7.8°C 71% 11.0 mph NE17.7 kmh NE 19.0 mph30.6 kmh 30.15 in1021.0 mb 0.00 in0.0 mm 0.00 in0.0 mm 0.02 in0.5 mm
12:18 PM 55.4°F13.0°C 45.4°F7.4°C 69% 12.0 mph N19.3 kmh N 19.0 mph30.6 kmh 30.15 in1021.0 mb 0.00 in0.0 mm 0.00 in0.0 mm 0.02 in0.5 mm
12:19 PM 55.4°F13.0°C 45.4°F7.4°C 69% 13.0 mph N20.9 kmh N 19.0 mph30.6 kmh 30.14 in1020.7 mb 0.00 in0.0 mm 0.00 in0.0 mm 0.02 in0.5 mm
12:20 PM 55.4°F13.0°C 45.0°F7.2°C 68% 13.0 mph NE20.9 kmh NE 20.0 mph32.2 kmh 30.15 in1021.0 mb 0.00 in0.0 mm 0.00 in0.0 mm 0.02 in0.5 mm
12:21 PM 55.4°F13.0°C 45.4°F7.4°C 69% 12.0 mph NE19.3 kmh NE 20.0 mph32.2 kmh 30.15 in1021.0 mb 0.00 in0.0 mm 0.00 in0.0 mm 0.02 in0.5 mm
12:22 PM 55.4°F13.0°C 45.4°F7.4°C 69% 13.0 mph NNE20.9 kmh NNE 20.0 mph32.2 kmh 30.15 in1021.0 mb 0.00 in0.0 mm 0.00 in0.0 mm 0.02 in0.5 mm
12:23 PM 55.4°F13.0°C 45.0°F7.2°C 68% 10.0 mph NE16.1 kmh NE 20.0 mph32.2 kmh 30.15 in1021.0 mb 0.00 in0.0 mm 0.00 in0.0 mm 0.02 in0.5 mm
12:24 PM 55.4°F13.0°C 45.4°F7.4°C 69% 13.0 mph N20.9 kmh N 20.0 mph32.2 kmh 30.15 in1021.0 mb 0.00 in0.0 mm 0.00 in0.0 mm 0.02 in0.5 mm
12:25 PM 55.5°F13.1°C 46.6°F8.1°C 72% 11.0 mph N17.7 kmh N 20.0 mph32.2 kmh 30.15 in1021.0 mb 0.00 in0.0 mm 0.00 in0.0 mm 0.02 in0.5 mm
12:26 PM 55.6°F13.1°C 44.8°F7.1°C 67% 10.0 mph NNE16.1 kmh NNE 20.0 mph32.2 kmh 30.15 in1021.0 mb 0.00 in0.0 mm 0.00 in0.0 mm 0.02 in0.5 mm
12:27 PM 55.5°F13.1°C 44.3°F6.8°C 66% 11.0 mph N17.7 kmh N 20.0 mph32.2 kmh 30.15 in1021.0 mb 0.00 in0.0 mm 0.00 in0.0 mm 0.02 in0.5 mm
12:28 PM 55.5°F13.1°C 44.7°F7.1°C 67% 17.0 mph N27.4 kmh N 20.0 mph32.2 kmh 30.15 in1021.0 mb 0.00 in0.0 mm 0.00 in0.0 mm 0.02 in0.5 mm
12:29 PM 55.4°F13.0°C 44.2°F6.8°C 66% 15.0 mph N24.1 kmh N 20.0 mph32.2 kmh 30.15 in1021.0 mb 0.00 in0.0 mm 0.00 in0.0 mm 0.02 in0.5 mm
12:30 PM 55.5°F13.1°C 45.9°F7.7°C 70% 12.0 mph NNE19.3 kmh NNE 13.0 mph20.9 kmh 30.15 in1021.0 mb 0.00 in0.0 mm 0.00 in0.0 mm 0.02 in0.5 mm
12:31 PM 55.6°F13.1°C 44.8°F7.1°C 67% 14.0 mph NE22.5 kmh NE 16.0 mph25.7 kmh 30.15 in1021.0 mb 0.00 in0.0 mm 0.00 in0.0 mm 0.02 in0.5 mm
12:32 PM 55.6°F13.1°C 44.4°F6.9°C 66% 16.0 mph NE25.7 kmh NE 19.0 mph30.6 kmh 30.15 in1021.0 mb 0.00 in0.0 mm 0.00 in0.0 mm 0.02 in0.5 mm
12:33 PM 55.6°F13.1°C 44.0°F6.7°C 65% 15.0 mph NE24.1 kmh NE 19.0 mph30.6 kmh 30.15 in1021.0 mb 0.00 in0.0 mm 0.00 in0.0 mm 0.02 in0.5 mm
12:34 PM 55.5°F13.1°C 43.9°F6.6°C 65% 11.0 mph NNE17.7 kmh NNE 19.0 mph30.6 kmh 30.15 in1021.0 mb 0.00 in0.0 mm 0.00 in0.0 mm 0.02 in0.5 mm
12:35 PM 55.6°F13.1°C 44.8°F7.1°C 67% 14.0 mph NE22.5 kmh NE 19.0 mph30.6 kmh 30.15 in1021.0 mb 0.00 in0.0 mm 0.00 in0.0 mm 0.02 in0.5 mm
12:36 PM 55.6°F13.1°C 44.0°F6.7°C 65% 11.0 mph N17.7 kmh N 19.0 mph30.6 kmh 30.15 in1021.0 mb 0.00 in0.0 mm 0.00 in0.0 mm 0.02 in0.5 mm
12:37 PM 55.6°F13.1°C 44.4°F6.9°C 66% 12.0 mph NNE19.3 kmh NNE 19.0 mph30.6 kmh 30.15 in1021.0 mb 0.00 in0.0 mm 0.00 in0.0 mm 0.02 in0.5 mm
12:38 PM 55.5°F13.1°C 43.9°F6.6°C 65% 10.0 mph NNE16.1 kmh NNE 19.0 mph30.6 kmh 30.15 in1021.0 mb 0.00 in0.0 mm 0.00 in0.0 mm 0.02 in0.5 mm
12:39 PM 55.5°F13.1°C 43.9°F6.6°C 65% 13.0 mph NE20.9 kmh NE 19.0 mph30.6 kmh 30.15 in1021.0 mb 0.00 in0.0 mm 0.00 in0.0 mm 0.02 in0.5 mm
12:40 PM 55.5°F13.1°C 43.1°F6.2°C 63% 11.0 mph NNE17.7 kmh NNE 19.0 mph30.6 kmh 30.15 in1021.0 mb 0.00 in0.0 mm 0.00 in0.0 mm 0.02 in0.5 mm
12:41 PM 55.6°F13.1°C 45.2°F7.3°C 68% 12.0 mph N19.3 kmh N 19.0 mph30.6 kmh 30.15 in1021.0 mb 0.00 in0.0 mm 0.00 in0.0 mm 0.02 in0.5 mm
12:42 PM 55.6°F13.1°C 44.0°F6.7°C 65% 13.0 mph N20.9 kmh N 19.0 mph30.6 kmh 30.14 in1020.7 mb 0.00 in0.0 mm 0.00 in0.0 mm 0.02 in0.5 mm
12:43 PM 55.5°F13.1°C 43.9°F6.6°C 65% 15.0 mph N24.1 kmh N 19.0 mph30.6 kmh 30.15 in1021.0 mb 0.00 in0.0 mm 0.00 in0.0 mm 0.02 in0.5 mm
12:44 PM 55.5°F13.1°C 45.5°F7.5°C 69% 15.0 mph NNE24.1 kmh NNE 20.0 mph32.2 kmh 30.15 in1021.0 mb 0.00 in0.0 mm 0.00 in0.0 mm 0.02 in0.5 mm
12:45 PM 55.6°F13.1°C 44.8°F7.1°C 67% 16.0 mph N25.7 kmh N 20.0 mph32.2 kmh 30.14 in1020.7 mb 0.00 in0.0 mm 0.00 in0.0 mm 0.02 in0.5 mm
12:46 PM 55.6°F13.1°C 45.2°F7.3°C 68% 15.0 mph N24.1 kmh N 20.0 mph32.2 kmh 30.14 in1020.7 mb 0.00 in0.0 mm 0.00 in0.0 mm 0.02 in0.5 mm
12:47 PM 55.8°F13.2°C 46.2°F7.9°C 70% 11.0 mph N17.7 kmh N 20.0 mph32.2 kmh 30.15 in1021.0 mb 0.00 in0.0 mm 0.00 in0.0 mm 0.02 in0.5 mm
12:48 PM 55.9°F13.3°C 45.5°F7.5°C 68% 11.0 mph N17.7 kmh N 20.0 mph32.2 kmh 30.14 in1020.7 mb 0.00 in0.0 mm 0.00 in0.0 mm 0.02 in0.5 mm
12:49 PM 55.9°F13.3°C 45.1°F7.3°C 67% 17.0 mph N27.4 kmh N 20.0 mph32.2 kmh 30.14 in1020.7 mb 0.00 in0.0 mm 0.00 in0.0 mm 0.02 in0.5 mm
12:50 PM 56.0°F13.3°C 45.2°F7.3°C 67% 13.0 mph NNE20.9 kmh NNE 20.0 mph32.2 kmh 30.14 in1020.7 mb 0.00 in0.0 mm 0.00 in0.0 mm 0.02 in0.5 mm
12:51 PM 56.0°F13.3°C 45.6°F7.6°C 68% 14.0 mph N22.5 kmh N 20.0 mph32.2 kmh 30.15 in1021.0 mb 0.00 in0.0 mm 0.00 in0.0 mm 0.02 in0.5 mm
12:52 PM 56.0°F13.3°C 45.2°F7.3°C 67% 14.0 mph N22.5 kmh N 20.0 mph32.2 kmh 30.15 in1021.0 mb 0.00 in0.0 mm 0.00 in0.0 mm 0.02 in0.5 mm
12:53 PM 56.0°F13.3°C 44.4°F6.9°C 65% 15.0 mph N24.1 kmh N 20.0 mph32.2 kmh 30.14 in1020.7 mb 0.00 in0.0 mm 0.00 in0.0 mm 0.02 in0.5 mm
12:54 PM 56.0°F13.3°C 44.4°F6.9°C 65% 14.0 mph N22.5 kmh N 20.0 mph32.2 kmh 30.14 in1020.7 mb 0.00 in0.0 mm 0.00 in0.0 mm 0.02 in0.5 mm
12:55 PM 55.9°F13.3°C 43.9°F6.6°C 64% 11.0 mph N17.7 kmh N 20.0 mph32.2 kmh 30.14 in1020.7 mb 0.00 in0.0 mm 0.00 in0.0 mm 0.02 in0.5 mm
12:56 PM 56.0°F13.3°C 45.2°F7.3°C 67% 13.0 mph N20.9 kmh N 20.0 mph32.2 kmh 30.14 in1020.7 mb 0.00 in0.0 mm 0.00 in0.0 mm 0.02 in0.5 mm
12:57 PM 56.0°F13.3°C 44.4°F6.9°C 65% 25.0 mph NE40.2 kmh NE 25.0 mph40.2 kmh 30.14 in1020.7 mb 0.00 in0.0 mm 0.00 in0.0 mm 0.02 in0.5 mm
12:58 PM 56.1°F13.4°C 44.9°F7.2°C 66% 17.0 mph NE27.4 kmh NE 25.0 mph40.2 kmh 30.14 in1020.7 mb 0.00 in0.0 mm 0.00 in0.0 mm 0.02 in0.5 mm
12:59 PM 56.2°F13.4°C 44.6°F7.0°C 65% 14.0 mph NE22.5 kmh NE 25.0 mph40.2 kmh 30.15 in1021.0 mb 0.00 in0.0 mm 0.00 in0.0 mm 0.02 in0.5 mm
01:00 PM 56.1°F13.4°C 43.3°F6.3°C 62% 11.0 mph NE17.7 kmh NE 11.0 mph17.7 kmh 30.14 in1020.7 mb 0.00 in0.0 mm 0.00 in0.0 mm 0.02 in0.5 mm
01:01 PM 56.0°F13.3°C 41.9°F5.5°C 59% 11.0 mph NNE17.7 kmh NNE 14.0 mph22.5 kmh 30.14 in1020.7 mb 0.00 in0.0 mm 0.00 in0.0 mm 0.02 in0.5 mm
01:02 PM 55.8°F13.2°C 43.0°F6.1°C 62% 8.0 mph NNE12.9 kmh NNE 14.0 mph22.5 kmh 30.14 in1020.7 mb 0.00 in0.0 mm 0.00 in0.0 mm 0.02 in0.5 mm
01:03 PM 55.7°F13.2°C 43.3°F6.3°C 63% 9.0 mph N14.5 kmh N 14.0 mph22.5 kmh 30.14 in1020.7 mb 0.00 in0.0 mm 0.00 in0.0 mm 0.02 in0.5 mm
01:04 PM 55.9°F13.3°C 45.5°F7.5°C 68% 10.0 mph N16.1 kmh N 14.0 mph22.5 kmh 30.14 in1020.7 mb 0.00 in0.0 mm 0.00 in0.0 mm 0.02 in0.5 mm
01:05 PM 56.1°F13.4°C 44.9°F7.2°C 66% 11.0 mph N17.7 kmh N 16.0 mph25.7 kmh 30.14 in1020.7 mb 0.00 in0.0 mm 0.00 in0.0 mm 0.02 in0.5 mm
01:06 PM 56.3°F13.5°C 45.9°F7.7°C 68% 10.0 mph NE16.1 kmh NE 16.0 mph25.7 kmh 30.14 in1020.7 mb 0.00 in0.0 mm 0.00 in0.0 mm 0.02 in0.5 mm
01:07 PM 56.5°F13.6°C 44.9°F7.2°C 65% 8.0 mph NNE12.9 kmh NNE 16.0 mph25.7 kmh 30.14 in1020.7 mb 0.00 in0.0 mm 0.00 in0.0 mm 0.02 in0.5 mm
01:08 PM 56.7°F13.7°C 45.5°F7.5°C 66% 14.0 mph N22.5 kmh N 16.0 mph25.7 kmh 30.14 in1020.7 mb 0.00 in0.0 mm 0.00 in0.0 mm 0.02 in0.5 mm
01:09 PM 56.8°F13.8°C 46.8°F8.2°C 69% 10.0 mph NNE16.1 kmh NNE 16.0 mph25.7 kmh 30.14 in1020.7 mb 0.00 in0.0 mm 0.00 in0.0 mm 0.02 in0.5 mm
01:10 PM 56.8°F13.8°C 44.4°F6.9°C 63% 9.0 mph N14.5 kmh N 16.0 mph25.7 kmh 30.14 in1020.7 mb 0.00 in0.0 mm 0.00 in0.0 mm 0.02 in0.5 mm
01:11 PM 56.9°F13.8°C 45.3°F7.4°C 65% 12.0 mph NE19.3 kmh NE 16.0 mph25.7 kmh 30.14 in1020.7 mb 0.00 in0.0 mm 0.00 in0.0 mm 0.02 in0.5 mm
01:12 PM 56.7°F13.7°C 43.4°F6.3°C 61% 7.0 mph NE11.3 kmh NE 16.0 mph25.7 kmh 30.14 in1020.7 mb 0.00 in0.0 mm 0.00 in0.0 mm 0.02 in0.5 mm
01:13 PM 56.4°F13.6°C 43.6°F6.4°C 62% 7.0 mph NE11.3 kmh NE 16.0 mph25.7 kmh 30.14 in1020.7 mb 0.00 in0.0 mm 0.00 in0.0 mm 0.02 in0.5 mm
01:14 PM 56.2°F13.4°C 43.0°F6.1°C 61% 7.0 mph NNE11.3 kmh NNE 16.0 mph25.7 kmh 30.14 in1020.7 mb 0.00 in0.0 mm 0.00 in0.0 mm 0.02 in0.5 mm
01:15 PM 56.2°F13.4°C 43.8°F6.6°C 63% 8.0 mph N12.9 kmh N 16.0 mph25.7 kmh 30.14 in1020.7 mb 0.00 in0.0 mm 0.00 in0.0 mm 0.02 in0.5 mm
01:16 PM 56.2°F13.4°C 44.2°F6.8°C 64% 12.0 mph N19.3 kmh N 16.0 mph25.7 kmh 30.14 in1020.7 mb 0.00 in0.0 mm 0.00 in0.0 mm 0.02 in0.5 mm
01:17 PM 56.4°F13.6°C 44.8°F7.1°C 65% 17.0 mph N27.4 kmh N 17.0 mph27.4 kmh 30.14 in1020.7 mb 0.00 in0.0 mm 0.00 in0.0 mm 0.02 in0.5 mm
01:18 PM 56.5°F13.6°C 44.9°F7.2°C 65% 12.0 mph N19.3 kmh N 18.0 mph29.0 kmh 30.14 in1020.7 mb 0.00 in0.0 mm 0.00 in0.0 mm 0.02 in0.5 mm
01:19 PM 56.6°F13.7°C 45.4°F7.4°C 66% 14.0 mph N22.5 kmh N 18.0 mph29.0 kmh 30.14 in1020.7 mb 0.00 in0.0 mm 0.00 in0.0 mm 0.02 in0.5 mm
01:20 PM 56.7°F13.7°C 44.3°F6.8°C 63% 12.0 mph N19.3 kmh N 18.0 mph29.0 kmh 30.14 in1020.7 mb 0.00 in0.0 mm 0.00 in0.0 mm 0.02 in0.5 mm
01:21 PM 56.5°F13.6°C 43.2°F6.2°C 61% 10.0 mph N16.1 kmh N 18.0 mph29.0 kmh 30.14 in1020.7 mb 0.00 in0.0 mm 0.00 in0.0 mm 0.02 in0.5 mm
01:22 PM 56.2°F13.4°C 42.5°F5.8°C 60% 13.0 mph N20.9 kmh N 18.0 mph29.0 kmh 30.14 in1020.7 mb 0.00 in0.0 mm 0.00 in0.0 mm 0.02 in0.5 mm
01:23 PM 56.0°F13.3°C 43.2°F6.2°C 62% 12.0 mph N19.3 kmh N 18.0 mph29.0 kmh 30.14 in1020.7 mb 0.00 in0.0 mm 0.00 in0.0 mm 0.02 in0.5 mm
01:24 PM 55.9°F13.3°C 43.1°F6.2°C 62% 13.0 mph N20.9 kmh N 18.0 mph29.0 kmh 30.14 in1020.7 mb 0.00 in0.0 mm 0.00 in0.0 mm 0.02 in0.5 mm
01:25 PM 55.8°F13.2°C 43.4°F6.3°C 63% 12.0 mph NNE19.3 kmh NNE 18.0 mph29.0 kmh 30.14 in1020.7 mb 0.00 in0.0 mm 0.00 in0.0 mm 0.02 in0.5 mm
01:26 PM 55.8°F13.2°C 41.7°F5.4°C 59% 11.0 mph NE17.7 kmh NE 18.0 mph29.0 kmh 30.14 in1020.7 mb 0.00 in0.0 mm 0.00 in0.0 mm 0.02 in0.5 mm
01:27 PM 55.8°F13.2°C 42.6°F5.9°C 61% 10.0 mph N16.1 kmh N 18.0 mph29.0 kmh 30.14 in1020.7 mb 0.00 in0.0 mm 0.00 in0.0 mm 0.02 in0.5 mm
01:28 PM 56.0°F13.3°C 44.0°F6.7°C 64% 16.0 mph N25.7 kmh N 18.0 mph29.0 kmh 30.14 in1020.7 mb 0.00 in0.0 mm 0.00 in0.0 mm 0.02 in0.5 mm
01:29 PM 56.2°F13.4°C 44.6°F7.0°C 65% 12.0 mph N19.3 kmh N 20.0 mph32.2 kmh 30.14 in1020.7 mb 0.00 in0.0 mm 0.00 in0.0 mm 0.02 in0.5 mm
01:30 PM 56.4°F13.6°C 45.6°F7.6°C 67% 8.0 mph N12.9 kmh N 12.0 mph19.3 kmh 30.14 in1020.7 mb 0.00 in0.0 mm 0.00 in0.0 mm 0.02 in0.5 mm
01:31 PM 56.4°F13.6°C 44.0°F6.7°C 63% 11.0 mph NNE17.7 kmh NNE 16.0 mph25.7 kmh 30.14 in1020.7 mb 0.00 in0.0 mm 0.00 in0.0 mm 0.02 in0.5 mm
01:32 PM 56.5°F13.6°C 44.5°F6.9°C 64% 17.0 mph N27.4 kmh N 17.0 mph27.4 kmh 30.14 in1020.7 mb 0.00 in0.0 mm 0.00 in0.0 mm 0.02 in0.5 mm
01:33 PM 56.6°F13.7°C 44.2°F6.8°C 63% 17.0 mph NNE27.4 kmh NNE 20.0 mph32.2 kmh 30.13 in1020.3 mb 0.00 in0.0 mm 0.00 in0.0 mm 0.02 in0.5 mm
01:34 PM 56.7°F13.7°C 45.9°F7.7°C 67% 13.0 mph NNE20.9 kmh NNE 20.0 mph32.2 kmh 30.14 in1020.7 mb 0.00 in0.0 mm 0.00 in0.0 mm 0.02 in0.5 mm
01:35 PM 56.7°F13.7°C 43.8°F6.6°C 62% 13.0 mph NNE20.9 kmh NNE 20.0 mph32.2 kmh 30.14 in1020.7 mb 0.00 in0.0 mm 0.00 in0.0 mm 0.02 in0.5 mm
01:36 PM 56.6°F13.7°C 42.9°F6.1°C 60% 9.0 mph NNE14.5 kmh NNE 20.0 mph32.2 kmh 30.14 in1020.7 mb 0.00 in0.0 mm 0.00 in0.0 mm 0.02 in0.5 mm
01:37 PM 56.6°F13.7°C 43.8°F6.6°C 62% 9.0 mph N14.5 kmh N 20.0 mph32.2 kmh 30.13 in1020.3 mb 0.00 in0.0 mm 0.00 in0.0 mm 0.02 in0.5 mm
01:38 PM 56.6°F13.7°C 43.3°F6.3°C 61% 9.0 mph N14.5 kmh N 20.0 mph32.2 kmh 30.13 in1020.3 mb 0.00 in0.0 mm 0.00 in0.0 mm 0.02 in0.5 mm
01:39 PM 56.6°F13.7°C 43.3°F6.3°C 61% 11.0 mph NNE17.7 kmh NNE 20.0 mph32.2 kmh 30.13 in1020.3 mb 0.00 in0.0 mm 0.00 in0.0 mm 0.02 in0.5 mm
01:40 PM 56.8°F13.8°C 45.2°F7.3°C 65% 11.0 mph NNE17.7 kmh NNE 20.0 mph32.2 kmh 30.13 in1020.3 mb 0.00 in0.0 mm 0.00 in0.0 mm 0.02 in0.5 mm
01:41 PM 57.0°F13.9°C 45.0°F7.2°C 64% 10.0 mph N16.1 kmh N 20.0 mph32.2 kmh 30.13 in1020.3 mb 0.00 in0.0 mm 0.00 in0.0 mm 0.02 in0.5 mm
01:42 PM 56.8°F13.8°C 41.8°F5.4°C 57% 12.0 mph N19.3 kmh N 20.0 mph32.2 kmh 30.14 in1020.7 mb 0.00 in0.0 mm 0.00 in0.0 mm 0.02 in0.5 mm
01:43 PM 56.8°F13.8°C 43.1°F6.2°C 60% 11.0 mph N17.7 kmh N 20.0 mph32.2 kmh 30.14 in1020.7 mb 0.00 in0.0 mm 0.00 in0.0 mm 0.02 in0.5 mm
01:44 PM 56.8°F13.8°C 43.1°F6.2°C 60% 9.0 mph N14.5 kmh N 20.0 mph32.2 kmh 30.13 in1020.3 mb 0.00 in0.0 mm 0.00 in0.0 mm 0.02 in0.5 mm
01:45 PM 56.9°F13.8°C 44.5°F6.9°C 63% 14.0 mph N22.5 kmh N 20.0 mph32.2 kmh 30.13 in1020.3 mb 0.00 in0.0 mm 0.00 in0.0 mm 0.02 in0.5 mm
01:46 PM 57.0°F13.9°C 44.1°F6.7°C 62% 18.0 mph N29.0 kmh N 20.0 mph32.2 kmh 30.13 in1020.3 mb 0.00 in0.0 mm 0.00 in0.0 mm 0.02 in0.5 mm
01:47 PM 56.9°F13.8°C 43.6°F6.4°C 61% 15.0 mph N24.1 kmh N 20.0 mph32.2 kmh 30.13 in1020.3 mb 0.00 in0.0 mm 0.00 in0.0 mm 0.02 in0.5 mm
01:48 PM 56.9°F13.8°C 43.2°F6.2°C 60% 14.0 mph N22.5 kmh N 20.0 mph32.2 kmh 30.13 in1020.3 mb 0.00 in0.0 mm 0.00 in0.0 mm 0.02 in0.5 mm
01:49 PM 56.9°F13.8°C 43.2°F6.2°C 60% 14.0 mph N22.5 kmh N 20.0 mph32.2 kmh 30.13 in1020.3 mb 0.00 in0.0 mm 0.00 in0.0 mm 0.02 in0.5 mm
01:50 PM 56.8°F13.8°C 43.1°F6.2°C 60% 14.0 mph NNE22.5 kmh NNE 20.0 mph32.2 kmh 30.13 in1020.3 mb 0.00 in0.0 mm 0.00 in0.0 mm 0.02 in0.5 mm
01:51 PM 56.8°F13.8°C 44.4°F6.9°C 63% 15.0 mph NNE24.1 kmh NNE 20.0 mph32.2 kmh 30.13 in1020.3 mb 0.00 in0.0 mm 0.00 in0.0 mm 0.02 in0.5 mm
01:52 PM 56.9°F13.8°C 43.2°F6.2°C 60% 6.0 mph NE9.7 kmh NE 20.0 mph32.2 kmh 30.14 in1020.7 mb 0.00 in0.0 mm 0.00 in0.0 mm 0.02 in0.5 mm
01:53 PM 56.9°F13.8°C 43.2°F6.2°C 60% 10.0 mph NE16.1 kmh NE 20.0 mph32.2 kmh 30.13 in1020.3 mb 0.00 in0.0 mm 0.00 in0.0 mm 0.02 in0.5 mm
01:54 PM 56.9°F13.8°C 43.6°F6.4°C 61% 10.0 mph ENE16.1 kmh ENE 20.0 mph32.2 kmh 30.13 in1020.3 mb 0.00 in0.0 mm 0.00 in0.0 mm 0.02 in0.5 mm
01:55 PM 56.8°F13.8°C 42.6°F5.9°C 59% 11.0 mph NE17.7 kmh NE 20.0 mph32.2 kmh 30.13 in1020.3 mb 0.00 in0.0 mm 0.00 in0.0 mm 0.02 in0.5 mm
01:56 PM 57.1°F13.9°C 45.5°F7.5°C 65% 12.0 mph N19.3 kmh N 20.0 mph32.2 kmh 30.13 in1020.3 mb 0.00 in0.0 mm 0.00 in0.0 mm 0.02 in0.5 mm
01:57 PM 57.3°F14.1°C 45.7°F7.6°C 65% 12.0 mph NNW19.3 kmh NNW 20.0 mph32.2 kmh 30.13 in1020.3 mb 0.00 in0.0 mm 0.00 in0.0 mm 0.02 in0.5 mm
01:58 PM 57.5°F14.2°C 45.0°F7.2°C 63% 14.0 mph N22.5 kmh N 20.0 mph32.2 kmh 30.13 in1020.3 mb 0.00 in0.0 mm 0.00 in0.0 mm 0.02 in0.5 mm
01:59 PM 57.4°F14.1°C 43.2°F6.2°C 59% 8.0 mph N12.9 kmh N 20.0 mph32.2 kmh 30.13 in1020.3 mb 0.00 in0.0 mm 0.00 in0.0 mm 0.02 in0.5 mm
02:00 PM 57.0°F13.9°C 41.9°F5.5°C 57% 5.0 mph N8.0 kmh N 6.0 mph9.7 kmh 30.13 in1020.3 mb 0.00 in0.0 mm 0.00 in0.0 mm 0.02 in0.5 mm
02:01 PM 56.9°F13.8°C 43.2°F6.2°C 60% 12.0 mph N19.3 kmh N 13.0 mph20.9 kmh 30.13 in1020.3 mb 0.00 in0.0 mm 0.00 in0.0 mm 0.02 in0.5 mm
02:02 PM 57.0°F13.9°C 43.7°F6.5°C 61% 6.0 mph NE9.7 kmh NE 17.0 mph27.4 kmh 30.13 in1020.3 mb 0.00 in0.0 mm 0.00 in0.0 mm 0.02 in0.5 mm
02:03 PM 56.9°F13.8°C 41.8°F5.4°C 57% 11.0 mph NE17.7 kmh NE 17.0 mph27.4 kmh 30.13 in1020.3 mb 0.00 in0.0 mm 0.00 in0.0 mm 0.02 in0.5 mm
02:04 PM 57.1°F13.9°C 44.2°F6.8°C 62% 11.0 mph NNE17.7 kmh NNE 17.0 mph27.4 kmh 30.13 in1020.3 mb 0.00 in0.0 mm 0.00 in0.0 mm 0.02 in0.5 mm
02:05 PM 57.5°F14.2°C 46.2°F7.9°C 66% 14.0 mph N22.5 kmh N 17.0 mph27.4 kmh 30.13 in1020.3 mb 0.00 in0.0 mm 0.00 in0.0 mm 0.02 in0.5 mm
02:06 PM 57.7°F14.3°C 44.4°F6.9°C 61% 13.0 mph NE20.9 kmh NE 17.0 mph27.4 kmh 30.13 in1020.3 mb 0.00 in0.0 mm 0.00 in0.0 mm 0.02 in0.5 mm
02:07 PM 57.8°F14.3°C 44.9°F7.2°C 62% 11.0 mph NNE17.7 kmh NNE 17.0 mph27.4 kmh 30.13 in1020.3 mb 0.00 in0.0 mm 0.00 in0.0 mm 0.02 in0.5 mm
02:08 PM 57.7°F14.3°C 42.6°F5.9°C 57% 10.0 mph N16.1 kmh N 17.0 mph27.4 kmh 30.13 in1020.3 mb 0.00 in0.0 mm 0.00 in0.0 mm 0.02 in0.5 mm
02:09 PM 57.5°F14.2°C 41.9°F5.5°C 56% 9.0 mph N14.5 kmh N 17.0 mph27.4 kmh 30.13 in1020.3 mb 0.00 in0.0 mm 0.00 in0.0 mm 0.02 in0.5 mm
02:10 PM 57.3°F14.1°C 41.8°F5.4°C 56% 8.0 mph N12.9 kmh N 17.0 mph27.4 kmh 30.13 in1020.3 mb 0.00 in0.0 mm 0.00 in0.0 mm 0.02 in0.5 mm
02:11 PM 57.2°F14.0°C 42.6°F5.9°C 58% 9.0 mph N14.5 kmh N 17.0 mph27.4 kmh 30.13 in1020.3 mb 0.00 in0.0 mm 0.00 in0.0 mm 0.02 in0.5 mm
02:12 PM 57.1°F13.9°C 42.5°F5.8°C 58% 14.0 mph N22.5 kmh N 17.0 mph27.4 kmh 30.13 in1020.3 mb 0.00 in0.0 mm 0.00 in0.0 mm 0.02 in0.5 mm
02:13 PM 57.3°F14.1°C 42.7°F5.9°C 58% 15.0 mph N24.1 kmh N 18.0 mph29.0 kmh 30.13 in1020.3 mb 0.00 in0.0 mm 0.00 in0.0 mm 0.02 in0.5 mm
02:14 PM 57.5°F14.2°C 43.7°F6.5°C 60% 14.0 mph N22.5 kmh N 18.0 mph29.0 kmh 30.13 in1020.3 mb 0.00 in0.0 mm 0.00 in0.0 mm 0.02 in0.5 mm
02:15 PM 57.5°F14.2°C 43.3°F6.3°C 59% 8.0 mph N12.9 kmh N 18.0 mph29.0 kmh 30.13 in1020.3 mb 0.00 in0.0 mm 0.00 in0.0 mm 0.02 in0.5 mm
02:16 PM 57.6°F14.2°C 44.7°F7.1°C 62% 10.0 mph NNE16.1 kmh NNE 18.0 mph29.0 kmh 30.13 in1020.3 mb 0.00 in0.0 mm 0.00 in0.0 mm 0.02 in0.5 mm
02:17 PM 57.6°F14.2°C 43.0°F6.1°C 58% 14.0 mph N22.5 kmh N 18.0 mph29.0 kmh 30.13 in1020.3 mb 0.00 in0.0 mm 0.00 in0.0 mm 0.02 in0.5 mm
02:18 PM 57.8°F14.3°C 44.5°F6.9°C 61% 14.0 mph N22.5 kmh N 18.0 mph29.0 kmh 30.13 in1020.3 mb 0.00 in0.0 mm 0.00 in0.0 mm 0.02 in0.5 mm
02:19 PM 58.0°F14.4°C 44.6°F7.0°C 61% 10.0 mph NNE16.1 kmh NNE 18.0 mph29.0 kmh 30.13 in1020.3 mb 0.00 in0.0 mm 0.00 in0.0 mm 0.02 in0.5 mm
02:20 PM 58.2°F14.6°C 44.8°F7.1°C 61% 13.0 mph N20.9 kmh N 18.0 mph29.0 kmh 30.13 in1020.3 mb 0.00 in0.0 mm 0.00 in0.0 mm 0.02 in0.5 mm
02:21 PM 58.2°F14.6°C 43.5°F6.4°C 58% 11.0 mph N17.7 kmh N 18.0 mph29.0 kmh 30.13 in1020.3 mb 0.00 in0.0 mm 0.00 in0.0 mm 0.02 in0.5 mm
02:22 PM 58.0°F14.4°C 41.9°F5.5°C 55% 11.0 mph N17.7 kmh N 18.0 mph29.0 kmh 30.13 in1020.3 mb 0.00 in0.0 mm 0.00 in0.0 mm 0.02 in0.5 mm
02:23 PM 57.9°F14.4°C 44.1°F6.7°C 60% 13.0 mph N20.9 kmh N 18.0 mph29.0 kmh 30.13 in1020.3 mb 0.00 in0.0 mm 0.00 in0.0 mm 0.02 in0.5 mm
02:24 PM 57.9°F14.4°C 44.1°F6.7°C 60% 11.0 mph N17.7 kmh N 18.0 mph29.0 kmh 30.13 in1020.3 mb 0.00 in0.0 mm 0.00 in0.0 mm 0.02 in0.5 mm
02:25 PM 57.8°F14.3°C 42.2°F5.7°C 56% 9.0 mph N14.5 kmh N 18.0 mph29.0 kmh 30.13 in1020.3 mb 0.00 in0.0 mm 0.00 in0.0 mm 0.02 in0.5 mm
02:26 PM 58.0°F14.4°C 44.2°F6.8°C 60% 10.0 mph N16.1 kmh N 18.0 mph29.0 kmh 30.13 in1020.3 mb 0.00 in0.0 mm 0.00 in0.0 mm 0.02 in0.5 mm
02:27 PM 57.9°F14.4°C 42.8°F6.0°C 57% 8.0 mph N12.9 kmh N 18.0 mph29.0 kmh 30.13 in1020.3 mb 0.00 in0.0 mm 0.00 in0.0 mm 0.02 in0.5 mm
02:28 PM 57.8°F14.3°C 42.7°F5.9°C 57% 10.0 mph N16.1 kmh N 18.0 mph29.0 kmh 30.13 in1020.3 mb 0.00 in0.0 mm 0.00 in0.0 mm 0.02 in0.5 mm
02:29 PM 57.7°F14.3°C 42.1°F5.6°C 56% 12.0 mph NNE19.3 kmh NNE 18.0 mph29.0 kmh 30.13 in1020.3 mb 0.00 in0.0 mm 0.00 in0.0 mm 0.02 in0.5 mm
02:30 PM 57.8°F14.3°C 44.0°F6.7°C 60% 9.0 mph NNW14.5 kmh NNW 13.0 mph20.9 kmh 30.13 in1020.3 mb 0.00 in0.0 mm 0.00 in0.0 mm 0.02 in0.5 mm
02:31 PM 57.9°F14.4°C 43.7°F6.5°C 59% 6.0 mph NNW9.7 kmh NNW 13.0 mph20.9 kmh 30.12 in1020.0 mb 0.00 in0.0 mm 0.00 in0.0 mm 0.02 in0.5 mm
02:32 PM 58.0°F14.4°C 44.2°F6.8°C 60% 14.0 mph N22.5 kmh N 16.0 mph25.7 kmh 30.12 in1020.0 mb 0.00 in0.0 mm 0.00 in0.0 mm 0.02 in0.5 mm
02:33 PM 58.1°F14.5°C 44.3°F6.8°C 60% 11.0 mph N17.7 kmh N 17.0 mph27.4 kmh 30.12 in1020.0 mb 0.00 in0.0 mm 0.00 in0.0 mm 0.02 in0.5 mm
02:34 PM 58.2°F14.6°C 44.8°F7.1°C 61% 11.0 mph N17.7 kmh N 17.0 mph27.4 kmh 30.13 in1020.3 mb 0.00 in0.0 mm 0.00 in0.0 mm 0.02 in0.5 mm
02:35 PM 58.0°F14.4°C 43.3°F6.3°C 58% 10.0 mph NNE16.1 kmh NNE 17.0 mph27.4 kmh 30.13 in1020.3 mb 0.00 in0.0 mm 0.00 in0.0 mm 0.02 in0.5 mm
02:36 PM 57.7°F14.3°C 41.2°F5.1°C 54% 10.0 mph NNE16.1 kmh NNE 17.0 mph27.4 kmh 30.13 in1020.3 mb 0.00 in0.0 mm 0.00 in0.0 mm 0.02 in0.5 mm
02:37 PM 57.5°F14.2°C 43.3°F6.3°C 59% 14.0 mph NNE22.5 kmh NNE 18.0 mph29.0 kmh 30.13 in1020.3 mb 0.00 in0.0 mm 0.00 in0.0 mm 0.02 in0.5 mm
02:38 PM 57.7°F14.3°C 44.8°F7.1°C 62% 10.0 mph N16.1 kmh N 18.0 mph29.0 kmh 30.13 in1020.3 mb 0.00 in0.0 mm 0.00 in0.0 mm 0.02 in0.5 mm
02:39 PM 57.8°F14.3°C 42.7°F5.9°C 57% 13.0 mph N20.9 kmh N 18.0 mph29.0 kmh 30.13 in1020.3 mb 0.00 in0.0 mm 0.00 in0.0 mm 0.02 in0.5 mm
02:40 PM 57.8°F14.3°C 42.7°F5.9°C 57% 11.0 mph NNW17.7 kmh NNW 18.0 mph29.0 kmh 30.12 in1020.0 mb 0.00 in0.0 mm 0.00 in0.0 mm 0.02 in0.5 mm
02:41 PM 57.8°F14.3°C 42.7°F5.9°C 57% 8.0 mph N12.9 kmh N 18.0 mph29.0 kmh 30.12 in1020.0 mb 0.00 in0.0 mm 0.00 in0.0 mm 0.02 in0.5 mm
02:42 PM 58.0°F14.4°C 44.6°F7.0°C 61% 11.0 mph N17.7 kmh N 18.0 mph29.0 kmh 30.13 in1020.3 mb 0.00 in0.0 mm 0.00 in0.0 mm 0.02 in0.5 mm
02:43 PM 58.2°F14.6°C 43.5°F6.4°C 58% 9.0 mph N14.5 kmh N 18.0 mph29.0 kmh 30.12 in1020.0 mb 0.00 in0.0 mm 0.00 in0.0 mm 0.02 in0.5 mm
02:44 PM 58.3°F14.6°C 43.2°F6.2°C 57% 8.0 mph NNE12.9 kmh NNE 18.0 mph29.0 kmh 30.12 in1020.0 mb 0.00 in0.0 mm 0.00 in0.0 mm 0.02 in0.5 mm
02:45 PM 58.3°F14.6°C 42.7°F5.9°C 56% 9.0 mph N14.5 kmh N 18.0 mph29.0 kmh 30.12 in1020.0 mb 0.00 in0.0 mm 0.00 in0.0 mm 0.02 in0.5 mm
02:46 PM 58.2°F14.6°C 43.1°F6.2°C 57% 9.0 mph N14.5 kmh N 18.0 mph29.0 kmh 30.12 in1020.0 mb 0.00 in0.0 mm 0.00 in0.0 mm 0.02 in0.5 mm
02:47 PM 58.1°F14.5°C 43.4°F6.3°C 58% 10.0 mph N16.1 kmh N 18.0 mph29.0 kmh 30.12 in1020.0 mb 0.00 in0.0 mm 0.00 in0.0 mm 0.02 in0.5 mm
02:48 PM 57.9°F14.4°C 42.3°F5.7°C 56% 11.0 mph N17.7 kmh N 18.0 mph29.0 kmh 30.12 in1020.0 mb 0.00 in0.0 mm 0.00 in0.0 mm 0.02 in0.5 mm
02:49 PM 57.8°F14.3°C 43.6°F6.4°C 59% 15.0 mph NE24.1 kmh NE 18.0 mph29.0 kmh 30.13 in1020.3 mb 0.00 in0.0 mm 0.00 in0.0 mm 0.02 in0.5 mm
02:50 PM 57.8°F14.3°C 43.1°F6.2°C 58% 10.0 mph N16.1 kmh N 18.0 mph29.0 kmh 30.13 in1020.3 mb 0.00 in0.0 mm 0.00 in0.0 mm 0.02 in0.5 mm
02:51 PM 57.7°F14.3°C 43.0°F6.1°C 58% 13.0 mph N20.9 kmh N 18.0 mph29.0 kmh 30.13 in1020.3 mb 0.00 in0.0 mm 0.00 in0.0 mm 0.02 in0.5 mm
02:52 PM 57.7°F14.3°C 44.4°F6.9°C 61% 9.0 mph NNE14.5 kmh NNE 18.0 mph29.0 kmh 30.13 in1020.3 mb 0.00 in0.0 mm 0.00 in0.0 mm 0.02 in0.5 mm
02:53 PM 57.6°F14.2°C 44.3°F6.8°C 61% 6.0 mph NE9.7 kmh NE 18.0 mph29.0 kmh 30.13 in1020.3 mb 0.00 in0.0 mm 0.00 in0.0 mm 0.02 in0.5 mm
02:54 PM 57.5°F14.2°C 43.3°F6.3°C 59% 7.0 mph NNE11.3 kmh NNE 18.0 mph29.0 kmh 30.13 in1020.3 mb 0.00 in0.0 mm 0.00 in0.0 mm 0.02 in0.5 mm
02:55 PM 57.4°F14.1°C 43.6°F6.4°C 60% 5.0 mph NNE8.0 kmh NNE 18.0 mph29.0 kmh 30.13 in1020.3 mb 0.00 in0.0 mm 0.00 in0.0 mm 0.02 in0.5 mm
02:56 PM 57.4°F14.1°C 43.6°F6.4°C 60% 10.0 mph N16.1 kmh N 18.0 mph29.0 kmh 30.12 in1020.0 mb 0.00 in0.0 mm 0.00 in0.0 mm 0.02 in0.5 mm
02:57 PM 57.4°F14.1°C 44.1°F6.7°C 61% 9.0 mph NNE14.5 kmh NNE 18.0 mph29.0 kmh 30.12 in1020.0 mb 0.00 in0.0 mm 0.00 in0.0 mm 0.02 in0.5 mm
02:58 PM 57.4°F14.1°C 43.2°F6.2°C 59% 9.0 mph NNE14.5 kmh NNE 18.0 mph29.0 kmh 30.12 in1020.0 mb 0.00 in0.0 mm 0.00 in0.0 mm 0.02 in0.5 mm
02:59 PM 57.5°F14.2°C 43.3°F6.3°C 59% 7.0 mph N11.3 kmh N 18.0 mph29.0 kmh 30.12 in1020.0 mb 0.00 in0.0 mm 0.00 in0.0 mm 0.02 in0.5 mm
03:00 PM 57.4°F14.1°C 41.9°F5.5°C 56% 9.0 mph N14.5 kmh N 10.0 mph16.1 kmh 30.12 in1020.0 mb 0.00 in0.0 mm 0.00 in0.0 mm 0.02 in0.5 mm
03:01 PM 57.3°F14.1°C 41.8°F5.4°C 56% 11.0 mph N17.7 kmh N 11.0 mph17.7 kmh 30.12 in1020.0 mb 0.00 in0.0 mm 0.00 in0.0 mm 0.02 in0.5 mm
03:02 PM 57.3°F14.1°C 43.6°F6.4°C 60% 11.0 mph NNE17.7 kmh NNE 13.0 mph20.9 kmh 30.12 in1020.0 mb 0.00 in0.0 mm 0.00 in0.0 mm 0.02 in0.5 mm
03:03 PM 57.3°F14.1°C 43.1°F6.2°C 59% 12.0 mph N19.3 kmh N 15.0 mph24.1 kmh 30.12 in1020.0 mb 0.00 in0.0 mm 0.00 in0.0 mm 0.02 in0.5 mm
03:04 PM 57.4°F14.1°C 41.9°F5.5°C 56% 10.0 mph NNE16.1 kmh NNE 15.0 mph24.1 kmh 30.12 in1020.0 mb 0.00 in0.0 mm 0.00 in0.0 mm 0.02 in0.5 mm
03:05 PM 57.6°F14.2°C 43.4°F6.3°C 59% 10.0 mph NNE16.1 kmh NNE 15.0 mph24.1 kmh 30.12 in1020.0 mb 0.00 in0.0 mm 0.00 in0.0 mm 0.02 in0.5 mm
03:06 PM 57.9°F14.4°C 42.8°F6.0°C 57% 10.0 mph NNE16.1 kmh NNE 15.0 mph24.1 kmh 30.13 in1020.3 mb 0.00 in0.0 mm 0.00 in0.0 mm 0.02 in0.5 mm
03:07 PM 58.0°F14.4°C 41.9°F5.5°C 55% 5.0 mph NNE8.0 kmh NNE 15.0 mph24.1 kmh 30.12 in1020.0 mb 0.00 in0.0 mm 0.00 in0.0 mm 0.02 in0.5 mm
03:08 PM 58.0°F14.4°C 43.3°F6.3°C 58% 9.0 mph NNE14.5 kmh NNE 15.0 mph24.1 kmh 30.13 in1020.3 mb 0.00 in0.0 mm 0.00 in0.0 mm 0.02 in0.5 mm
03:09 PM 58.0°F14.4°C 43.3°F6.3°C 58% 10.0 mph NNE16.1 kmh NNE 15.0 mph24.1 kmh 30.13 in1020.3 mb 0.00 in0.0 mm 0.00 in0.0 mm 0.02 in0.5 mm
03:10 PM 58.0°F14.4°C 43.3°F6.3°C 58% 6.0 mph NE9.7 kmh NE 15.0 mph24.1 kmh 30.13 in1020.3 mb 0.00 in0.0 mm 0.00 in0.0 mm 0.02 in0.5 mm
03:11 PM 57.9°F14.4°C 42.8°F6.0°C 57% 10.0 mph NNE16.1 kmh NNE 15.0 mph24.1 kmh 30.13 in1020.3 mb 0.00 in0.0 mm 0.00 in0.0 mm 0.02 in0.5 mm
03:12 PM 57.9°F14.4°C 43.2°F6.2°C 58% 10.0 mph NE16.1 kmh NE 15.0 mph24.1 kmh 30.13 in1020.3 mb 0.00 in0.0 mm 0.00 in0.0 mm 0.02 in0.5 mm
03:13 PM 57.7°F14.3°C 41.2°F5.1°C 54% 7.0 mph N11.3 kmh N 15.0 mph24.1 kmh 30.13 in1020.3 mb 0.00 in0.0 mm 0.00 in0.0 mm 0.02 in0.5 mm
03:14 PM 57.7°F14.3°C 42.1°F5.6°C 56% 10.0 mph N16.1 kmh N 15.0 mph24.1 kmh 30.12 in1020.0 mb 0.00 in0.0 mm 0.00 in0.0 mm 0.02 in0.5 mm
03:15 PM 57.7°F14.3°C 42.6°F5.9°C 57% 13.0 mph N20.9 kmh N 16.0 mph25.7 kmh 30.12 in1020.0 mb 0.00 in0.0 mm 0.00 in0.0 mm 0.02 in0.5 mm
03:16 PM 57.6°F14.2°C 42.5°F5.8°C 57% 7.0 mph NNE11.3 kmh NNE 16.0 mph25.7 kmh 30.12 in1020.0 mb 0.00 in0.0 mm 0.00 in0.0 mm 0.02 in0.5 mm
03:17 PM 57.7°F14.3°C 43.5°F6.4°C 59% 7.0 mph NE11.3 kmh NE 16.0 mph25.7 kmh 30.12 in1020.0 mb 0.00 in0.0 mm 0.00 in0.0 mm 0.02 in0.5 mm
03:18 PM 58.1°F14.5°C 44.3°F6.8°C 60% 10.0 mph NNE16.1 kmh NNE 16.0 mph25.7 kmh 30.13 in1020.3 mb 0.00 in0.0 mm 0.00 in0.0 mm 0.02 in0.5 mm
03:19 PM 58.1°F14.5°C 42.5°F5.8°C 56% 8.0 mph NE12.9 kmh NE 16.0 mph25.7 kmh 30.13 in1020.3 mb 0.00 in0.0 mm 0.00 in0.0 mm 0.02 in0.5 mm
03:20 PM 58.1°F14.5°C 43.0°F6.1°C 57% 5.0 mph NE8.0 kmh NE 16.0 mph25.7 kmh 30.12 in1020.0 mb 0.00 in0.0 mm 0.00 in0.0 mm 0.02 in0.5 mm
03:21 PM 57.8°F14.3°C 40.8°F4.9°C 53% 4.0 mph NE6.4 kmh NE 16.0 mph25.7 kmh 30.12 in1020.0 mb 0.00 in0.0 mm 0.00 in0.0 mm 0.02 in0.5 mm
03:22 PM 57.6°F14.2°C 40.1°F4.5°C 52% 5.0 mph NE8.0 kmh NE 16.0 mph25.7 kmh 30.12 in1020.0 mb 0.00 in0.0 mm 0.00 in0.0 mm 0.02 in0.5 mm
03:23 PM 57.8°F14.3°C 43.1°F6.2°C 58% 6.0 mph N9.7 kmh N 16.0 mph25.7 kmh 30.12 in1020.0 mb 0.00 in0.0 mm 0.00 in0.0 mm 0.02 in0.5 mm
03:24 PM 57.9°F14.4°C 40.9°F4.9°C 53% 9.0 mph NNE14.5 kmh NNE 16.0 mph25.7 kmh 30.12 in1020.0 mb 0.00 in0.0 mm 0.00 in0.0 mm 0.02 in0.5 mm
03:25 PM 58.0°F14.4°C 41.9°F5.5°C 55% 12.0 mph NNE19.3 kmh NNE 16.0 mph25.7 kmh 30.12 in1020.0 mb 0.00 in0.0 mm 0.00 in0.0 mm 0.02 in0.5 mm
03:26 PM 58.1°F14.5°C 44.3°F6.8°C 60% 8.0 mph N12.9 kmh N 16.0 mph25.7 kmh 30.12 in1020.0 mb 0.00 in0.0 mm 0.00 in0.0 mm 0.02 in0.5 mm
03:27 PM 58.2°F14.6°C 44.0°F6.7°C 59% 8.0 mph N12.9 kmh N 16.0 mph25.7 kmh 30.12 in1020.0 mb 0.00 in0.0 mm 0.00 in0.0 mm 0.02 in0.5 mm
03:28 PM 58.2°F14.6°C 43.5°F6.4°C 58% 11.0 mph NNE17.7 kmh NNE 16.0 mph25.7 kmh 30.12 in1020.0 mb 0.00 in0.0 mm 0.00 in0.0 mm 0.02 in0.5 mm
03:29 PM 58.2°F14.6°C 44.4°F6.9°C 60% 13.0 mph N20.9 kmh N 16.0 mph25.7 kmh 30.12 in1020.0 mb 0.00 in0.0 mm 0.00 in0.0 mm 0.02 in0.5 mm
03:30 PM 58.1°F14.5°C 43.4°F6.3°C 58% 9.0 mph N14.5 kmh N 11.0 mph17.7 kmh 30.12 in1020.0 mb 0.00 in0.0 mm 0.00 in0.0 mm 0.02 in0.5 mm
03:31 PM 58.0°F14.4°C 43.8°F6.6°C 59% 10.0 mph N16.1 kmh N 12.0 mph19.3 kmh 30.12 in1020.0 mb 0.00 in0.0 mm 0.00 in0.0 mm 0.02 in0.5 mm
03:32 PM 57.9°F14.4°C 43.2°F6.2°C 58% 9.0 mph N14.5 kmh N 12.0 mph19.3 kmh 30.12 in1020.0 mb 0.00 in0.0 mm 0.00 in0.0 mm 0.02 in0.5 mm
03:33 PM 57.8°F14.3°C 43.6°F6.4°C 59% 6.0 mph N9.7 kmh N 12.0 mph19.3 kmh 30.12 in1020.0 mb 0.00 in0.0 mm 0.00 in0.0 mm 0.02 in0.5 mm
03:34 PM 57.7°F14.3°C 43.9°F6.6°C 60% 9.0 mph N14.5 kmh N 12.0 mph19.3 kmh 30.12 in1020.0 mb 0.00 in0.0 mm 0.00 in0.0 mm 0.02 in0.5 mm
03:35 PM 57.7°F14.3°C 42.6°F5.9°C 57% 7.0 mph N11.3 kmh N 12.0 mph19.3 kmh 30.12 in1020.0 mb 0.00 in0.0 mm 0.00 in0.0 mm 0.02 in0.5 mm
03:36 PM 57.6°F14.2°C 42.0°F5.6°C 56% 11.0 mph NNE17.7 kmh NNE 12.0 mph19.3 kmh 30.12 in1020.0 mb 0.00 in0.0 mm 0.00 in0.0 mm 0.02 in0.5 mm
03:37 PM 57.6°F14.2°C 43.4°F6.3°C 59% 8.0 mph NNE12.9 kmh NNE 12.0 mph19.3 kmh 30.12 in1020.0 mb 0.00 in0.0 mm 0.00 in0.0 mm 0.02 in0.5 mm
03:38 PM 57.5°F14.2°C 41.5°F5.3°C 55% 9.0 mph N14.5 kmh N 12.0 mph19.3 kmh 30.12 in1020.0 mb 0.00 in0.0 mm 0.00 in0.0 mm 0.02 in0.5 mm
03:39 PM 57.5°F14.2°C 41.9°F5.5°C 56% 9.0 mph N14.5 kmh N 12.0 mph19.3 kmh 30.12 in1020.0 mb 0.00 in0.0 mm 0.00 in0.0 mm 0.02 in0.5 mm
03:40 PM 57.5°F14.2°C 42.9°F6.1°C 58% 8.0 mph N12.9 kmh N 12.0 mph19.3 kmh 30.12 in1020.0 mb 0.00 in0.0 mm 0.00 in0.0 mm 0.02 in0.5 mm
03:41 PM 57.6°F14.2°C 43.8°F6.6°C 60% 14.0 mph NNE22.5 kmh NNE 15.0 mph24.1 kmh 30.12 in1020.0 mb 0.00 in0.0 mm 0.00 in0.0 mm 0.02 in0.5 mm
03:42 PM 57.7°F14.3°C 43.0°F6.1°C 58% 13.0 mph N20.9 kmh N 15.0 mph24.1 kmh 30.12 in1020.0 mb 0.00 in0.0 mm 0.00 in0.0 mm 0.02 in0.5 mm
03:43 PM 57.7°F14.3°C 42.6°F5.9°C 57% 12.0 mph N19.3 kmh N 15.0 mph24.1 kmh 30.12 in1020.0 mb 0.00 in0.0 mm 0.00 in0.0 mm 0.02 in0.5 mm
03:44 PM 57.7°F14.3°C 42.6°F5.9°C 57% 10.0 mph NNW16.1 kmh NNW 15.0 mph24.1 kmh 30.12 in1020.0 mb 0.00 in0.0 mm 0.00 in0.0 mm 0.02 in0.5 mm
03:45 PM 57.6°F14.2°C 42.0°F5.6°C 56% 11.0 mph NNW17.7 kmh NNW 15.0 mph24.1 kmh 30.12 in1020.0 mb 0.00 in0.0 mm 0.00 in0.0 mm 0.02 in0.5 mm
03:46 PM 57.6°F14.2°C 41.6°F5.3°C 55% 11.0 mph N17.7 kmh N 15.0 mph24.1 kmh 30.12 in1020.0 mb 0.00 in0.0 mm 0.00 in0.0 mm 0.02 in0.5 mm
03:47 PM 57.5°F14.2°C 41.5°F5.3°C 55% 11.0 mph N17.7 kmh N 15.0 mph24.1 kmh 30.12 in1020.0 mb 0.00 in0.0 mm 0.00 in0.0 mm 0.02 in0.5 mm
03:48 PM 57.5°F14.2°C 42.9°F6.1°C 58% 10.0 mph N16.1 kmh N 15.0 mph24.1 kmh 30.12 in1020.0 mb 0.00 in0.0 mm 0.00 in0.0 mm 0.02 in0.5 mm
03:49 PM 57.5°F14.2°C 42.4°F5.8°C 57% 10.0 mph NNE16.1 kmh NNE 15.0 mph24.1 kmh 30.12 in1020.0 mb 0.00 in0.0 mm 0.00 in0.0 mm 0.02 in0.5 mm
03:50 PM 57.5°F14.2°C 42.4°F5.8°C 57% 9.0 mph NNE14.5 kmh NNE 15.0 mph24.1 kmh 30.12 in1020.0 mb 0.00 in0.0 mm 0.00 in0.0 mm 0.02 in0.5 mm
03:51 PM 57.4°F14.1°C 42.3°F5.7°C 57% 8.0 mph NNE12.9 kmh NNE 15.0 mph24.1 kmh 30.12 in1020.0 mb 0.00 in0.0 mm 0.00 in0.0 mm 0.02 in0.5 mm
03:52 PM 57.5°F14.2°C 41.5°F5.3°C 55% 8.0 mph N12.9 kmh N 15.0 mph24.1 kmh 30.12 in1020.0 mb 0.00 in0.0 mm 0.00 in0.0 mm 0.02 in0.5 mm
03:53 PM 57.5°F14.2°C 42.4°F5.8°C 57% 10.0 mph NNW16.1 kmh NNW 15.0 mph24.1 kmh 30.12 in1020.0 mb 0.00 in0.0 mm 0.00 in0.0 mm 0.02 in0.5 mm
03:54 PM 57.6°F14.2°C 41.1°F5.1°C 54% 9.0 mph NNW14.5 kmh NNW 15.0 mph24.1 kmh 30.12 in1020.0 mb 0.00 in0.0 mm 0.00 in0.0 mm 0.02 in0.5 mm
03:55 PM 57.5°F14.2°C 41.0°F5.0°C 54% 10.0 mph N16.1 kmh N 15.0 mph24.1 kmh 30.12 in1020.0 mb 0.00 in0.0 mm 0.00 in0.0 mm 0.02 in0.5 mm
03:56 PM 57.5°F14.2°C 41.0°F5.0°C 54% 6.0 mph N9.7 kmh N 15.0 mph24.1 kmh 30.12 in1020.0 mb 0.00 in0.0 mm 0.00 in0.0 mm 0.02 in0.5 mm
03:57 PM 57.4°F14.1°C 40.4°F4.7°C 53% 5.0 mph N8.0 kmh N 15.0 mph24.1 kmh 30.12 in1020.0 mb 0.00 in0.0 mm 0.00 in0.0 mm 0.02 in0.5 mm
03:58 PM 57.4°F14.1°C 41.9°F5.5°C 56% 7.0 mph N11.3 kmh N 15.0 mph24.1 kmh 30.12 in1020.0 mb 0.00 in0.0 mm 0.00 in0.0 mm 0.02 in0.5 mm
03:59 PM 57.7°F14.3°C 42.6°F5.9°C 57% 6.0 mph N9.7 kmh N 15.0 mph24.1 kmh 30.12 in1020.0 mb 0.00 in0.0 mm 0.00 in0.0 mm 0.02 in0.5 mm
04:00 PM 58.0°F14.4°C 41.9°F5.5°C 55% 11.0 mph N17.7 kmh N 11.0 mph17.7 kmh 30.12 in1020.0 mb 0.00 in0.0 mm 0.00 in0.0 mm 0.02 in0.5 mm
04:01 PM 58.2°F14.6°C 42.1°F5.6°C 55% 14.0 mph N22.5 kmh N 14.0 mph22.5 kmh 30.12 in1020.0 mb 0.00 in0.0 mm 0.00 in0.0 mm 0.02 in0.5 mm
04:02 PM 58.2°F14.6°C 41.7°F5.4°C 54% 10.0 mph N16.1 kmh N 14.0 mph22.5 kmh 30.12 in1020.0 mb 0.00 in0.0 mm 0.00 in0.0 mm 0.02 in0.5 mm
04:03 PM 58.2°F14.6°C 42.1°F5.6°C 55% 11.0 mph NNE17.7 kmh NNE 14.0 mph22.5 kmh 30.12 in1020.0 mb 0.00 in0.0 mm 0.00 in0.0 mm 0.02 in0.5 mm
04:04 PM 58.2°F14.6°C 42.1°F5.6°C 55% 12.0 mph N19.3 kmh N 14.0 mph22.5 kmh 30.12 in1020.0 mb 0.00 in0.0 mm 0.00 in0.0 mm 0.02 in0.5 mm
04:05 PM 58.2°F14.6°C 41.2°F5.1°C 53% 8.0 mph N12.9 kmh N 14.0 mph22.5 kmh 30.12 in1020.0 mb 0.00 in0.0 mm 0.00 in0.0 mm 0.02 in0.5 mm
04:06 PM 58.2°F14.6°C 41.7°F5.4°C 54% 8.0 mph NNW12.9 kmh NNW 14.0 mph22.5 kmh 30.12 in1020.0 mb 0.00 in0.0 mm 0.00 in0.0 mm 0.02 in0.5 mm
04:07 PM 58.2°F14.6°C 41.7°F5.4°C 54% 6.0 mph NW9.7 kmh NW 14.0 mph22.5 kmh 30.12 in1020.0 mb 0.00 in0.0 mm 0.00 in0.0 mm 0.02 in0.5 mm
04:08 PM 58.2°F14.6°C 42.1°F5.6°C 55% 7.0 mph NW11.3 kmh NW 14.0 mph22.5 kmh 30.12 in1020.0 mb 0.00 in0.0 mm 0.00 in0.0 mm 0.02 in0.5 mm
04:09 PM 58.2°F14.6°C 40.7°F4.8°C 52% 9.0 mph NNW14.5 kmh NNW 14.0 mph22.5 kmh 30.12 in1020.0 mb 0.00 in0.0 mm 0.00 in0.0 mm 0.02 in0.5 mm
04:10 PM 58.3°F14.6°C 42.2°F5.7°C 55% 11.0 mph NW17.7 kmh NW 14.0 mph22.5 kmh 30.11 in1019.6 mb 0.00 in0.0 mm 0.00 in0.0 mm 0.02 in0.5 mm
04:11 PM 58.5°F14.7°C 42.4°F5.8°C 55% 7.0 mph N11.3 kmh N 14.0 mph22.5 kmh 30.11 in1019.6 mb 0.00 in0.0 mm 0.00 in0.0 mm 0.02 in0.5 mm
04:12 PM 58.7°F14.8°C 42.6°F5.9°C 55% 7.0 mph N11.3 kmh N 14.0 mph22.5 kmh 30.12 in1020.0 mb 0.00 in0.0 mm 0.00 in0.0 mm 0.02 in0.5 mm
04:13 PM 58.9°F14.9°C 43.7°F6.5°C 57% 8.0 mph N12.9 kmh N 14.0 mph22.5 kmh 30.11 in1019.6 mb 0.00 in0.0 mm 0.00 in0.0 mm 0.02 in0.5 mm
04:14 PM 58.9°F14.9°C 42.8°F6.0°C 55% 12.0 mph N19.3 kmh N 14.0 mph22.5 kmh 30.11 in1019.6 mb 0.00 in0.0 mm 0.00 in0.0 mm 0.02 in0.5 mm
04:15 PM 58.9°F14.9°C 41.3°F5.2°C 52% 7.0 mph N11.3 kmh N 14.0 mph22.5 kmh 30.11 in1019.6 mb 0.00 in0.0 mm 0.00 in0.0 mm 0.02 in0.5 mm
04:16 PM 58.7°F14.8°C 42.6°F5.9°C 55% 10.0 mph N16.1 kmh N 14.0 mph22.5 kmh 30.12 in1020.0 mb 0.00 in0.0 mm 0.00 in0.0 mm 0.02 in0.5 mm
04:17 PM 58.7°F14.8°C 42.6°F5.9°C 55% 10.0 mph N16.1 kmh N 14.0 mph22.5 kmh 30.12 in1020.0 mb 0.00 in0.0 mm 0.00 in0.0 mm 0.02 in0.5 mm
04:18 PM 58.6°F14.8°C 43.0°F6.1°C 56% 9.0 mph N14.5 kmh N 14.0 mph22.5 kmh 30.12 in1020.0 mb 0.00 in0.0 mm 0.00 in0.0 mm 0.02 in0.5 mm
04:19 PM 58.6°F14.8°C 42.0°F5.6°C 54% 5.0 mph N8.0 kmh N 14.0 mph22.5 kmh 30.11 in1019.6 mb 0.00 in0.0 mm 0.00 in0.0 mm 0.02 in0.5 mm
04:20 PM 58.9°F14.9°C 44.2°F6.8°C 58% 6.0 mph N9.7 kmh N 14.0 mph22.5 kmh 30.11 in1019.6 mb 0.00 in0.0 mm 0.00 in0.0 mm 0.02 in0.5 mm
04:21 PM 58.9°F14.9°C 42.8°F6.0°C 55% 12.0 mph NNE19.3 kmh NNE 14.0 mph22.5 kmh 30.11 in1019.6 mb 0.00 in0.0 mm 0.00 in0.0 mm 0.02 in0.5 mm
04:22 PM 58.9°F14.9°C 42.8°F6.0°C 55% 13.0 mph NE20.9 kmh NE 14.0 mph22.5 kmh 30.11 in1019.6 mb 0.00 in0.0 mm 0.00 in0.0 mm 0.02 in0.5 mm
04:23 PM 58.8°F14.9°C 42.7°F5.9°C 55% 10.0 mph NNE16.1 kmh NNE 14.0 mph22.5 kmh 30.11 in1019.6 mb 0.00 in0.0 mm 0.00 in0.0 mm 0.02 in0.5 mm
04:24 PM 58.7°F14.8°C 42.6°F5.9°C 55% 10.0 mph NNE16.1 kmh NNE 14.0 mph22.5 kmh 30.11 in1019.6 mb 0.00 in0.0 mm 0.00 in0.0 mm 0.02 in0.5 mm
04:25 PM 58.5°F14.7°C 42.9°F6.1°C 56% 11.0 mph N17.7 kmh N 14.0 mph22.5 kmh 30.11 in1019.6 mb 0.00 in0.0 mm 0.00 in0.0 mm 0.02 in0.5 mm
04:26 PM 58.4°F14.7°C 43.2°F6.2°C 57% 10.0 mph N16.1 kmh N 14.0 mph22.5 kmh 30.12 in1020.0 mb 0.00 in0.0 mm 0.00 in0.0 mm 0.02 in0.5 mm
04:27 PM 58.3°F14.6°C 43.2°F6.2°C 57% 9.0 mph NNE14.5 kmh NNE 14.0 mph22.5 kmh 30.12 in1020.0 mb 0.00 in0.0 mm 0.00 in0.0 mm 0.02 in0.5 mm
04:28 PM 58.2°F14.6°C 42.6°F5.9°C 56% 9.0 mph N14.5 kmh N 14.0 mph22.5 kmh 30.11 in1019.6 mb 0.00 in0.0 mm 0.00 in0.0 mm 0.02 in0.5 mm
04:29 PM 58.0°F14.4°C 42.9°F6.1°C 57% 11.0 mph N17.7 kmh N 14.0 mph22.5 kmh 30.12 in1020.0 mb 0.00 in0.0 mm 0.00 in0.0 mm 0.02 in0.5 mm
04:30 PM 57.9°F14.4°C 42.3°F5.7°C 56% 9.0 mph NNE14.5 kmh NNE 12.0 mph19.3 kmh 30.12 in1020.0 mb 0.00 in0.0 mm 0.00 in0.0 mm 0.02 in0.5 mm
04:31 PM 57.8°F14.3°C 42.2°F5.7°C 56% 13.0 mph N20.9 kmh N 13.0 mph20.9 kmh 30.12 in1020.0 mb 0.00 in0.0 mm 0.00 in0.0 mm 0.02 in0.5 mm
04:32 PM 57.7°F14.3°C 42.6°F5.9°C 57% 10.0 mph N16.1 kmh N 13.0 mph20.9 kmh 30.12 in1020.0 mb 0.00 in0.0 mm 0.00 in0.0 mm 0.02 in0.5 mm
04:33 PM 57.7°F14.3°C 41.2°F5.1°C 54% 7.0 mph N11.3 kmh N 13.0 mph20.9 kmh 30.11 in1019.6 mb 0.00 in0.0 mm 0.00 in0.0 mm 0.02 in0.5 mm
04:34 PM 57.8°F14.3°C 43.1°F6.2°C 58% 7.0 mph N11.3 kmh N 13.0 mph20.9 kmh 30.11 in1019.6 mb 0.00 in0.0 mm 0.00 in0.0 mm 0.02 in0.5 mm
04:35 PM 58.1°F14.5°C 43.9°F6.6°C 59% 9.0 mph N14.5 kmh N 13.0 mph20.9 kmh 30.11 in1019.6 mb 0.00 in0.0 mm 0.00 in0.0 mm 0.02 in0.5 mm
04:36 PM 58.3°F14.6°C 43.2°F6.2°C 57% 10.0 mph N16.1 kmh N 15.0 mph24.1 kmh 30.11 in1019.6 mb 0.00 in0.0 mm 0.00 in0.0 mm 0.02 in0.5 mm
04:37 PM 58.4°F14.7°C 42.3°F5.7°C 55% 11.0 mph N17.7 kmh N 15.0 mph24.1 kmh 30.11 in1019.6 mb 0.00 in0.0 mm 0.00 in0.0 mm 0.02 in0.5 mm
04:38 PM 58.5°F14.7°C 41.5°F5.3°C 53% 8.0 mph NNW12.9 kmh NNW 15.0 mph24.1 kmh 30.12 in1020.0 mb 0.00 in0.0 mm 0.00 in0.0 mm 0.02 in0.5 mm
04:39 PM 58.6°F14.8°C 41.5°F5.3°C 53% 7.0 mph NW11.3 kmh NW 15.0 mph24.1 kmh 30.11 in1019.6 mb 0.00 in0.0 mm 0.00 in0.0 mm 0.02 in0.5 mm
04:40 PM 58.7°F14.8°C 42.1°F5.6°C 54% 8.0 mph N12.9 kmh N 15.0 mph24.1 kmh 30.12 in1020.0 mb 0.00 in0.0 mm 0.00 in0.0 mm 0.02 in0.5 mm
04:41 PM 58.7°F14.8°C 42.6°F5.9°C 55% 11.0 mph N17.7 kmh N 15.0 mph24.1 kmh 30.12 in1020.0 mb 0.00 in0.0 mm 0.00 in0.0 mm 0.02 in0.5 mm
04:42 PM 58.8°F14.9°C 43.2°F6.2°C 56% 11.0 mph N17.7 kmh N 15.0 mph24.1 kmh 30.12 in1020.0 mb 0.00 in0.0 mm 0.00 in0.0 mm 0.02 in0.5 mm
04:43 PM 58.8°F14.9°C 43.2°F6.2°C 56% 11.0 mph N17.7 kmh N 15.0 mph24.1 kmh 30.12 in1020.0 mb 0.00 in0.0 mm 0.00 in0.0 mm 0.02 in0.5 mm
04:44 PM 58.8°F14.9°C 42.7°F5.9°C 55% 11.0 mph N17.7 kmh N 15.0 mph24.1 kmh 30.12 in1020.0 mb 0.00 in0.0 mm 0.00 in0.0 mm 0.02 in0.5 mm
04:45 PM 58.7°F14.8°C 42.6°F5.9°C 55% 10.0 mph N16.1 kmh N 15.0 mph24.1 kmh 30.11 in1019.6 mb 0.00 in0.0 mm 0.00 in0.0 mm 0.02 in0.5 mm
04:46 PM 58.6°F14.8°C 42.5°F5.8°C 55% 13.0 mph N20.9 kmh N 15.0 mph24.1 kmh 30.11 in1019.6 mb 0.00 in0.0 mm 0.00 in0.0 mm 0.02 in0.5 mm
04:47 PM 58.5°F14.7°C 42.4°F5.8°C 55% 7.0 mph N11.3 kmh N 15.0 mph24.1 kmh 30.11 in1019.6 mb 0.00 in0.0 mm 0.00 in0.0 mm 0.02 in0.5 mm
04:48 PM 58.6°F14.8°C 43.0°F6.1°C 56% 6.0 mph N9.7 kmh N 15.0 mph24.1 kmh 30.11 in1019.6 mb 0.00 in0.0 mm 0.00 in0.0 mm 0.02 in0.5 mm
04:49 PM 58.7°F14.8°C 43.1°F6.2°C 56% 8.0 mph N12.9 kmh N 15.0 mph24.1 kmh 30.11 in1019.6 mb 0.00 in0.0 mm 0.00 in0.0 mm 0.02 in0.5 mm
04:50 PM 58.8°F14.9°C 41.2°F5.1°C 52% 9.0 mph NNW14.5 kmh NNW 15.0 mph24.1 kmh 30.11 in1019.6 mb 0.00 in0.0 mm 0.00 in0.0 mm 0.02 in0.5 mm
04:51 PM 58.9°F14.9°C 41.3°F5.2°C 52% 11.0 mph NNW17.7 kmh NNW 15.0 mph24.1 kmh 30.12 in1020.0 mb 0.00 in0.0 mm 0.00 in0.0 mm 0.02 in0.5 mm
04:52 PM 58.8°F14.9°C 41.2°F5.1°C 52% 8.0 mph N12.9 kmh N 15.0 mph24.1 kmh 30.11 in1019.6 mb 0.00 in0.0 mm 0.00 in0.0 mm 0.02 in0.5 mm
04:53 PM 58.9°F14.9°C 41.8°F5.4°C 53% 8.0 mph N12.9 kmh N 15.0 mph24.1 kmh 30.11 in1019.6 mb 0.00 in0.0 mm 0.00 in0.0 mm 0.02 in0.5 mm
04:54 PM 59.0°F15.0°C 41.4°F5.2°C 52% 8.0 mph N12.9 kmh N 15.0 mph24.1 kmh 30.12 in1020.0 mb 0.00 in0.0 mm 0.00 in0.0 mm 0.02 in0.5 mm
04:55 PM 59.0°F15.0°C 41.4°F5.2°C 52% 10.0 mph N16.1 kmh N 15.0 mph24.1 kmh 30.11 in1019.6 mb 0.00 in0.0 mm 0.00 in0.0 mm 0.02 in0.5 mm
04:56 PM 59.1°F15.1°C 42.0°F5.6°C 53% 8.0 mph N12.9 kmh N 15.0 mph24.1 kmh 30.11 in1019.6 mb 0.00 in0.0 mm 0.00 in0.0 mm 0.02 in0.5 mm
04:57 PM 59.2°F15.1°C 42.1°F5.6°C 53% 12.0 mph N19.3 kmh N 15.0 mph24.1 kmh 30.12 in1020.0 mb 0.00 in0.0 mm 0.00 in0.0 mm 0.02 in0.5 mm
04:58 PM 59.2°F15.1°C 41.6°F5.3°C 52% 9.0 mph N14.5 kmh N 15.0 mph24.1 kmh 30.11 in1019.6 mb 0.00 in0.0 mm 0.00 in0.0 mm 0.02 in0.5 mm
04:59 PM 59.2°F15.1°C 41.6°F5.3°C 52% 9.0 mph N14.5 kmh N 15.0 mph24.1 kmh 30.11 in1019.6 mb 0.00 in0.0 mm 0.00 in0.0 mm 0.02 in0.5 mm
05:00 PM 59.3°F15.2°C 42.7°F5.9°C 54% 10.0 mph NNW16.1 kmh NNW 11.0 mph17.7 kmh 30.11 in1019.6 mb 0.00 in0.0 mm 0.00 in0.0 mm 0.02 in0.5 mm
05:01 PM 59.4°F15.2°C 41.8°F5.4°C 52% 9.0 mph N14.5 kmh N 11.0 mph17.7 kmh 30.11 in1019.6 mb 0.00 in0.0 mm 0.00 in0.0 mm 0.02 in0.5 mm
05:02 PM 59.4°F15.2°C 41.3°F5.2°C 51% 6.0 mph N9.7 kmh N 11.0 mph17.7 kmh 30.11 in1019.6 mb 0.00 in0.0 mm 0.00 in0.0 mm 0.02 in0.5 mm
05:03 PM 59.2°F15.1°C 41.1°F5.1°C 51% 4.0 mph N6.4 kmh N 11.0 mph17.7 kmh 30.11 in1019.6 mb 0.00 in0.0 mm 0.00 in0.0 mm 0.02 in0.5 mm
05:04 PM 59.2°F15.1°C 41.6°F5.3°C 52% 5.0 mph NNW8.0 kmh NNW 11.0 mph17.7 kmh 30.11 in1019.6 mb 0.00 in0.0 mm 0.00 in0.0 mm 0.02 in0.5 mm
05:05 PM 59.3°F15.2°C 41.7°F5.4°C 52% 3.0 mph N4.8 kmh N 11.0 mph17.7 kmh 30.11 in1019.6 mb 0.00 in0.0 mm 0.00 in0.0 mm 0.02 in0.5 mm
05:06 PM 59.5°F15.3°C 42.9°F6.1°C 54% 9.0 mph N14.5 kmh N 11.0 mph17.7 kmh 30.11 in1019.6 mb 0.00 in0.0 mm 0.00 in0.0 mm 0.02 in0.5 mm
05:07 PM 59.5°F15.3°C 41.9°F5.5°C 52% 6.0 mph N9.7 kmh N 11.0 mph17.7 kmh 30.11 in1019.6 mb 0.00 in0.0 mm 0.00 in0.0 mm 0.02 in0.5 mm
05:08 PM 59.7°F15.4°C 44.0°F6.7°C 56% 4.0 mph N6.4 kmh N 11.0 mph17.7 kmh 30.11 in1019.6 mb 0.00 in0.0 mm 0.00 in0.0 mm 0.02 in0.5 mm
05:09 PM 60.0°F15.6°C 43.8°F6.6°C 55% 10.0 mph NNW16.1 kmh NNW 12.0 mph19.3 kmh 30.11 in1019.6 mb 0.00 in0.0 mm 0.00 in0.0 mm 0.02 in0.5 mm
05:10 PM 60.2°F15.7°C 43.5°F6.4°C 54% 9.0 mph NNW14.5 kmh NNW 12.0 mph19.3 kmh 30.11 in1019.6 mb 0.00 in0.0 mm 0.00 in0.0 mm 0.02 in0.5 mm
05:11 PM 60.2°F15.7°C 43.0°F6.1°C 53% 9.0 mph N14.5 kmh N 12.0 mph19.3 kmh 30.11 in1019.6 mb 0.00 in0.0 mm 0.00 in0.0 mm 0.02 in0.5 mm
05:12 PM 60.2°F15.7°C 43.5°F6.4°C 54% 10.0 mph NNE16.1 kmh NNE 12.0 mph19.3 kmh 30.11 in1019.6 mb 0.00 in0.0 mm 0.00 in0.0 mm 0.02 in0.5 mm
05:13 PM 60.2°F15.7°C 43.5°F6.4°C 54% 9.0 mph NNE14.5 kmh NNE 12.0 mph19.3 kmh 30.11 in1019.6 mb 0.00 in0.0 mm 0.00 in0.0 mm 0.02 in0.5 mm
05:14 PM 60.3°F15.7°C 45.0°F7.2°C 57% 8.0 mph NNE12.9 kmh NNE 12.0 mph19.3 kmh 30.11 in1019.6 mb 0.00 in0.0 mm 0.00 in0.0 mm 0.02 in0.5 mm
05:15 PM 60.4°F15.8°C 43.7°F6.5°C 54% 10.0 mph N16.1 kmh N 12.0 mph19.3 kmh 30.11 in1019.6 mb 0.00 in0.0 mm 0.00 in0.0 mm 0.02 in0.5 mm
05:16 PM 60.3°F15.7°C 42.6°F5.9°C 52% 10.0 mph N16.1 kmh N 12.0 mph19.3 kmh 30.11 in1019.6 mb 0.00 in0.0 mm 0.00 in0.0 mm 0.02 in0.5 mm
05:17 PM 60.2°F15.7°C 43.0°F6.1°C 53% 6.0 mph NNE9.7 kmh NNE 12.0 mph19.3 kmh 30.11 in1019.6 mb 0.00 in0.0 mm 0.00 in0.0 mm 0.02 in0.5 mm
05:18 PM 60.0°F15.6°C 43.8°F6.6°C 55% 10.0 mph N16.1 kmh N 12.0 mph19.3 kmh 30.11 in1019.6 mb 0.00 in0.0 mm 0.00 in0.0 mm 0.02 in0.5 mm
05:19 PM 59.8°F15.4°C 43.1°F6.2°C 54% 8.0 mph N12.9 kmh N 12.0 mph19.3 kmh 30.11 in1019.6 mb 0.00 in0.0 mm 0.00 in0.0 mm 0.02 in0.5 mm
05:20 PM 59.6°F15.3°C 43.0°F6.1°C 54% 11.0 mph N17.7 kmh N 12.0 mph19.3 kmh 30.11 in1019.6 mb 0.00 in0.0 mm 0.00 in0.0 mm 0.02 in0.5 mm
05:21 PM 59.4°F15.2°C 42.3°F5.7°C 53% 12.0 mph N19.3 kmh N 13.0 mph20.9 kmh 30.11 in1019.6 mb 0.00 in0.0 mm 0.00 in0.0 mm 0.02 in0.5 mm
05:22 PM 59.2°F15.1°C 41.6°F5.3°C 52% 7.0 mph N11.3 kmh N 13.0 mph20.9 kmh 30.11 in1019.6 mb 0.00 in0.0 mm 0.00 in0.0 mm 0.02 in0.5 mm
05:23 PM 59.0°F15.0°C 43.3°F6.3°C 56% 9.0 mph N14.5 kmh N 13.0 mph20.9 kmh 30.11 in1019.6 mb 0.00 in0.0 mm 0.00 in0.0 mm 0.02 in0.5 mm
05:24 PM 58.8°F14.9°C 42.2°F5.7°C 54% 9.0 mph NNE14.5 kmh NNE 13.0 mph20.9 kmh 30.11 in1019.6 mb 0.00 in0.0 mm 0.00 in0.0 mm 0.02 in0.5 mm
05:25 PM 58.6°F14.8°C 42.5°F5.8°C 55% 10.0 mph NNE16.1 kmh NNE 13.0 mph20.9 kmh 30.11 in1019.6 mb 0.00 in0.0 mm 0.00 in0.0 mm 0.02 in0.5 mm
05:26 PM 58.5°F14.7°C 42.9°F6.1°C 56% 8.0 mph N12.9 kmh N 13.0 mph20.9 kmh 30.11 in1019.6 mb 0.00 in0.0 mm 0.00 in0.0 mm 0.02 in0.5 mm
05:27 PM 58.4°F14.7°C 43.7°F6.5°C 58% 6.0 mph N9.7 kmh N 13.0 mph20.9 kmh 30.11 in1019.6 mb 0.00 in0.0 mm 0.00 in0.0 mm 0.02 in0.5 mm
05:28 PM 58.2°F14.6°C 42.1°F5.6°C 55% 8.0 mph N12.9 kmh N 13.0 mph20.9 kmh 30.12 in1020.0 mb 0.00 in0.0 mm 0.00 in0.0 mm 0.02 in0.5 mm
05:29 PM 58.1°F14.5°C 41.1°F5.1°C 53% 6.0 mph N9.7 kmh N 13.0 mph20.9 kmh 30.11 in1019.6 mb 0.00 in0.0 mm 0.00 in0.0 mm 0.02 in0.5 mm
05:30 PM 58.2°F14.6°C 41.2°F5.1°C 53% 8.0 mph N12.9 kmh N 11.0 mph17.7 kmh 30.11 in1019.6 mb 0.00 in0.0 mm 0.00 in0.0 mm 0.02 in0.5 mm
05:31 PM 58.3°F14.6°C 41.8°F5.4°C 54% 7.0 mph N11.3 kmh N 11.0 mph17.7 kmh 30.11 in1019.6 mb 0.00 in0.0 mm 0.00 in0.0 mm 0.02 in0.5 mm
05:32 PM 58.6°F14.8°C 41.1°F5.1°C 52% 7.0 mph N11.3 kmh N 11.0 mph17.7 kmh 30.11 in1019.6 mb 0.00 in0.0 mm 0.00 in0.0 mm 0.02 in0.5 mm
05:33 PM 58.7°F14.8°C 41.1°F5.1°C 52% 7.0 mph N11.3 kmh N 11.0 mph17.7 kmh 30.11 in1019.6 mb 0.00 in0.0 mm 0.00 in0.0 mm 0.02 in0.5 mm
05:34 PM 58.8°F14.9°C 41.7°F5.4°C 53% 5.0 mph N8.0 kmh N 11.0 mph17.7 kmh 30.11 in1019.6 mb 0.00 in0.0 mm 0.00 in0.0 mm 0.02 in0.5 mm
05:35 PM 59.0°F15.0°C 41.9°F5.5°C 53% 7.0 mph NNE11.3 kmh NNE 11.0 mph17.7 kmh 30.11 in1019.6 mb 0.00 in0.0 mm 0.00 in0.0 mm 0.02 in0.5 mm
05:36 PM 59.1°F15.1°C 41.5°F5.3°C 52% 8.0 mph N12.9 kmh N 11.0 mph17.7 kmh 30.11 in1019.6 mb 0.00 in0.0 mm 0.00 in0.0 mm 0.02 in0.5 mm
05:37 PM 59.1°F15.1°C 40.5°F4.7°C 50% 7.0 mph N11.3 kmh N 11.0 mph17.7 kmh 30.11 in1019.6 mb 0.00 in0.0 mm 0.00 in0.0 mm 0.02 in0.5 mm
05:38 PM 59.1°F15.1°C 41.5°F5.3°C 52% 9.0 mph N14.5 kmh N 11.0 mph17.7 kmh 30.11 in1019.6 mb 0.00 in0.0 mm 0.00 in0.0 mm 0.02 in0.5 mm
05:39 PM 59.2°F15.1°C 42.6°F5.9°C 54% 11.0 mph N17.7 kmh N 12.0 mph19.3 kmh 30.11 in1019.6 mb 0.00 in0.0 mm 0.00 in0.0 mm 0.02 in0.5 mm
05:40 PM 59.2°F15.1°C 42.6°F5.9°C 54% 9.0 mph N14.5 kmh N 15.0 mph24.1 kmh 30.11 in1019.6 mb 0.00 in0.0 mm 0.00 in0.0 mm 0.02 in0.5 mm
05:41 PM 59.2°F15.1°C 42.6°F5.9°C 54% 11.0 mph N17.7 kmh N 15.0 mph24.1 kmh 30.11 in1019.6 mb 0.00 in0.0 mm 0.00 in0.0 mm 0.02 in0.5 mm
05:42 PM 59.2°F15.1°C 42.6°F5.9°C 54% 11.0 mph N17.7 kmh N 15.0 mph24.1 kmh 30.11 in1019.6 mb 0.00 in0.0 mm 0.00 in0.0 mm 0.02 in0.5 mm
05:43 PM 59.1°F15.1°C 42.0°F5.6°C 53% 10.0 mph N16.1 kmh N 15.0 mph24.1 kmh 30.12 in1020.0 mb 0.00 in0.0 mm 0.00 in0.0 mm 0.02 in0.5 mm
05:44 PM 59.0°F15.0°C 41.9°F5.5°C 53% 11.0 mph N17.7 kmh N 15.0 mph24.1 kmh 30.12 in1020.0 mb 0.00 in0.0 mm 0.00 in0.0 mm 0.02 in0.5 mm
05:45 PM 58.8°F14.9°C 41.7°F5.4°C 53% 10.0 mph NNE16.1 kmh NNE 15.0 mph24.1 kmh 30.11 in1019.6 mb 0.00 in0.0 mm 0.00 in0.0 mm 0.02 in0.5 mm
05:46 PM 58.7°F14.8°C 42.1°F5.6°C 54% 10.0 mph N16.1 kmh N 15.0 mph24.1 kmh 30.11 in1019.6 mb 0.00 in0.0 mm 0.00 in0.0 mm 0.02 in0.5 mm
05:47 PM 58.6°F14.8°C 42.0°F5.6°C 54% 8.0 mph N12.9 kmh N 15.0 mph24.1 kmh 30.12 in1020.0 mb 0.00 in0.0 mm 0.00 in0.0 mm 0.02 in0.5 mm
05:48 PM 58.6°F14.8°C 42.0°F5.6°C 54% 6.0 mph N9.7 kmh N 15.0 mph24.1 kmh 30.11 in1019.6 mb 0.00 in0.0 mm 0.00 in0.0 mm 0.02 in0.5 mm
05:49 PM 58.7°F14.8°C 42.1°F5.6°C 54% 10.0 mph N16.1 kmh N 15.0 mph24.1 kmh 30.11 in1019.6 mb 0.00 in0.0 mm 0.00 in0.0 mm 0.02 in0.5 mm
05:50 PM 58.8°F14.9°C 41.7°F5.4°C 53% 7.0 mph N11.3 kmh N 15.0 mph24.1 kmh 30.11 in1019.6 mb 0.00 in0.0 mm 0.00 in0.0 mm 0.02 in0.5 mm
05:51 PM 58.8°F14.9°C 42.2°F5.7°C 54% 8.0 mph N12.9 kmh N 15.0 mph24.1 kmh 30.11 in1019.6 mb 0.00 in0.0 mm 0.00 in0.0 mm 0.02 in0.5 mm
05:52 PM 59.0°F15.0°C 43.3°F6.3°C 56% 8.0 mph N12.9 kmh N 15.0 mph24.1 kmh 30.11 in1019.6 mb 0.00 in0.0 mm 0.00 in0.0 mm 0.02 in0.5 mm
05:53 PM 59.1°F15.1°C 41.5°F5.3°C 52% 6.0 mph N9.7 kmh N 15.0 mph24.1 kmh 30.11 in1019.6 mb 0.00 in0.0 mm 0.00 in0.0 mm 0.02 in0.5 mm
05:54 PM 59.0°F15.0°C 39.9°F4.4°C 49% 6.0 mph N9.7 kmh N 15.0 mph24.1 kmh 30.11 in1019.6 mb 0.00 in0.0 mm 0.00 in0.0 mm 0.02 in0.5 mm
05:55 PM 59.0°F15.0°C 40.4°F4.7°C 50% 6.0 mph NNE9.7 kmh NNE 15.0 mph24.1 kmh 30.11 in1019.6 mb 0.00 in0.0 mm 0.00 in0.0 mm 0.02 in0.5 mm
05:56 PM 59.0°F15.0°C 40.4°F4.7°C 50% 7.0 mph NNE11.3 kmh NNE 15.0 mph24.1 kmh 30.11 in1019.6 mb 0.00 in0.0 mm 0.00 in0.0 mm 0.02 in0.5 mm
05:57 PM 59.0°F15.0°C 40.4°F4.7°C 50% 10.0 mph N16.1 kmh N 15.0 mph24.1 kmh 30.11 in1019.6 mb 0.00 in0.0 mm 0.00 in0.0 mm 0.02 in0.5 mm
05:58 PM 59.1°F15.1°C 42.0°F5.6°C 53% 8.0 mph N12.9 kmh N 15.0 mph24.1 kmh 30.11 in1019.6 mb 0.00 in0.0 mm 0.00 in0.0 mm 0.02 in0.5 mm
05:59 PM 59.2°F15.1°C 42.1°F5.6°C 53% 10.0 mph NNE16.1 kmh NNE 15.0 mph24.1 kmh 30.11 in1019.6 mb 0.00 in0.0 mm 0.00 in0.0 mm 0.02 in0.5 mm
06:00 PM 59.3°F15.2°C 41.7°F5.4°C 52% 9.0 mph N14.5 kmh N 11.0 mph17.7 kmh 30.11 in1019.6 mb 0.00 in0.0 mm 0.00 in0.0 mm 0.02 in0.5 mm
06:01 PM 59.3°F15.2°C 42.2°F5.7°C 53% 10.0 mph N16.1 kmh N 15.0 mph24.1 kmh 30.11 in1019.6 mb 0.00 in0.0 mm 0.00 in0.0 mm 0.02 in0.5 mm
06:02 PM 59.3°F15.2°C 42.2°F5.7°C 53% 11.0 mph NNE17.7 kmh NNE 15.0 mph24.1 kmh 30.11 in1019.6 mb 0.00 in0.0 mm 0.00 in0.0 mm 0.02 in0.5 mm
06:03 PM 59.3°F15.2°C 42.2°F5.7°C 53% 10.0 mph N16.1 kmh N 15.0 mph24.1 kmh 30.11 in1019.6 mb 0.00 in0.0 mm 0.00 in0.0 mm 0.02 in0.5 mm
06:04 PM 59.3°F15.2°C 42.2°F5.7°C 53% 9.0 mph N14.5 kmh N 15.0 mph24.1 kmh 30.11 in1019.6 mb 0.00 in0.0 mm 0.00 in0.0 mm 0.02 in0.5 mm
06:05 PM 59.2°F15.1°C 42.1°F5.6°C 53% 8.0 mph N12.9 kmh N 15.0 mph24.1 kmh 30.11 in1019.6 mb 0.00 in0.0 mm 0.00 in0.0 mm 0.02 in0.5 mm
06:06 PM 59.0°F15.0°C 41.4°F5.2°C 52% 10.0 mph N16.1 kmh N 15.0 mph24.1 kmh 30.11 in1019.6 mb 0.00 in0.0 mm 0.00 in0.0 mm 0.02 in0.5 mm
06:07 PM 58.9°F14.9°C 41.3°F5.2°C 52% 10.0 mph N16.1 kmh N 15.0 mph24.1 kmh 30.11 in1019.6 mb 0.00 in0.0 mm 0.00 in0.0 mm 0.02 in0.5 mm
06:08 PM 58.8°F14.9°C 40.7°F4.8°C 51% 8.0 mph N12.9 kmh N 15.0 mph24.1 kmh 30.11 in1019.6 mb 0.00 in0.0 mm 0.00 in0.0 mm 0.02 in0.5 mm
06:09 PM 58.7°F14.8°C 41.1°F5.1°C 52% 9.0 mph N14.5 kmh N 15.0 mph24.1 kmh 30.11 in1019.6 mb 0.00 in0.0 mm 0.00 in0.0 mm 0.02 in0.5 mm
06:10 PM 58.8°F14.9°C 41.2°F5.1°C 52% 7.0 mph N11.3 kmh N 15.0 mph24.1 kmh 30.11 in1019.6 mb 0.00 in0.0 mm 0.00 in0.0 mm 0.02 in0.5 mm
06:11 PM 58.8°F14.9°C 41.7°F5.4°C 53% 11.0 mph N17.7 kmh N 15.0 mph24.1 kmh 30.11 in1019.6 mb 0.00 in0.0 mm 0.00 in0.0 mm 0.02 in0.5 mm
06:12 PM 58.8°F14.9°C 41.2°F5.1°C 52% 11.0 mph NW17.7 kmh NW 15.0 mph24.1 kmh 30.11 in1019.6 mb 0.00 in0.0 mm 0.00 in0.0 mm 0.02 in0.5 mm
06:13 PM 58.9°F14.9°C 40.3°F4.6°C 50% 10.0 mph N16.1 kmh N 15.0 mph24.1 kmh 30.11 in1019.6 mb 0.00 in0.0 mm 0.00 in0.0 mm 0.02 in0.5 mm
06:14 PM 58.8°F14.9°C 40.2°F4.6°C 50% 9.0 mph N14.5 kmh N 15.0 mph24.1 kmh 30.11 in1019.6 mb 0.00 in0.0 mm 0.00 in0.0 mm 0.02 in0.5 mm
06:15 PM 58.8°F14.9°C 40.2°F4.6°C 50% 5.0 mph N8.0 kmh N 15.0 mph24.1 kmh 30.11 in1019.6 mb 0.00 in0.0 mm 0.00 in0.0 mm 0.02 in0.5 mm
06:16 PM 58.8°F14.9°C 41.7°F5.4°C 53% 9.0 mph NW14.5 kmh NW 15.0 mph24.1 kmh 30.11 in1019.6 mb 0.00 in0.0 mm 0.00 in0.0 mm 0.02 in0.5 mm
06:17 PM 58.9°F14.9°C 42.3°F5.7°C 54% 10.0 mph NNW16.1 kmh NNW 15.0 mph24.1 kmh 30.11 in1019.6 mb 0.00 in0.0 mm 0.00 in0.0 mm 0.02 in0.5 mm
06:18 PM 58.9°F14.9°C 40.8°F4.9°C 51% 9.0 mph NW14.5 kmh NW 15.0 mph24.1 kmh 30.11 in1019.6 mb 0.00 in0.0 mm 0.00 in0.0 mm 0.02 in0.5 mm
06:19 PM 58.9°F14.9°C 41.3°F5.2°C 52% 11.0 mph NNW17.7 kmh NNW 15.0 mph24.1 kmh 30.11 in1019.6 mb 0.00 in0.0 mm 0.00 in0.0 mm 0.02 in0.5 mm
06:20 PM 58.9°F14.9°C 41.8°F5.4°C 53% 9.0 mph NNW14.5 kmh NNW 15.0 mph24.1 kmh 30.11 in1019.6 mb 0.00 in0.0 mm 0.00 in0.0 mm 0.02 in0.5 mm
06:21 PM 59.0°F15.0°C 41.9°F5.5°C 53% 12.0 mph NNW19.3 kmh NNW 15.0 mph24.1 kmh 30.11 in1019.6 mb 0.00 in0.0 mm 0.00 in0.0 mm 0.02 in0.5 mm
06:22 PM 59.0°F15.0°C 41.4°F5.2°C 52% 10.0 mph N16.1 kmh N 15.0 mph24.1 kmh 30.11 in1019.6 mb 0.00 in0.0 mm 0.00 in0.0 mm 0.02 in0.5 mm
06:23 PM 59.0°F15.0°C 41.4°F5.2°C 52% 9.0 mph NW14.5 kmh NW 15.0 mph24.1 kmh 30.11 in1019.6 mb 0.00 in0.0 mm 0.00 in0.0 mm 0.02 in0.5 mm
06:24 PM 59.0°F15.0°C 40.9°F4.9°C 51% 9.0 mph NW14.5 kmh NW 15.0 mph24.1 kmh 30.11 in1019.6 mb 0.00 in0.0 mm 0.00 in0.0 mm 0.02 in0.5 mm
06:25 PM 59.0°F15.0°C 41.9°F5.5°C 53% 12.0 mph NW19.3 kmh NW 15.0 mph24.1 kmh 30.11 in1019.6 mb 0.00 in0.0 mm 0.00 in0.0 mm 0.02 in0.5 mm
06:26 PM 59.0°F15.0°C 41.9°F5.5°C 53% 11.0 mph N17.7 kmh N 15.0 mph24.1 kmh 30.11 in1019.6 mb 0.00 in0.0 mm 0.00 in0.0 mm 0.02 in0.5 mm
06:27 PM 59.0°F15.0°C 41.4°F5.2°C 52% 10.0 mph NW16.1 kmh NW 15.0 mph24.1 kmh 30.11 in1019.6 mb 0.00 in0.0 mm 0.00 in0.0 mm 0.02 in0.5 mm
06:28 PM 59.1°F15.1°C 41.5°F5.3°C 52% 10.0 mph NW16.1 kmh NW 15.0 mph24.1 kmh 30.11 in1019.6 mb 0.00 in0.0 mm 0.00 in0.0 mm 0.02 in0.5 mm
06:29 PM 59.1°F15.1°C 41.0°F5.0°C 51% 9.0 mph NW14.5 kmh NW 15.0 mph24.1 kmh 30.11 in1019.6 mb 0.00 in0.0 mm 0.00 in0.0 mm 0.02 in0.5 mm
06:30 PM 59.0°F15.0°C 40.4°F4.7°C 50% 7.0 mph N11.3 kmh N 7.0 mph11.3 kmh 30.11 in1019.6 mb 0.00 in0.0 mm 0.00 in0.0 mm 0.02 in0.5 mm
06:31 PM 59.0°F15.0°C 40.9°F4.9°C 51% 5.0 mph N8.0 kmh N 7.0 mph11.3 kmh 30.11 in1019.6 mb 0.00 in0.0 mm 0.00 in0.0 mm 0.02 in0.5 mm
06:32 PM 59.0°F15.0°C 41.4°F5.2°C 52% 11.0 mph NW17.7 kmh NW 11.0 mph17.7 kmh 30.11 in1019.6 mb 0.00 in0.0 mm 0.00 in0.0 mm 0.02 in0.5 mm
06:33 PM 59.1°F15.1°C 41.5°F5.3°C 52% 9.0 mph NNW14.5 kmh NNW 11.0 mph17.7 kmh 30.11 in1019.6 mb 0.00 in0.0 mm 0.00 in0.0 mm 0.02 in0.5 mm
06:34 PM 59.1°F15.1°C 41.5°F5.3°C 52% 7.0 mph NNW11.3 kmh NNW 11.0 mph17.7 kmh 30.11 in1019.6 mb 0.00 in0.0 mm 0.00 in0.0 mm 0.02 in0.5 mm
06:35 PM 59.1°F15.1°C 42.0°F5.6°C 53% 9.0 mph NNW14.5 kmh NNW 12.0 mph19.3 kmh 30.11 in1019.6 mb 0.00 in0.0 mm 0.00 in0.0 mm 0.02 in0.5 mm
06:36 PM 59.1°F15.1°C 42.0°F5.6°C 53% 8.0 mph N12.9 kmh N 12.0 mph19.3 kmh 30.11 in1019.6 mb 0.00 in0.0 mm 0.00 in0.0 mm 0.02 in0.5 mm
06:37 PM 59.1°F15.1°C 42.0°F5.6°C 53% 8.0 mph NNW12.9 kmh NNW 12.0 mph19.3 kmh 30.11 in1019.6 mb 0.00 in0.0 mm 0.00 in0.0 mm 0.02 in0.5 mm
06:38 PM 59.2°F15.1°C 42.6°F5.9°C 54% 7.0 mph N11.3 kmh N 12.0 mph19.3 kmh 30.11 in1019.6 mb 0.00 in0.0 mm 0.00 in0.0 mm 0.02 in0.5 mm
06:39 PM 59.2°F15.1°C 42.6°F5.9°C 54% 8.0 mph N12.9 kmh N 12.0 mph19.3 kmh 30.11 in1019.6 mb 0.00 in0.0 mm 0.00 in0.0 mm 0.02 in0.5 mm
06:40 PM 59.3°F15.2°C 42.7°F5.9°C 54% 8.0 mph NNE12.9 kmh NNE 12.0 mph19.3 kmh 30.11 in1019.6 mb 0.00 in0.0 mm 0.00 in0.0 mm 0.02 in0.5 mm
06:41 PM 59.3°F15.2°C 43.2°F6.2°C 55% 10.0 mph NNE16.1 kmh NNE 12.0 mph19.3 kmh 30.11 in1019.6 mb 0.00 in0.0 mm 0.00 in0.0 mm 0.02 in0.5 mm
06:42 PM 59.3°F15.2°C 40.7°F4.8°C 50% 8.0 mph NE12.9 kmh NE 12.0 mph19.3 kmh 30.11 in1019.6 mb 0.00 in0.0 mm 0.00 in0.0 mm 0.02 in0.5 mm
06:43 PM 59.3°F15.2°C 41.2°F5.1°C 51% 12.0 mph NE19.3 kmh NE 12.0 mph19.3 kmh 30.11 in1019.6 mb 0.00 in0.0 mm 0.00 in0.0 mm 0.02 in0.5 mm
06:44 PM 59.3°F15.2°C 41.2°F5.1°C 51% 11.0 mph NNE17.7 kmh NNE 12.0 mph19.3 kmh 30.11 in1019.6 mb 0.00 in0.0 mm 0.00 in0.0 mm 0.02 in0.5 mm
06:45 PM 59.2°F15.1°C 40.6°F4.8°C 50% 10.0 mph NE16.1 kmh NE 12.0 mph19.3 kmh 30.11 in1019.6 mb 0.00 in0.0 mm 0.00 in0.0 mm 0.02 in0.5 mm
06:46 PM 59.2°F15.1°C 40.6°F4.8°C 50% 12.0 mph NNE19.3 kmh NNE 12.0 mph19.3 kmh 30.11 in1019.6 mb 0.00 in0.0 mm 0.00 in0.0 mm 0.02 in0.5 mm
06:47 PM 59.2°F15.1°C 41.1°F5.1°C 51% 11.0 mph N17.7 kmh N 12.0 mph19.3 kmh 30.11 in1019.6 mb 0.00 in0.0 mm 0.00 in0.0 mm 0.02 in0.5 mm
06:48 PM 59.1°F15.1°C 41.0°F5.0°C 51% 13.0 mph N20.9 kmh N 14.0 mph22.5 kmh 30.11 in1019.6 mb 0.00 in0.0 mm 0.00 in0.0 mm 0.02 in0.5 mm
06:49 PM 59.1°F15.1°C 41.0°F5.0°C 51% 9.0 mph N14.5 kmh N 14.0 mph22.5 kmh 30.11 in1019.6 mb 0.00 in0.0 mm 0.00 in0.0 mm 0.02 in0.5 mm
06:50 PM 59.0°F15.0°C 40.9°F4.9°C 51% 11.0 mph NNE17.7 kmh NNE 14.0 mph22.5 kmh 30.11 in1019.6 mb 0.00 in0.0 mm 0.00 in0.0 mm 0.02 in0.5 mm
06:51 PM 59.0°F15.0°C 41.9°F5.5°C 53% 11.0 mph NNE17.7 kmh NNE 14.0 mph22.5 kmh 30.11 in1019.6 mb 0.00 in0.0 mm 0.00 in0.0 mm 0.02 in0.5 mm
06:52 PM 59.0°F15.0°C 41.9°F5.5°C 53% 10.0 mph NNE16.1 kmh NNE 14.0 mph22.5 kmh 30.11 in1019.6 mb 0.00 in0.0 mm 0.00 in0.0 mm 0.02 in0.5 mm
06:53 PM 58.9°F14.9°C 40.8°F4.9°C 51% 9.0 mph N14.5 kmh N 14.0 mph22.5 kmh 30.11 in1019.6 mb 0.00 in0.0 mm 0.00 in0.0 mm 0.02 in0.5 mm
06:54 PM 58.9°F14.9°C 41.3°F5.2°C 52% 11.0 mph NNE17.7 kmh NNE 14.0 mph22.5 kmh 30.11 in1019.6 mb 0.00 in0.0 mm 0.00 in0.0 mm 0.02 in0.5 mm
06:55 PM 58.8°F14.9°C 40.7°F4.8°C 51% 9.0 mph N14.5 kmh N 14.0 mph22.5 kmh 30.11 in1019.6 mb 0.00 in0.0 mm 0.00 in0.0 mm 0.02 in0.5 mm
06:56 PM 58.7°F14.8°C 40.1°F4.5°C 50% 8.0 mph N12.9 kmh N 14.0 mph22.5 kmh 30.11 in1019.6 mb 0.00 in0.0 mm 0.00 in0.0 mm 0.02 in0.5 mm
06:57 PM 58.7°F14.8°C 39.6°F4.2°C 49% 7.0 mph N11.3 kmh N 14.0 mph22.5 kmh 30.11 in1019.6 mb 0.00 in0.0 mm 0.00 in0.0 mm 0.02 in0.5 mm
06:58 PM 58.6°F14.8°C 41.1°F5.1°C 52% 7.0 mph N11.3 kmh N 14.0 mph22.5 kmh 30.11 in1019.6 mb 0.00 in0.0 mm 0.00 in0.0 mm 0.02 in0.5 mm
06:59 PM 58.6°F14.8°C 40.6°F4.8°C 51% 6.0 mph N9.7 kmh N 14.0 mph22.5 kmh 30.11 in1019.6 mb 0.00 in0.0 mm 0.00 in0.0 mm 0.02 in0.5 mm
07:00 PM 58.5°F14.7°C 40.5°F4.7°C 51% 7.0 mph NNE11.3 kmh NNE 8.0 mph12.9 kmh 30.11 in1019.6 mb 0.00 in0.0 mm 0.00 in0.0 mm 0.02 in0.5 mm
07:01 PM 58.4°F14.7°C 40.9°F4.9°C 52% 7.0 mph NNE11.3 kmh NNE 8.0 mph12.9 kmh 30.11 in1019.6 mb 0.00 in0.0 mm 0.00 in0.0 mm 0.02 in0.5 mm
07:02 PM 58.4°F14.7°C 40.9°F4.9°C 52% 7.0 mph NNE11.3 kmh NNE 8.0 mph12.9 kmh 30.11 in1019.6 mb 0.00 in0.0 mm 0.00 in0.0 mm 0.02 in0.5 mm
07:03 PM 58.4°F14.7°C 40.9°F4.9°C 52% 5.0 mph N8.0 kmh N 8.0 mph12.9 kmh 30.11 in1019.6 mb 0.00 in0.0 mm 0.00 in0.0 mm 0.02 in0.5 mm
07:04 PM 58.4°F14.7°C 40.9°F4.9°C 52% 6.0 mph N9.7 kmh N 8.0 mph12.9 kmh 30.11 in1019.6 mb 0.00 in0.0 mm 0.00 in0.0 mm 0.02 in0.5 mm
07:05 PM 58.3°F14.6°C 40.3°F4.6°C 51% 5.0 mph N8.0 kmh N 8.0 mph12.9 kmh 30.11 in1019.6 mb 0.00 in0.0 mm 0.00 in0.0 mm 0.02 in0.5 mm
07:06 PM 58.3°F14.6°C 40.3°F4.6°C 51% 7.0 mph N11.3 kmh N 8.0 mph12.9 kmh 30.11 in1019.6 mb 0.00 in0.0 mm 0.00 in0.0 mm 0.02 in0.5 mm
07:07 PM 58.3°F14.6°C 39.8°F4.3°C 50% 9.0 mph N14.5 kmh N 11.0 mph17.7 kmh 30.11 in1019.6 mb 0.00 in0.0 mm 0.00 in0.0 mm 0.02 in0.5 mm
07:08 PM 58.3°F14.6°C 39.8°F4.3°C 50% 11.0 mph NNW17.7 kmh NNW 11.0 mph17.7 kmh 30.11 in1019.6 mb 0.00 in0.0 mm 0.00 in0.0 mm 0.02 in0.5 mm
07:09 PM 58.3°F14.6°C 39.8°F4.3°C 50% 7.0 mph N11.3 kmh N 11.0 mph17.7 kmh 30.11 in1019.6 mb 0.00 in0.0 mm 0.00 in0.0 mm 0.02 in0.5 mm
07:10 PM 58.3°F14.6°C 40.8°F4.9°C 52% 8.0 mph NNW12.9 kmh NNW 11.0 mph17.7 kmh 30.11 in1019.6 mb 0.00 in0.0 mm 0.00 in0.0 mm 0.02 in0.5 mm
07:11 PM 58.3°F14.6°C 40.3°F4.6°C 51% 8.0 mph N12.9 kmh N 12.0 mph19.3 kmh 30.11 in1019.6 mb 0.00 in0.0 mm 0.00 in0.0 mm 0.02 in0.5 mm
07:12 PM 58.2°F14.6°C 40.7°F4.8°C 52% 9.0 mph NNW14.5 kmh NNW 12.0 mph19.3 kmh 30.11 in1019.6 mb 0.00 in0.0 mm 0.00 in0.0 mm 0.02 in0.5 mm
07:13 PM 58.2°F14.6°C 40.7°F4.8°C 52% 11.0 mph NNW17.7 kmh NNW 12.0 mph19.3 kmh 30.11 in1019.6 mb 0.00 in0.0 mm 0.00 in0.0 mm 0.02 in0.5 mm
07:14 PM 58.2°F14.6°C 40.7°F4.8°C 52% 7.0 mph NNW11.3 kmh NNW 12.0 mph19.3 kmh 30.11 in1019.6 mb 0.00 in0.0 mm 0.00 in0.0 mm 0.02 in0.5 mm
07:15 PM 58.2°F14.6°C 40.7°F4.8°C 52% 8.0 mph NW12.9 kmh NW 12.0 mph19.3 kmh 30.11 in1019.6 mb 0.00 in0.0 mm 0.00 in0.0 mm 0.02 in0.5 mm
07:16 PM 58.1°F14.5°C 41.6°F5.3°C 54% 8.0 mph NNW12.9 kmh NNW 12.0 mph19.3 kmh 30.11 in1019.6 mb 0.00 in0.0 mm 0.00 in0.0 mm 0.02 in0.5 mm
07:17 PM 58.1°F14.5°C 40.6°F4.8°C 52% 9.0 mph NNW14.5 kmh NNW 12.0 mph19.3 kmh 30.11 in1019.6 mb 0.00 in0.0 mm 0.00 in0.0 mm 0.02 in0.5 mm
07:18 PM 58.1°F14.5°C 40.6°F4.8°C 52% 7.0 mph NNW11.3 kmh NNW 12.0 mph19.3 kmh 30.11 in1019.6 mb 0.00 in0.0 mm 0.00 in0.0 mm 0.02 in0.5 mm
07:19 PM 58.0°F14.4°C 41.5°F5.3°C 54% 6.0 mph NNW9.7 kmh NNW 12.0 mph19.3 kmh 30.11 in1019.6 mb 0.00 in0.0 mm 0.00 in0.0 mm 0.02 in0.5 mm
07:20 PM 58.0°F14.4°C 41.5°F5.3°C 54% 6.0 mph NNW9.7 kmh NNW 12.0 mph19.3 kmh 30.11 in1019.6 mb 0.00 in0.0 mm 0.00 in0.0 mm 0.02 in0.5 mm
07:21 PM 57.9°F14.4°C 41.9°F5.5°C 55% 8.0 mph NNW12.9 kmh NNW 12.0 mph19.3 kmh 30.11 in1019.6 mb 0.00 in0.0 mm 0.00 in0.0 mm 0.02 in0.5 mm
07:22 PM 57.8°F14.3°C 41.3°F5.2°C 54% 8.0 mph NNW12.9 kmh NNW 12.0 mph19.3 kmh 30.11 in1019.6 mb 0.00 in0.0 mm 0.00 in0.0 mm 0.02 in0.5 mm
07:23 PM 57.8°F14.3°C 40.3°F4.6°C 52% 9.0 mph N14.5 kmh N 12.0 mph19.3 kmh 30.11 in1019.6 mb 0.00 in0.0 mm 0.00 in0.0 mm 0.02 in0.5 mm
07:24 PM 57.8°F14.3°C 40.8°F4.9°C 53% 8.0 mph N12.9 kmh N 12.0 mph19.3 kmh 30.11 in1019.6 mb 0.00 in0.0 mm 0.00 in0.0 mm 0.02 in0.5 mm
07:25 PM 57.7°F14.3°C 40.7°F4.8°C 53% 8.0 mph N12.9 kmh N 12.0 mph19.3 kmh 30.11 in1019.6 mb 0.00 in0.0 mm 0.00 in0.0 mm 0.02 in0.5 mm
07:26 PM 57.7°F14.3°C 41.2°F5.1°C 54% 7.0 mph N11.3 kmh N 12.0 mph19.3 kmh 30.11 in1019.6 mb 0.00 in0.0 mm 0.00 in0.0 mm 0.02 in0.5 mm
07:27 PM 57.6°F14.2°C 42.0°F5.6°C 56% 7.0 mph N11.3 kmh N 12.0 mph19.3 kmh 30.11 in1019.6 mb 0.00 in0.0 mm 0.00 in0.0 mm 0.02 in0.5 mm
07:28 PM 57.6°F14.2°C 42.5°F5.8°C 57% 7.0 mph N11.3 kmh N 12.0 mph19.3 kmh 30.11 in1019.6 mb 0.00 in0.0 mm 0.00 in0.0 mm 0.02 in0.5 mm
07:29 PM 57.5°F14.2°C 42.4°F5.8°C 57% 8.0 mph N12.9 kmh N 12.0 mph19.3 kmh 30.11 in1019.6 mb 0.00 in0.0 mm 0.00 in0.0 mm 0.02 in0.5 mm
07:30 PM 57.4°F14.1°C 41.4°F5.2°C 55% 10.0 mph N16.1 kmh N 10.0 mph16.1 kmh 30.11 in1019.6 mb 0.00 in0.0 mm 0.00 in0.0 mm 0.02 in0.5 mm
07:31 PM 57.3°F14.1°C 41.3°F5.2°C 55% 7.0 mph N11.3 kmh N 10.0 mph16.1 kmh 30.11 in1019.6 mb 0.00 in0.0 mm 0.00 in0.0 mm 0.02 in0.5 mm
07:32 PM 57.3°F14.1°C 41.3°F5.2°C 55% 8.0 mph N12.9 kmh N 10.0 mph16.1 kmh 30.11 in1019.6 mb 0.00 in0.0 mm 0.00 in0.0 mm 0.02 in0.5 mm
07:33 PM 57.3°F14.1°C 41.3°F5.2°C 55% 8.0 mph N12.9 kmh N 10.0 mph16.1 kmh 30.11 in1019.6 mb 0.00 in